<?xml version="1.0" encoding="UTF-8" standalone="no" ?>
<gpx xmlns="http://www.topografix.com/GPX/1/1" xmlns:xsi="http://www.w3.org/2001/XMLSchema-instance" xsi:schemaLocation="http://www.topografix.com/GPX/1/1 http://www.topografix.com/GPX/1/1/gpx.xsd" version="1.1" creator="VisuGPX - https://www.visugpx.com">
  <metadata>
    <name>séjour en étoile au val stura 8-13 mai 2018 CAF SLV</name>
    <desc><![CDATA[Depuis le refuge du Dahu à San  Bernolfo 

trace 1 : [b]col de la Gercha[/b] (2458m) mercredi 9 mai 2018
trace 2 :[b] cime de Colle Longue[/b] ( 2760m) jeudi 10 mai 2018
trace3 : [b]autour des lacs du Lausfer[/b]  ( ~2800 m)vendredi 11 mai 2018
trace4 : [b]pas de Colle Longue et cime ouest de la tête de l'Autaret [/b](2754m) samedi 12 mai 2018
]]></desc>
  </metadata>
  <trk>
    <name><![CDATA[20180514195401-MUPu9]]></name>
    <trkseg>
      <trkpt lat="44.25928" lon="7.04281">
        <ele>1668.73</ele>
        <time>2018-05-11T04:57:46Z</time>
      </trkpt>
      <trkpt lat="44.25928" lon="7.04281">
        <ele>1668.69</ele>
        <time>2018-05-11T04:57:47Z</time>
      </trkpt>
      <trkpt lat="44.25925" lon="7.04277">
        <ele>1668.11</ele>
        <time>2018-05-11T04:58:10Z</time>
      </trkpt>
      <trkpt lat="44.25925" lon="7.04278">
        <ele>1668.6</ele>
        <time>2018-05-11T04:58:32Z</time>
      </trkpt>
      <trkpt lat="44.25926" lon="7.04271">
        <ele>1669.34</ele>
        <time>2018-05-11T04:58:49Z</time>
      </trkpt>
      <trkpt lat="44.25907" lon="7.0427">
        <ele>1670.41</ele>
        <time>2018-05-11T04:58:58Z</time>
      </trkpt>
      <trkpt lat="44.25896" lon="7.04236">
        <ele>1671.17</ele>
        <time>2018-05-11T04:59:24Z</time>
      </trkpt>
      <trkpt lat="44.2588" lon="7.04216">
        <ele>1669.9</ele>
        <time>2018-05-11T04:59:47Z</time>
      </trkpt>
      <trkpt lat="44.25879" lon="7.04216">
        <ele>1669.82</ele>
        <time>2018-05-11T04:59:48Z</time>
      </trkpt>
      <trkpt lat="44.25875" lon="7.04217">
        <ele>1669.77</ele>
        <time>2018-05-11T04:59:52Z</time>
      </trkpt>
      <trkpt lat="44.25853" lon="7.0422">
        <ele>1669.57</ele>
        <time>2018-05-11T05:00:16Z</time>
      </trkpt>
      <trkpt lat="44.25848" lon="7.04207">
        <ele>1670.98</ele>
        <time>2018-05-11T05:00:29Z</time>
      </trkpt>
      <trkpt lat="44.2584" lon="7.04191">
        <ele>1672.51</ele>
        <time>2018-05-11T05:00:47Z</time>
      </trkpt>
      <trkpt lat="44.25834" lon="7.04171">
        <ele>1673.74</ele>
        <time>2018-05-11T05:01:11Z</time>
      </trkpt>
      <trkpt lat="44.25834" lon="7.04168">
        <ele>1673.85</ele>
        <time>2018-05-11T05:01:39Z</time>
      </trkpt>
      <trkpt lat="44.2583" lon="7.04166">
        <ele>1673.21</ele>
        <time>2018-05-11T05:02:00Z</time>
      </trkpt>
      <trkpt lat="44.25831" lon="7.04167">
        <ele>1673.18</ele>
        <time>2018-05-11T05:02:24Z</time>
      </trkpt>
      <trkpt lat="44.25833" lon="7.04166">
        <ele>1673.49</ele>
        <time>2018-05-11T05:02:46Z</time>
      </trkpt>
      <trkpt lat="44.25834" lon="7.04163">
        <ele>1673.12</ele>
        <time>2018-05-11T05:02:56Z</time>
      </trkpt>
      <trkpt lat="44.25837" lon="7.04155">
        <ele>1670.35</ele>
        <time>2018-05-11T05:03:08Z</time>
      </trkpt>
      <trkpt lat="44.25836" lon="7.04147">
        <ele>1670.99</ele>
        <time>2018-05-11T05:03:29Z</time>
      </trkpt>
      <trkpt lat="44.25831" lon="7.04135">
        <ele>1672.49</ele>
        <time>2018-05-11T05:03:49Z</time>
      </trkpt>
      <trkpt lat="44.25822" lon="7.04127">
        <ele>1674.52</ele>
        <time>2018-05-11T05:04:14Z</time>
      </trkpt>
      <trkpt lat="44.25822" lon="7.04116">
        <ele>1674.98</ele>
        <time>2018-05-11T05:04:26Z</time>
      </trkpt>
      <trkpt lat="44.25821" lon="7.04112">
        <ele>1675.15</ele>
        <time>2018-05-11T05:04:30Z</time>
      </trkpt>
      <trkpt lat="44.25819" lon="7.04101">
        <ele>1676.49</ele>
        <time>2018-05-11T05:04:45Z</time>
      </trkpt>
      <trkpt lat="44.25821" lon="7.04096">
        <ele>1677.27</ele>
        <time>2018-05-11T05:04:59Z</time>
      </trkpt>
      <trkpt lat="44.25816" lon="7.0408">
        <ele>1678.78</ele>
        <time>2018-05-11T05:05:20Z</time>
      </trkpt>
      <trkpt lat="44.25815" lon="7.04065">
        <ele>1680.45</ele>
        <time>2018-05-11T05:05:39Z</time>
      </trkpt>
      <trkpt lat="44.25814" lon="7.04053">
        <ele>1682.27</ele>
        <time>2018-05-11T05:05:59Z</time>
      </trkpt>
      <trkpt lat="44.25806" lon="7.04039">
        <ele>1684.58</ele>
        <time>2018-05-11T05:06:22Z</time>
      </trkpt>
      <trkpt lat="44.25804" lon="7.04033">
        <ele>1685.94</ele>
        <time>2018-05-11T05:06:35Z</time>
      </trkpt>
      <trkpt lat="44.25802" lon="7.04012">
        <ele>1688.33</ele>
        <time>2018-05-11T05:07:00Z</time>
      </trkpt>
      <trkpt lat="44.25796" lon="7.03995">
        <ele>1690.22</ele>
        <time>2018-05-11T05:07:21Z</time>
      </trkpt>
      <trkpt lat="44.25791" lon="7.03979">
        <ele>1692.25</ele>
        <time>2018-05-11T05:07:41Z</time>
      </trkpt>
      <trkpt lat="44.25787" lon="7.03964">
        <ele>1694.67</ele>
        <time>2018-05-11T05:08:02Z</time>
      </trkpt>
      <trkpt lat="44.2578" lon="7.0395">
        <ele>1696.94</ele>
        <time>2018-05-11T05:08:23Z</time>
      </trkpt>
      <trkpt lat="44.25776" lon="7.03935">
        <ele>1697.98</ele>
        <time>2018-05-11T05:08:42Z</time>
      </trkpt>
      <trkpt lat="44.25776" lon="7.03919">
        <ele>1700.83</ele>
        <time>2018-05-11T05:09:04Z</time>
      </trkpt>
      <trkpt lat="44.25769" lon="7.03906">
        <ele>1703.23</ele>
        <time>2018-05-11T05:09:26Z</time>
      </trkpt>
      <trkpt lat="44.25761" lon="7.03896">
        <ele>1703.57</ele>
        <time>2018-05-11T05:09:42Z</time>
      </trkpt>
      <trkpt lat="44.25754" lon="7.03886">
        <ele>1704.33</ele>
        <time>2018-05-11T05:09:57Z</time>
      </trkpt>
      <trkpt lat="44.25746" lon="7.03872">
        <ele>1706.01</ele>
        <time>2018-05-11T05:10:18Z</time>
      </trkpt>
      <trkpt lat="44.25742" lon="7.03849">
        <ele>1707.24</ele>
        <time>2018-05-11T05:10:42Z</time>
      </trkpt>
      <trkpt lat="44.25735" lon="7.03838">
        <ele>1709.08</ele>
        <time>2018-05-11T05:10:57Z</time>
      </trkpt>
      <trkpt lat="44.25729" lon="7.03828">
        <ele>1710.86</ele>
        <time>2018-05-11T05:11:15Z</time>
      </trkpt>
      <trkpt lat="44.25726" lon="7.03815">
        <ele>1713.11</ele>
        <time>2018-05-11T05:11:36Z</time>
      </trkpt>
      <trkpt lat="44.25721" lon="7.03802">
        <ele>1715.88</ele>
        <time>2018-05-11T05:11:58Z</time>
      </trkpt>
      <trkpt lat="44.25713" lon="7.03789">
        <ele>1718.02</ele>
        <time>2018-05-11T05:12:17Z</time>
      </trkpt>
      <trkpt lat="44.25706" lon="7.03772">
        <ele>1719.91</ele>
        <time>2018-05-11T05:12:37Z</time>
      </trkpt>
      <trkpt lat="44.25704" lon="7.03758">
        <ele>1721.93</ele>
        <time>2018-05-11T05:12:57Z</time>
      </trkpt>
      <trkpt lat="44.257" lon="7.03755">
        <ele>1724.23</ele>
        <time>2018-05-11T05:13:16Z</time>
      </trkpt>
      <trkpt lat="44.25695" lon="7.03756">
        <ele>1725.27</ele>
        <time>2018-05-11T05:13:37Z</time>
      </trkpt>
      <trkpt lat="44.25689" lon="7.03745">
        <ele>1723.85</ele>
        <time>2018-05-11T05:13:59Z</time>
      </trkpt>
      <trkpt lat="44.2568" lon="7.03731">
        <ele>1723.62</ele>
        <time>2018-05-11T05:14:20Z</time>
      </trkpt>
      <trkpt lat="44.25677" lon="7.03714">
        <ele>1723.92</ele>
        <time>2018-05-11T05:14:40Z</time>
      </trkpt>
      <trkpt lat="44.25671" lon="7.03717">
        <ele>1725.5</ele>
        <time>2018-05-11T05:15:08Z</time>
      </trkpt>
      <trkpt lat="44.25665" lon="7.03715">
        <ele>1727.25</ele>
        <time>2018-05-11T05:15:25Z</time>
      </trkpt>
      <trkpt lat="44.25658" lon="7.03696">
        <ele>1727.97</ele>
        <time>2018-05-11T05:15:45Z</time>
      </trkpt>
      <trkpt lat="44.25654" lon="7.03685">
        <ele>1728.82</ele>
        <time>2018-05-11T05:16:07Z</time>
      </trkpt>
      <trkpt lat="44.25654" lon="7.03696">
        <ele>1730.85</ele>
        <time>2018-05-11T05:16:27Z</time>
      </trkpt>
      <trkpt lat="44.25646" lon="7.03692">
        <ele>1733.34</ele>
        <time>2018-05-11T05:16:46Z</time>
      </trkpt>
      <trkpt lat="44.25632" lon="7.03682">
        <ele>1735.9</ele>
        <time>2018-05-11T05:17:05Z</time>
      </trkpt>
      <trkpt lat="44.25633" lon="7.03662">
        <ele>1737.35</ele>
        <time>2018-05-11T05:17:23Z</time>
      </trkpt>
      <trkpt lat="44.25633" lon="7.03645">
        <ele>1738.83</ele>
        <time>2018-05-11T05:17:47Z</time>
      </trkpt>
      <trkpt lat="44.25631" lon="7.03644">
        <ele>1738.56</ele>
        <time>2018-05-11T05:18:05Z</time>
      </trkpt>
      <trkpt lat="44.2563" lon="7.03641">
        <ele>1738.65</ele>
        <time>2018-05-11T05:18:30Z</time>
      </trkpt>
      <trkpt lat="44.25633" lon="7.03624">
        <ele>1741.43</ele>
        <time>2018-05-11T05:18:52Z</time>
      </trkpt>
      <trkpt lat="44.25635" lon="7.03611">
        <ele>1743.83</ele>
        <time>2018-05-11T05:19:14Z</time>
      </trkpt>
      <trkpt lat="44.25637" lon="7.03594">
        <ele>1744.81</ele>
        <time>2018-05-11T05:19:35Z</time>
      </trkpt>
      <trkpt lat="44.25637" lon="7.03587">
        <ele>1745.61</ele>
        <time>2018-05-11T05:19:53Z</time>
      </trkpt>
      <trkpt lat="44.25635" lon="7.03574">
        <ele>1745.39</ele>
        <time>2018-05-11T05:20:12Z</time>
      </trkpt>
      <trkpt lat="44.25634" lon="7.03551">
        <ele>1746.35</ele>
        <time>2018-05-11T05:20:33Z</time>
      </trkpt>
      <trkpt lat="44.25638" lon="7.03533">
        <ele>1745.88</ele>
        <time>2018-05-11T05:20:53Z</time>
      </trkpt>
      <trkpt lat="44.25637" lon="7.0352">
        <ele>1746.68</ele>
        <time>2018-05-11T05:21:10Z</time>
      </trkpt>
      <trkpt lat="44.25636" lon="7.03498">
        <ele>1748.47</ele>
        <time>2018-05-11T05:21:31Z</time>
      </trkpt>
      <trkpt lat="44.25634" lon="7.03486">
        <ele>1749.53</ele>
        <time>2018-05-11T05:21:42Z</time>
      </trkpt>
      <trkpt lat="44.25632" lon="7.03475">
        <ele>1749.92</ele>
        <time>2018-05-11T05:22:01Z</time>
      </trkpt>
      <trkpt lat="44.25633" lon="7.0347">
        <ele>1749.88</ele>
        <time>2018-05-11T05:22:06Z</time>
      </trkpt>
      <trkpt lat="44.25638" lon="7.03452">
        <ele>1746.71</ele>
        <time>2018-05-11T05:22:15Z</time>
      </trkpt>
      <trkpt lat="44.25633" lon="7.03448">
        <ele>1747.49</ele>
        <time>2018-05-11T05:22:34Z</time>
      </trkpt>
      <trkpt lat="44.25627" lon="7.03441">
        <ele>1750.39</ele>
        <time>2018-05-11T05:22:53Z</time>
      </trkpt>
      <trkpt lat="44.25619" lon="7.03427">
        <ele>1752.93</ele>
        <time>2018-05-11T05:23:15Z</time>
      </trkpt>
      <trkpt lat="44.25613" lon="7.03415">
        <ele>1755.58</ele>
        <time>2018-05-11T05:23:35Z</time>
      </trkpt>
      <trkpt lat="44.25608" lon="7.03404">
        <ele>1758.14</ele>
        <time>2018-05-11T05:23:54Z</time>
      </trkpt>
      <trkpt lat="44.25601" lon="7.0339">
        <ele>1761.06</ele>
        <time>2018-05-11T05:24:15Z</time>
      </trkpt>
      <trkpt lat="44.25594" lon="7.03378">
        <ele>1763.05</ele>
        <time>2018-05-11T05:24:33Z</time>
      </trkpt>
      <trkpt lat="44.25587" lon="7.03363">
        <ele>1764.97</ele>
        <time>2018-05-11T05:24:52Z</time>
      </trkpt>
      <trkpt lat="44.25579" lon="7.03348">
        <ele>1767.21</ele>
        <time>2018-05-11T05:25:12Z</time>
      </trkpt>
      <trkpt lat="44.25573" lon="7.03334">
        <ele>1769.84</ele>
        <time>2018-05-11T05:25:30Z</time>
      </trkpt>
      <trkpt lat="44.25568" lon="7.03326">
        <ele>1770.76</ele>
        <time>2018-05-11T05:25:48Z</time>
      </trkpt>
      <trkpt lat="44.25554" lon="7.03311">
        <ele>1770.69</ele>
        <time>2018-05-11T05:26:09Z</time>
      </trkpt>
      <trkpt lat="44.25547" lon="7.033">
        <ele>1771.43</ele>
        <time>2018-05-11T05:26:27Z</time>
      </trkpt>
      <trkpt lat="44.25541" lon="7.03283">
        <ele>1772.39</ele>
        <time>2018-05-11T05:26:44Z</time>
      </trkpt>
      <trkpt lat="44.25534" lon="7.0327">
        <ele>1774.22</ele>
        <time>2018-05-11T05:27:00Z</time>
      </trkpt>
      <trkpt lat="44.25525" lon="7.03256">
        <ele>1776.01</ele>
        <time>2018-05-11T05:27:18Z</time>
      </trkpt>
      <trkpt lat="44.25516" lon="7.03249">
        <ele>1777.4</ele>
        <time>2018-05-11T05:27:33Z</time>
      </trkpt>
      <trkpt lat="44.2551" lon="7.03237">
        <ele>1780.46</ele>
        <time>2018-05-11T05:27:53Z</time>
      </trkpt>
      <trkpt lat="44.255" lon="7.03228">
        <ele>1782.82</ele>
        <time>2018-05-11T05:28:11Z</time>
      </trkpt>
      <trkpt lat="44.25491" lon="7.03219">
        <ele>1784.77</ele>
        <time>2018-05-11T05:28:27Z</time>
      </trkpt>
      <trkpt lat="44.25484" lon="7.03205">
        <ele>1787.09</ele>
        <time>2018-05-11T05:28:46Z</time>
      </trkpt>
      <trkpt lat="44.25478" lon="7.03186">
        <ele>1788.76</ele>
        <time>2018-05-11T05:29:09Z</time>
      </trkpt>
      <trkpt lat="44.25474" lon="7.03173">
        <ele>1790.51</ele>
        <time>2018-05-11T05:29:27Z</time>
      </trkpt>
      <trkpt lat="44.2547" lon="7.03159">
        <ele>1792.81</ele>
        <time>2018-05-11T05:29:45Z</time>
      </trkpt>
      <trkpt lat="44.25463" lon="7.03148">
        <ele>1795.22</ele>
        <time>2018-05-11T05:30:04Z</time>
      </trkpt>
      <trkpt lat="44.25456" lon="7.03135">
        <ele>1797.51</ele>
        <time>2018-05-11T05:30:23Z</time>
      </trkpt>
      <trkpt lat="44.25451" lon="7.03124">
        <ele>1799.88</ele>
        <time>2018-05-11T05:30:41Z</time>
      </trkpt>
      <trkpt lat="44.25445" lon="7.03112">
        <ele>1801.82</ele>
        <time>2018-05-11T05:30:58Z</time>
      </trkpt>
      <trkpt lat="44.25438" lon="7.03101">
        <ele>1803.88</ele>
        <time>2018-05-11T05:31:17Z</time>
      </trkpt>
      <trkpt lat="44.25432" lon="7.03087">
        <ele>1806.37</ele>
        <time>2018-05-11T05:31:38Z</time>
      </trkpt>
      <trkpt lat="44.25427" lon="7.03071">
        <ele>1809.01</ele>
        <time>2018-05-11T05:32:00Z</time>
      </trkpt>
      <trkpt lat="44.25423" lon="7.03062">
        <ele>1811.27</ele>
        <time>2018-05-11T05:32:15Z</time>
      </trkpt>
      <trkpt lat="44.25417" lon="7.03049">
        <ele>1813.85</ele>
        <time>2018-05-11T05:32:35Z</time>
      </trkpt>
      <trkpt lat="44.25412" lon="7.03037">
        <ele>1816.14</ele>
        <time>2018-05-11T05:32:55Z</time>
      </trkpt>
      <trkpt lat="44.25406" lon="7.03021">
        <ele>1818.08</ele>
        <time>2018-05-11T05:33:15Z</time>
      </trkpt>
      <trkpt lat="44.25398" lon="7.03008">
        <ele>1819.87</ele>
        <time>2018-05-11T05:33:33Z</time>
      </trkpt>
      <trkpt lat="44.25392" lon="7.03">
        <ele>1822.01</ele>
        <time>2018-05-11T05:33:49Z</time>
      </trkpt>
      <trkpt lat="44.25385" lon="7.02991">
        <ele>1824.22</ele>
        <time>2018-05-11T05:34:07Z</time>
      </trkpt>
      <trkpt lat="44.25377" lon="7.02983">
        <ele>1825.9</ele>
        <time>2018-05-11T05:34:22Z</time>
      </trkpt>
      <trkpt lat="44.25372" lon="7.02974">
        <ele>1828.6</ele>
        <time>2018-05-11T05:34:40Z</time>
      </trkpt>
      <trkpt lat="44.25366" lon="7.02965">
        <ele>1830.8</ele>
        <time>2018-05-11T05:34:59Z</time>
      </trkpt>
      <trkpt lat="44.25356" lon="7.02958">
        <ele>1832.31</ele>
        <time>2018-05-11T05:35:21Z</time>
      </trkpt>
      <trkpt lat="44.25346" lon="7.02947">
        <ele>1835.11</ele>
        <time>2018-05-11T05:35:43Z</time>
      </trkpt>
      <trkpt lat="44.2534" lon="7.02937">
        <ele>1837.54</ele>
        <time>2018-05-11T05:36:03Z</time>
      </trkpt>
      <trkpt lat="44.25334" lon="7.02927">
        <ele>1839.59</ele>
        <time>2018-05-11T05:36:20Z</time>
      </trkpt>
      <trkpt lat="44.25328" lon="7.02913">
        <ele>1841.36</ele>
        <time>2018-05-11T05:36:39Z</time>
      </trkpt>
      <trkpt lat="44.25329" lon="7.02898">
        <ele>1842.53</ele>
        <time>2018-05-11T05:36:59Z</time>
      </trkpt>
      <trkpt lat="44.25328" lon="7.02893">
        <ele>1842.9</ele>
        <time>2018-05-11T05:37:25Z</time>
      </trkpt>
      <trkpt lat="44.25329" lon="7.02882">
        <ele>1844.7</ele>
        <time>2018-05-11T05:37:37Z</time>
      </trkpt>
      <trkpt lat="44.25326" lon="7.02865">
        <ele>1846.4</ele>
        <time>2018-05-11T05:37:56Z</time>
      </trkpt>
      <trkpt lat="44.25323" lon="7.02849">
        <ele>1848.9</ele>
        <time>2018-05-11T05:38:14Z</time>
      </trkpt>
      <trkpt lat="44.25321" lon="7.0283">
        <ele>1851.14</ele>
        <time>2018-05-11T05:38:34Z</time>
      </trkpt>
      <trkpt lat="44.2532" lon="7.02812">
        <ele>1853.35</ele>
        <time>2018-05-11T05:38:52Z</time>
      </trkpt>
      <trkpt lat="44.25318" lon="7.028">
        <ele>1855.48</ele>
        <time>2018-05-11T05:39:10Z</time>
      </trkpt>
      <trkpt lat="44.25317" lon="7.02784">
        <ele>1857.62</ele>
        <time>2018-05-11T05:39:32Z</time>
      </trkpt>
      <trkpt lat="44.25315" lon="7.02773">
        <ele>1860.69</ele>
        <time>2018-05-11T05:39:49Z</time>
      </trkpt>
      <trkpt lat="44.25314" lon="7.02763">
        <ele>1863.39</ele>
        <time>2018-05-11T05:40:06Z</time>
      </trkpt>
      <trkpt lat="44.25309" lon="7.02751">
        <ele>1865.59</ele>
        <time>2018-05-11T05:40:24Z</time>
      </trkpt>
      <trkpt lat="44.25308" lon="7.02747">
        <ele>1865.58</ele>
        <time>2018-05-11T05:40:31Z</time>
      </trkpt>
      <trkpt lat="44.25305" lon="7.02733">
        <ele>1866.91</ele>
        <time>2018-05-11T05:40:46Z</time>
      </trkpt>
      <trkpt lat="44.25302" lon="7.02715">
        <ele>1869.36</ele>
        <time>2018-05-11T05:41:06Z</time>
      </trkpt>
      <trkpt lat="44.25297" lon="7.02702">
        <ele>1871.34</ele>
        <time>2018-05-11T05:41:22Z</time>
      </trkpt>
      <trkpt lat="44.25294" lon="7.02685">
        <ele>1873.79</ele>
        <time>2018-05-11T05:41:40Z</time>
      </trkpt>
      <trkpt lat="44.2529" lon="7.02674">
        <ele>1876.01</ele>
        <time>2018-05-11T05:41:57Z</time>
      </trkpt>
      <trkpt lat="44.25284" lon="7.02664">
        <ele>1877.35</ele>
        <time>2018-05-11T05:42:13Z</time>
      </trkpt>
      <trkpt lat="44.25279" lon="7.02652">
        <ele>1878.55</ele>
        <time>2018-05-11T05:42:31Z</time>
      </trkpt>
      <trkpt lat="44.25278" lon="7.02631">
        <ele>1880.75</ele>
        <time>2018-05-11T05:42:51Z</time>
      </trkpt>
      <trkpt lat="44.25274" lon="7.0261">
        <ele>1882.69</ele>
        <time>2018-05-11T05:43:09Z</time>
      </trkpt>
      <trkpt lat="44.25272" lon="7.02593">
        <ele>1884.73</ele>
        <time>2018-05-11T05:43:26Z</time>
      </trkpt>
      <trkpt lat="44.25268" lon="7.02581">
        <ele>1886.24</ele>
        <time>2018-05-11T05:43:45Z</time>
      </trkpt>
      <trkpt lat="44.25264" lon="7.02569">
        <ele>1888.1</ele>
        <time>2018-05-11T05:44:03Z</time>
      </trkpt>
      <trkpt lat="44.25261" lon="7.0256">
        <ele>1889.19</ele>
        <time>2018-05-11T05:44:16Z</time>
      </trkpt>
      <trkpt lat="44.25255" lon="7.0255">
        <ele>1891.07</ele>
        <time>2018-05-11T05:44:31Z</time>
      </trkpt>
      <trkpt lat="44.25242" lon="7.02541">
        <ele>1892.68</ele>
        <time>2018-05-11T05:44:49Z</time>
      </trkpt>
      <trkpt lat="44.25234" lon="7.02529">
        <ele>1894.67</ele>
        <time>2018-05-11T05:45:06Z</time>
      </trkpt>
      <trkpt lat="44.2523" lon="7.02522">
        <ele>1895.86</ele>
        <time>2018-05-11T05:45:21Z</time>
      </trkpt>
      <trkpt lat="44.25223" lon="7.02511">
        <ele>1897.63</ele>
        <time>2018-05-11T05:45:42Z</time>
      </trkpt>
      <trkpt lat="44.2522" lon="7.02506">
        <ele>1898.13</ele>
        <time>2018-05-11T05:46:01Z</time>
      </trkpt>
      <trkpt lat="44.25209" lon="7.02497">
        <ele>1900.43</ele>
        <time>2018-05-11T05:46:22Z</time>
      </trkpt>
      <trkpt lat="44.25201" lon="7.02487">
        <ele>1902.58</ele>
        <time>2018-05-11T05:46:39Z</time>
      </trkpt>
      <trkpt lat="44.2519" lon="7.02479">
        <ele>1904.53</ele>
        <time>2018-05-11T05:46:56Z</time>
      </trkpt>
      <trkpt lat="44.25178" lon="7.02469">
        <ele>1906.67</ele>
        <time>2018-05-11T05:47:16Z</time>
      </trkpt>
      <trkpt lat="44.25169" lon="7.02464">
        <ele>1908.47</ele>
        <time>2018-05-11T05:47:32Z</time>
      </trkpt>
      <trkpt lat="44.2516" lon="7.02453">
        <ele>1910.3</ele>
        <time>2018-05-11T05:47:48Z</time>
      </trkpt>
      <trkpt lat="44.25158" lon="7.0244">
        <ele>1911.46</ele>
        <time>2018-05-11T05:48:02Z</time>
      </trkpt>
      <trkpt lat="44.25153" lon="7.02426">
        <ele>1914.14</ele>
        <time>2018-05-11T05:48:20Z</time>
      </trkpt>
      <trkpt lat="44.25153" lon="7.02428">
        <ele>1914</ele>
        <time>2018-05-11T05:48:42Z</time>
      </trkpt>
      <trkpt lat="44.25155" lon="7.02428">
        <ele>1913.77</ele>
        <time>2018-05-11T05:49:13Z</time>
      </trkpt>
      <trkpt lat="44.25155" lon="7.02436">
        <ele>1913.68</ele>
        <time>2018-05-11T05:49:41Z</time>
      </trkpt>
      <trkpt lat="44.25153" lon="7.02432">
        <ele>1913.98</ele>
        <time>2018-05-11T05:50:03Z</time>
      </trkpt>
      <trkpt lat="44.25154" lon="7.02424">
        <ele>1914.28</ele>
        <time>2018-05-11T05:50:31Z</time>
      </trkpt>
      <trkpt lat="44.25145" lon="7.0241">
        <ele>1916.8</ele>
        <time>2018-05-11T05:50:48Z</time>
      </trkpt>
      <trkpt lat="44.25136" lon="7.02395">
        <ele>1919.67</ele>
        <time>2018-05-11T05:51:10Z</time>
      </trkpt>
      <trkpt lat="44.25134" lon="7.02397">
        <ele>1919.42</ele>
        <time>2018-05-11T05:51:38Z</time>
      </trkpt>
      <trkpt lat="44.25135" lon="7.02396">
        <ele>1919.74</ele>
        <time>2018-05-11T05:51:51Z</time>
      </trkpt>
      <trkpt lat="44.25136" lon="7.02395">
        <ele>1919.47</ele>
        <time>2018-05-11T05:51:53Z</time>
      </trkpt>
      <trkpt lat="44.25134" lon="7.02389">
        <ele>1920.44</ele>
        <time>2018-05-11T05:52:08Z</time>
      </trkpt>
      <trkpt lat="44.25133" lon="7.02386">
        <ele>1920.9</ele>
        <time>2018-05-11T05:52:10Z</time>
      </trkpt>
      <trkpt lat="44.25128" lon="7.02379">
        <ele>1921.95</ele>
        <time>2018-05-11T05:52:17Z</time>
      </trkpt>
      <trkpt lat="44.25126" lon="7.02375">
        <ele>1922.51</ele>
        <time>2018-05-11T05:52:22Z</time>
      </trkpt>
      <trkpt lat="44.25116" lon="7.02361">
        <ele>1924.71</ele>
        <time>2018-05-11T05:52:39Z</time>
      </trkpt>
      <trkpt lat="44.25111" lon="7.02349">
        <ele>1926.73</ele>
        <time>2018-05-11T05:52:52Z</time>
      </trkpt>
      <trkpt lat="44.25105" lon="7.02335">
        <ele>1928.31</ele>
        <time>2018-05-11T05:53:06Z</time>
      </trkpt>
      <trkpt lat="44.25096" lon="7.02325">
        <ele>1930.58</ele>
        <time>2018-05-11T05:53:23Z</time>
      </trkpt>
      <trkpt lat="44.25094" lon="7.0232">
        <ele>1931.59</ele>
        <time>2018-05-11T05:53:41Z</time>
      </trkpt>
      <trkpt lat="44.25098" lon="7.02308">
        <ele>1932.43</ele>
        <time>2018-05-11T05:54:04Z</time>
      </trkpt>
      <trkpt lat="44.25096" lon="7.02289">
        <ele>1935.37</ele>
        <time>2018-05-11T05:54:23Z</time>
      </trkpt>
      <trkpt lat="44.25093" lon="7.02273">
        <ele>1938.39</ele>
        <time>2018-05-11T05:54:40Z</time>
      </trkpt>
      <trkpt lat="44.25087" lon="7.02263">
        <ele>1940.7</ele>
        <time>2018-05-11T05:54:57Z</time>
      </trkpt>
      <trkpt lat="44.2509" lon="7.02267">
        <ele>1940.55</ele>
        <time>2018-05-11T05:55:24Z</time>
      </trkpt>
      <trkpt lat="44.25088" lon="7.02266">
        <ele>1940.32</ele>
        <time>2018-05-11T05:55:56Z</time>
      </trkpt>
      <trkpt lat="44.25082" lon="7.02255">
        <ele>1943.18</ele>
        <time>2018-05-11T05:56:17Z</time>
      </trkpt>
      <trkpt lat="44.25077" lon="7.02246">
        <ele>1945.61</ele>
        <time>2018-05-11T05:56:34Z</time>
      </trkpt>
      <trkpt lat="44.25075" lon="7.02231">
        <ele>1948.48</ele>
        <time>2018-05-11T05:56:52Z</time>
      </trkpt>
      <trkpt lat="44.25074" lon="7.0222">
        <ele>1951.3</ele>
        <time>2018-05-11T05:57:12Z</time>
      </trkpt>
      <trkpt lat="44.25072" lon="7.02211">
        <ele>1953.81</ele>
        <time>2018-05-11T05:57:28Z</time>
      </trkpt>
      <trkpt lat="44.2507" lon="7.02198">
        <ele>1956.04</ele>
        <time>2018-05-11T05:57:45Z</time>
      </trkpt>
      <trkpt lat="44.25066" lon="7.02187">
        <ele>1959.03</ele>
        <time>2018-05-11T05:58:03Z</time>
      </trkpt>
      <trkpt lat="44.25065" lon="7.02173">
        <ele>1961.22</ele>
        <time>2018-05-11T05:58:20Z</time>
      </trkpt>
      <trkpt lat="44.2506" lon="7.02167">
        <ele>1963.74</ele>
        <time>2018-05-11T05:58:35Z</time>
      </trkpt>
      <trkpt lat="44.25055" lon="7.02163">
        <ele>1966.09</ele>
        <time>2018-05-11T05:58:51Z</time>
      </trkpt>
      <trkpt lat="44.25048" lon="7.02153">
        <ele>1968.85</ele>
        <time>2018-05-11T05:59:10Z</time>
      </trkpt>
      <trkpt lat="44.25041" lon="7.02146">
        <ele>1971.72</ele>
        <time>2018-05-11T05:59:29Z</time>
      </trkpt>
      <trkpt lat="44.25038" lon="7.02139">
        <ele>1973.67</ele>
        <time>2018-05-11T05:59:46Z</time>
      </trkpt>
      <trkpt lat="44.25039" lon="7.0213">
        <ele>1976.8</ele>
        <time>2018-05-11T06:00:04Z</time>
      </trkpt>
      <trkpt lat="44.2503" lon="7.02127">
        <ele>1978.97</ele>
        <time>2018-05-11T06:00:21Z</time>
      </trkpt>
      <trkpt lat="44.25023" lon="7.02126">
        <ele>1981.49</ele>
        <time>2018-05-11T06:00:38Z</time>
      </trkpt>
      <trkpt lat="44.2502" lon="7.02115">
        <ele>1983.79</ele>
        <time>2018-05-11T06:00:53Z</time>
      </trkpt>
      <trkpt lat="44.25017" lon="7.02107">
        <ele>1986.08</ele>
        <time>2018-05-11T06:01:09Z</time>
      </trkpt>
      <trkpt lat="44.25017" lon="7.02096">
        <ele>1988.41</ele>
        <time>2018-05-11T06:01:25Z</time>
      </trkpt>
      <trkpt lat="44.25015" lon="7.02088">
        <ele>1990.65</ele>
        <time>2018-05-11T06:01:41Z</time>
      </trkpt>
      <trkpt lat="44.25009" lon="7.02078">
        <ele>1993.54</ele>
        <time>2018-05-11T06:02:00Z</time>
      </trkpt>
      <trkpt lat="44.25003" lon="7.02071">
        <ele>1995.52</ele>
        <time>2018-05-11T06:02:17Z</time>
      </trkpt>
      <trkpt lat="44.24995" lon="7.0207">
        <ele>1998.25</ele>
        <time>2018-05-11T06:02:36Z</time>
      </trkpt>
      <trkpt lat="44.24992" lon="7.02061">
        <ele>2000.2</ele>
        <time>2018-05-11T06:02:51Z</time>
      </trkpt>
      <trkpt lat="44.2499" lon="7.02052">
        <ele>2002.94</ele>
        <time>2018-05-11T06:03:07Z</time>
      </trkpt>
      <trkpt lat="44.24986" lon="7.02042">
        <ele>2004.99</ele>
        <time>2018-05-11T06:03:23Z</time>
      </trkpt>
      <trkpt lat="44.24979" lon="7.02038">
        <ele>2007.36</ele>
        <time>2018-05-11T06:03:39Z</time>
      </trkpt>
      <trkpt lat="44.24972" lon="7.02032">
        <ele>2009.84</ele>
        <time>2018-05-11T06:03:58Z</time>
      </trkpt>
      <trkpt lat="44.24966" lon="7.02024">
        <ele>2011.87</ele>
        <time>2018-05-11T06:04:15Z</time>
      </trkpt>
      <trkpt lat="44.2496" lon="7.02015">
        <ele>2013.96</ele>
        <time>2018-05-11T06:04:32Z</time>
      </trkpt>
      <trkpt lat="44.24953" lon="7.02008">
        <ele>2015.74</ele>
        <time>2018-05-11T06:04:47Z</time>
      </trkpt>
      <trkpt lat="44.24946" lon="7.01998">
        <ele>2018.52</ele>
        <time>2018-05-11T06:05:07Z</time>
      </trkpt>
      <trkpt lat="44.24941" lon="7.01991">
        <ele>2020.52</ele>
        <time>2018-05-11T06:05:21Z</time>
      </trkpt>
      <trkpt lat="44.24935" lon="7.01977">
        <ele>2023.36</ele>
        <time>2018-05-11T06:05:42Z</time>
      </trkpt>
      <trkpt lat="44.24927" lon="7.0197">
        <ele>2024.97</ele>
        <time>2018-05-11T06:05:57Z</time>
      </trkpt>
      <trkpt lat="44.24922" lon="7.01951">
        <ele>2026.98</ele>
        <time>2018-05-11T06:06:16Z</time>
      </trkpt>
      <trkpt lat="44.24911" lon="7.01943">
        <ele>2029.02</ele>
        <time>2018-05-11T06:06:33Z</time>
      </trkpt>
      <trkpt lat="44.24897" lon="7.01942">
        <ele>2030.73</ele>
        <time>2018-05-11T06:06:50Z</time>
      </trkpt>
      <trkpt lat="44.2489" lon="7.01932">
        <ele>2033.02</ele>
        <time>2018-05-11T06:07:07Z</time>
      </trkpt>
      <trkpt lat="44.24893" lon="7.01925">
        <ele>2033.72</ele>
        <time>2018-05-11T06:07:29Z</time>
      </trkpt>
      <trkpt lat="44.24889" lon="7.01926">
        <ele>2033.75</ele>
        <time>2018-05-11T06:07:50Z</time>
      </trkpt>
      <trkpt lat="44.24889" lon="7.01927">
        <ele>2033.44</ele>
        <time>2018-05-11T06:08:13Z</time>
      </trkpt>
      <trkpt lat="44.24886" lon="7.01929">
        <ele>2033.88</ele>
        <time>2018-05-11T06:08:18Z</time>
      </trkpt>
      <trkpt lat="44.24888" lon="7.01932">
        <ele>2033.95</ele>
        <time>2018-05-11T06:08:20Z</time>
      </trkpt>
      <trkpt lat="44.24889" lon="7.01936">
        <ele>2033.89</ele>
        <time>2018-05-11T06:08:23Z</time>
      </trkpt>
      <trkpt lat="44.24885" lon="7.01952">
        <ele>2033.44</ele>
        <time>2018-05-11T06:08:46Z</time>
      </trkpt>
      <trkpt lat="44.24882" lon="7.01959">
        <ele>2033.2</ele>
        <time>2018-05-11T06:09:15Z</time>
      </trkpt>
      <trkpt lat="44.2488" lon="7.0196">
        <ele>2033.42</ele>
        <time>2018-05-11T06:09:45Z</time>
      </trkpt>
      <trkpt lat="44.24881" lon="7.0196">
        <ele>2033.11</ele>
        <time>2018-05-11T06:10:14Z</time>
      </trkpt>
      <trkpt lat="44.24883" lon="7.01962">
        <ele>2033.33</ele>
        <time>2018-05-11T06:10:42Z</time>
      </trkpt>
      <trkpt lat="44.24882" lon="7.0196">
        <ele>2033.08</ele>
        <time>2018-05-11T06:11:09Z</time>
      </trkpt>
      <trkpt lat="44.24881" lon="7.01959">
        <ele>2033.24</ele>
        <time>2018-05-11T06:11:34Z</time>
      </trkpt>
      <trkpt lat="44.24884" lon="7.01961">
        <ele>2033.11</ele>
        <time>2018-05-11T06:11:59Z</time>
      </trkpt>
      <trkpt lat="44.24885" lon="7.01958">
        <ele>2033.02</ele>
        <time>2018-05-11T06:12:29Z</time>
      </trkpt>
      <trkpt lat="44.24885" lon="7.01958">
        <ele>2033.39</ele>
        <time>2018-05-11T06:12:52Z</time>
      </trkpt>
      <trkpt lat="44.24884" lon="7.01959">
        <ele>2033.2</ele>
        <time>2018-05-11T06:13:19Z</time>
      </trkpt>
      <trkpt lat="44.24884" lon="7.01959">
        <ele>2032.58</ele>
        <time>2018-05-11T06:13:44Z</time>
      </trkpt>
      <trkpt lat="44.24883" lon="7.01962">
        <ele>2033.29</ele>
        <time>2018-05-11T06:14:11Z</time>
      </trkpt>
      <trkpt lat="44.24883" lon="7.01961">
        <ele>2033.09</ele>
        <time>2018-05-11T06:14:39Z</time>
      </trkpt>
      <trkpt lat="44.24884" lon="7.0196">
        <ele>2032.49</ele>
        <time>2018-05-11T06:15:05Z</time>
      </trkpt>
      <trkpt lat="44.24886" lon="7.01959">
        <ele>2033.43</ele>
        <time>2018-05-11T06:15:28Z</time>
      </trkpt>
      <trkpt lat="44.24886" lon="7.01958">
        <ele>2033.06</ele>
        <time>2018-05-11T06:15:52Z</time>
      </trkpt>
      <trkpt lat="44.24885" lon="7.0196">
        <ele>2033.22</ele>
        <time>2018-05-11T06:16:14Z</time>
      </trkpt>
      <trkpt lat="44.24886" lon="7.0196">
        <ele>2033.47</ele>
        <time>2018-05-11T06:16:42Z</time>
      </trkpt>
      <trkpt lat="44.24885" lon="7.01959">
        <ele>2033.42</ele>
        <time>2018-05-11T06:17:07Z</time>
      </trkpt>
      <trkpt lat="44.24886" lon="7.0196">
        <ele>2033.41</ele>
        <time>2018-05-11T06:17:32Z</time>
      </trkpt>
      <trkpt lat="44.24885" lon="7.01959">
        <ele>2033.47</ele>
        <time>2018-05-11T06:17:59Z</time>
      </trkpt>
      <trkpt lat="44.24885" lon="7.01959">
        <ele>2033.75</ele>
        <time>2018-05-11T06:18:29Z</time>
      </trkpt>
      <trkpt lat="44.24885" lon="7.01958">
        <ele>2033.76</ele>
        <time>2018-05-11T06:19:02Z</time>
      </trkpt>
      <trkpt lat="44.24884" lon="7.01958">
        <ele>2033.87</ele>
        <time>2018-05-11T06:19:29Z</time>
      </trkpt>
      <trkpt lat="44.24879" lon="7.01946">
        <ele>2035.82</ele>
        <time>2018-05-11T06:19:46Z</time>
      </trkpt>
      <trkpt lat="44.24877" lon="7.01936">
        <ele>2038.3</ele>
        <time>2018-05-11T06:20:04Z</time>
      </trkpt>
      <trkpt lat="44.24872" lon="7.01926">
        <ele>2041.15</ele>
        <time>2018-05-11T06:20:26Z</time>
      </trkpt>
      <trkpt lat="44.24863" lon="7.01929">
        <ele>2043.06</ele>
        <time>2018-05-11T06:20:46Z</time>
      </trkpt>
      <trkpt lat="44.24856" lon="7.01934">
        <ele>2045.24</ele>
        <time>2018-05-11T06:21:07Z</time>
      </trkpt>
      <trkpt lat="44.24851" lon="7.01932">
        <ele>2046.72</ele>
        <time>2018-05-11T06:21:25Z</time>
      </trkpt>
      <trkpt lat="44.24852" lon="7.01919">
        <ele>2049.62</ele>
        <time>2018-05-11T06:21:48Z</time>
      </trkpt>
      <trkpt lat="44.24848" lon="7.01919">
        <ele>2052.16</ele>
        <time>2018-05-11T06:22:08Z</time>
      </trkpt>
      <trkpt lat="44.24841" lon="7.01924">
        <ele>2054.1</ele>
        <time>2018-05-11T06:22:27Z</time>
      </trkpt>
      <trkpt lat="44.24836" lon="7.01928">
        <ele>2055.78</ele>
        <time>2018-05-11T06:22:50Z</time>
      </trkpt>
      <trkpt lat="44.24834" lon="7.01932">
        <ele>2056.5</ele>
        <time>2018-05-11T06:23:22Z</time>
      </trkpt>
      <trkpt lat="44.24834" lon="7.01926">
        <ele>2057.75</ele>
        <time>2018-05-11T06:23:36Z</time>
      </trkpt>
      <trkpt lat="44.24831" lon="7.01917">
        <ele>2060.81</ele>
        <time>2018-05-11T06:23:50Z</time>
      </trkpt>
      <trkpt lat="44.2483" lon="7.01907">
        <ele>2063.26</ele>
        <time>2018-05-11T06:24:07Z</time>
      </trkpt>
      <trkpt lat="44.24829" lon="7.01906">
        <ele>2063.88</ele>
        <time>2018-05-11T06:24:38Z</time>
      </trkpt>
      <trkpt lat="44.2483" lon="7.01897">
        <ele>2064.56</ele>
        <time>2018-05-11T06:25:06Z</time>
      </trkpt>
      <trkpt lat="44.24824" lon="7.01902">
        <ele>2067.34</ele>
        <time>2018-05-11T06:25:24Z</time>
      </trkpt>
      <trkpt lat="44.24816" lon="7.01906">
        <ele>2070.35</ele>
        <time>2018-05-11T06:25:42Z</time>
      </trkpt>
      <trkpt lat="44.24809" lon="7.01911">
        <ele>2072.72</ele>
        <time>2018-05-11T06:25:59Z</time>
      </trkpt>
      <trkpt lat="44.24804" lon="7.01917">
        <ele>2074.89</ele>
        <time>2018-05-11T06:26:18Z</time>
      </trkpt>
      <trkpt lat="44.24803" lon="7.01923">
        <ele>2076.41</ele>
        <time>2018-05-11T06:26:37Z</time>
      </trkpt>
      <trkpt lat="44.24801" lon="7.01927">
        <ele>2076.71</ele>
        <time>2018-05-11T06:27:05Z</time>
      </trkpt>
      <trkpt lat="44.24797" lon="7.01924">
        <ele>2078.4</ele>
        <time>2018-05-11T06:27:25Z</time>
      </trkpt>
      <trkpt lat="44.24797" lon="7.01923">
        <ele>2078.96</ele>
        <time>2018-05-11T06:27:52Z</time>
      </trkpt>
      <trkpt lat="44.24797" lon="7.01919">
        <ele>2079.4</ele>
        <time>2018-05-11T06:28:14Z</time>
      </trkpt>
      <trkpt lat="44.24795" lon="7.01908">
        <ele>2082.46</ele>
        <time>2018-05-11T06:28:31Z</time>
      </trkpt>
      <trkpt lat="44.24795" lon="7.01897">
        <ele>2085.4</ele>
        <time>2018-05-11T06:28:47Z</time>
      </trkpt>
      <trkpt lat="44.24787" lon="7.019">
        <ele>2088.65</ele>
        <time>2018-05-11T06:29:07Z</time>
      </trkpt>
      <trkpt lat="44.24777" lon="7.01906">
        <ele>2091.6</ele>
        <time>2018-05-11T06:29:27Z</time>
      </trkpt>
      <trkpt lat="44.24768" lon="7.01912">
        <ele>2094.62</ele>
        <time>2018-05-11T06:29:47Z</time>
      </trkpt>
      <trkpt lat="44.24764" lon="7.01914">
        <ele>2097.18</ele>
        <time>2018-05-11T06:30:04Z</time>
      </trkpt>
      <trkpt lat="44.2476" lon="7.01912">
        <ele>2099.34</ele>
        <time>2018-05-11T06:30:23Z</time>
      </trkpt>
      <trkpt lat="44.24757" lon="7.01903">
        <ele>2101.56</ele>
        <time>2018-05-11T06:30:40Z</time>
      </trkpt>
      <trkpt lat="44.24756" lon="7.01893">
        <ele>2104.12</ele>
        <time>2018-05-11T06:30:58Z</time>
      </trkpt>
      <trkpt lat="44.24756" lon="7.01882">
        <ele>2106.14</ele>
        <time>2018-05-11T06:31:17Z</time>
      </trkpt>
      <trkpt lat="44.24756" lon="7.01868">
        <ele>2108.82</ele>
        <time>2018-05-11T06:31:42Z</time>
      </trkpt>
      <trkpt lat="44.24755" lon="7.01865">
        <ele>2110.12</ele>
        <time>2018-05-11T06:32:01Z</time>
      </trkpt>
      <trkpt lat="44.24755" lon="7.01858">
        <ele>2111.04</ele>
        <time>2018-05-11T06:32:29Z</time>
      </trkpt>
      <trkpt lat="44.24748" lon="7.01857">
        <ele>2114.09</ele>
        <time>2018-05-11T06:32:45Z</time>
      </trkpt>
      <trkpt lat="44.2474" lon="7.01858">
        <ele>2116.6</ele>
        <time>2018-05-11T06:33:05Z</time>
      </trkpt>
      <trkpt lat="44.24733" lon="7.01862">
        <ele>2118.79</ele>
        <time>2018-05-11T06:33:28Z</time>
      </trkpt>
      <trkpt lat="44.24726" lon="7.01857">
        <ele>2121</ele>
        <time>2018-05-11T06:33:48Z</time>
      </trkpt>
      <trkpt lat="44.24727" lon="7.01845">
        <ele>2123.47</ele>
        <time>2018-05-11T06:34:07Z</time>
      </trkpt>
      <trkpt lat="44.24726" lon="7.01835">
        <ele>2126.49</ele>
        <time>2018-05-11T06:34:27Z</time>
      </trkpt>
      <trkpt lat="44.24726" lon="7.01825">
        <ele>2128.4</ele>
        <time>2018-05-11T06:34:42Z</time>
      </trkpt>
      <trkpt lat="44.24725" lon="7.01816">
        <ele>2131.07</ele>
        <time>2018-05-11T06:35:02Z</time>
      </trkpt>
      <trkpt lat="44.24724" lon="7.01807">
        <ele>2133.8</ele>
        <time>2018-05-11T06:35:20Z</time>
      </trkpt>
      <trkpt lat="44.24722" lon="7.01794">
        <ele>2136.93</ele>
        <time>2018-05-11T06:35:40Z</time>
      </trkpt>
      <trkpt lat="44.24719" lon="7.01783">
        <ele>2139.85</ele>
        <time>2018-05-11T06:35:58Z</time>
      </trkpt>
      <trkpt lat="44.24716" lon="7.01769">
        <ele>2142.93</ele>
        <time>2018-05-11T06:36:17Z</time>
      </trkpt>
      <trkpt lat="44.24713" lon="7.0176">
        <ele>2146.16</ele>
        <time>2018-05-11T06:36:32Z</time>
      </trkpt>
      <trkpt lat="44.24702" lon="7.01766">
        <ele>2149.22</ele>
        <time>2018-05-11T06:36:52Z</time>
      </trkpt>
      <trkpt lat="44.2469" lon="7.01773">
        <ele>2152.35</ele>
        <time>2018-05-11T06:37:11Z</time>
      </trkpt>
      <trkpt lat="44.24686" lon="7.0177">
        <ele>2154.16</ele>
        <time>2018-05-11T06:37:27Z</time>
      </trkpt>
      <trkpt lat="44.24687" lon="7.01756">
        <ele>2157.2</ele>
        <time>2018-05-11T06:37:45Z</time>
      </trkpt>
      <trkpt lat="44.24686" lon="7.01745">
        <ele>2160.1</ele>
        <time>2018-05-11T06:38:02Z</time>
      </trkpt>
      <trkpt lat="44.24681" lon="7.01743">
        <ele>2162.54</ele>
        <time>2018-05-11T06:38:21Z</time>
      </trkpt>
      <trkpt lat="44.24671" lon="7.01747">
        <ele>2165.55</ele>
        <time>2018-05-11T06:38:38Z</time>
      </trkpt>
      <trkpt lat="44.24666" lon="7.01747">
        <ele>2168.22</ele>
        <time>2018-05-11T06:38:55Z</time>
      </trkpt>
      <trkpt lat="44.24671" lon="7.01732">
        <ele>2169.69</ele>
        <time>2018-05-11T06:39:14Z</time>
      </trkpt>
      <trkpt lat="44.24671" lon="7.01717">
        <ele>2172.73</ele>
        <time>2018-05-11T06:39:34Z</time>
      </trkpt>
      <trkpt lat="44.24669" lon="7.01706">
        <ele>2175.25</ele>
        <time>2018-05-11T06:39:51Z</time>
      </trkpt>
      <trkpt lat="44.24664" lon="7.01712">
        <ele>2177.58</ele>
        <time>2018-05-11T06:40:12Z</time>
      </trkpt>
      <trkpt lat="44.24654" lon="7.01719">
        <ele>2180.76</ele>
        <time>2018-05-11T06:40:32Z</time>
      </trkpt>
      <trkpt lat="44.24643" lon="7.01722">
        <ele>2183.82</ele>
        <time>2018-05-11T06:40:53Z</time>
      </trkpt>
      <trkpt lat="44.24646" lon="7.01713">
        <ele>2185.2</ele>
        <time>2018-05-11T06:41:12Z</time>
      </trkpt>
      <trkpt lat="44.24647" lon="7.01697">
        <ele>2188.23</ele>
        <time>2018-05-11T06:41:31Z</time>
      </trkpt>
      <trkpt lat="44.24644" lon="7.01687">
        <ele>2191.31</ele>
        <time>2018-05-11T06:41:49Z</time>
      </trkpt>
      <trkpt lat="44.24645" lon="7.01673">
        <ele>2194.38</ele>
        <time>2018-05-11T06:42:09Z</time>
      </trkpt>
      <trkpt lat="44.24646" lon="7.01661">
        <ele>2196.87</ele>
        <time>2018-05-11T06:42:28Z</time>
      </trkpt>
      <trkpt lat="44.24647" lon="7.01652">
        <ele>2199.14</ele>
        <time>2018-05-11T06:42:48Z</time>
      </trkpt>
      <trkpt lat="44.24648" lon="7.01641">
        <ele>2202.04</ele>
        <time>2018-05-11T06:43:07Z</time>
      </trkpt>
      <trkpt lat="44.24649" lon="7.0163">
        <ele>2204.5</ele>
        <time>2018-05-11T06:43:26Z</time>
      </trkpt>
      <trkpt lat="44.24651" lon="7.0162">
        <ele>2206.95</ele>
        <time>2018-05-11T06:43:44Z</time>
      </trkpt>
      <trkpt lat="44.24652" lon="7.01607">
        <ele>2209.95</ele>
        <time>2018-05-11T06:44:04Z</time>
      </trkpt>
      <trkpt lat="44.24649" lon="7.01602">
        <ele>2212.24</ele>
        <time>2018-05-11T06:44:28Z</time>
      </trkpt>
      <trkpt lat="44.24645" lon="7.01594">
        <ele>2214.65</ele>
        <time>2018-05-11T06:44:44Z</time>
      </trkpt>
      <trkpt lat="44.24635" lon="7.01592">
        <ele>2217.16</ele>
        <time>2018-05-11T06:44:59Z</time>
      </trkpt>
      <trkpt lat="44.24625" lon="7.01589">
        <ele>2219.67</ele>
        <time>2018-05-11T06:45:16Z</time>
      </trkpt>
      <trkpt lat="44.24628" lon="7.01585">
        <ele>2222.31</ele>
        <time>2018-05-11T06:45:33Z</time>
      </trkpt>
      <trkpt lat="44.24635" lon="7.01577">
        <ele>2225.5</ele>
        <time>2018-05-11T06:45:52Z</time>
      </trkpt>
      <trkpt lat="44.24634" lon="7.01573">
        <ele>2226.68</ele>
        <time>2018-05-11T06:46:11Z</time>
      </trkpt>
      <trkpt lat="44.24635" lon="7.01573">
        <ele>2226.79</ele>
        <time>2018-05-11T06:46:15Z</time>
      </trkpt>
      <trkpt lat="44.24636" lon="7.01571">
        <ele>2226.7</ele>
        <time>2018-05-11T06:46:20Z</time>
      </trkpt>
      <trkpt lat="44.24635" lon="7.01574">
        <ele>2226</ele>
        <time>2018-05-11T06:46:43Z</time>
      </trkpt>
      <trkpt lat="44.24635" lon="7.01575">
        <ele>2226.08</ele>
        <time>2018-05-11T06:47:12Z</time>
      </trkpt>
      <trkpt lat="44.24634" lon="7.01574">
        <ele>2226.21</ele>
        <time>2018-05-11T06:47:42Z</time>
      </trkpt>
      <trkpt lat="44.24634" lon="7.0157">
        <ele>2225.86</ele>
        <time>2018-05-11T06:48:12Z</time>
      </trkpt>
      <trkpt lat="44.24634" lon="7.01574">
        <ele>2225.7</ele>
        <time>2018-05-11T06:48:38Z</time>
      </trkpt>
      <trkpt lat="44.24627" lon="7.01573">
        <ele>2225.94</ele>
        <time>2018-05-11T06:49:10Z</time>
      </trkpt>
      <trkpt lat="44.24634" lon="7.01574">
        <ele>2226.1</ele>
        <time>2018-05-11T06:49:39Z</time>
      </trkpt>
      <trkpt lat="44.24635" lon="7.01573">
        <ele>2226.05</ele>
        <time>2018-05-11T06:50:08Z</time>
      </trkpt>
      <trkpt lat="44.24633" lon="7.01576">
        <ele>2226.11</ele>
        <time>2018-05-11T06:50:36Z</time>
      </trkpt>
      <trkpt lat="44.24631" lon="7.01577">
        <ele>2226.71</ele>
        <time>2018-05-11T06:51:05Z</time>
      </trkpt>
      <trkpt lat="44.24634" lon="7.01582">
        <ele>2226</ele>
        <time>2018-05-11T06:51:32Z</time>
      </trkpt>
      <trkpt lat="44.24631" lon="7.01576">
        <ele>2225.84</ele>
        <time>2018-05-11T06:51:59Z</time>
      </trkpt>
      <trkpt lat="44.2463" lon="7.01574">
        <ele>2225.72</ele>
        <time>2018-05-11T06:52:32Z</time>
      </trkpt>
      <trkpt lat="44.24629" lon="7.01579">
        <ele>2226.18</ele>
        <time>2018-05-11T06:53:05Z</time>
      </trkpt>
      <trkpt lat="44.24631" lon="7.0158">
        <ele>2226.08</ele>
        <time>2018-05-11T06:53:27Z</time>
      </trkpt>
      <trkpt lat="44.2463" lon="7.01579">
        <ele>2225.86</ele>
        <time>2018-05-11T06:54:00Z</time>
      </trkpt>
      <trkpt lat="44.24628" lon="7.01578">
        <ele>2225.34</ele>
        <time>2018-05-11T06:54:27Z</time>
      </trkpt>
      <trkpt lat="44.24628" lon="7.01577">
        <ele>2226.3</ele>
        <time>2018-05-11T06:54:36Z</time>
      </trkpt>
      <trkpt lat="44.2463" lon="7.01579">
        <ele>2225.13</ele>
        <time>2018-05-11T06:55:10Z</time>
      </trkpt>
      <trkpt lat="44.24631" lon="7.01578">
        <ele>2225.41</ele>
        <time>2018-05-11T06:55:37Z</time>
      </trkpt>
      <trkpt lat="44.2463" lon="7.01579">
        <ele>2225.9</ele>
        <time>2018-05-11T06:56:06Z</time>
      </trkpt>
      <trkpt lat="44.2463" lon="7.01579">
        <ele>2226.17</ele>
        <time>2018-05-11T06:56:35Z</time>
      </trkpt>
      <trkpt lat="44.2463" lon="7.0158">
        <ele>2226.16</ele>
        <time>2018-05-11T06:57:06Z</time>
      </trkpt>
      <trkpt lat="44.2463" lon="7.01579">
        <ele>2225.6</ele>
        <time>2018-05-11T06:57:39Z</time>
      </trkpt>
      <trkpt lat="44.24627" lon="7.01563">
        <ele>2227.31</ele>
        <time>2018-05-11T06:57:57Z</time>
      </trkpt>
      <trkpt lat="44.24631" lon="7.01545">
        <ele>2230.11</ele>
        <time>2018-05-11T06:58:20Z</time>
      </trkpt>
      <trkpt lat="44.24635" lon="7.01534">
        <ele>2232.13</ele>
        <time>2018-05-11T06:58:38Z</time>
      </trkpt>
      <trkpt lat="44.24641" lon="7.01524">
        <ele>2234.3</ele>
        <time>2018-05-11T06:58:58Z</time>
      </trkpt>
      <trkpt lat="44.24647" lon="7.01519">
        <ele>2236.6</ele>
        <time>2018-05-11T06:59:16Z</time>
      </trkpt>
      <trkpt lat="44.24655" lon="7.01508">
        <ele>2238.85</ele>
        <time>2018-05-11T06:59:35Z</time>
      </trkpt>
      <trkpt lat="44.24663" lon="7.01499">
        <ele>2241.55</ele>
        <time>2018-05-11T06:59:58Z</time>
      </trkpt>
      <trkpt lat="44.24668" lon="7.01495">
        <ele>2243.61</ele>
        <time>2018-05-11T07:00:16Z</time>
      </trkpt>
      <trkpt lat="44.24672" lon="7.01491">
        <ele>2245.99</ele>
        <time>2018-05-11T07:00:38Z</time>
      </trkpt>
      <trkpt lat="44.24679" lon="7.01483">
        <ele>2248.81</ele>
        <time>2018-05-11T07:00:56Z</time>
      </trkpt>
      <trkpt lat="44.24689" lon="7.01474">
        <ele>2251.34</ele>
        <time>2018-05-11T07:01:18Z</time>
      </trkpt>
      <trkpt lat="44.24694" lon="7.01468">
        <ele>2253.57</ele>
        <time>2018-05-11T07:01:39Z</time>
      </trkpt>
      <trkpt lat="44.247" lon="7.01464">
        <ele>2255.3</ele>
        <time>2018-05-11T07:02:00Z</time>
      </trkpt>
      <trkpt lat="44.24705" lon="7.01459">
        <ele>2257.23</ele>
        <time>2018-05-11T07:02:18Z</time>
      </trkpt>
      <trkpt lat="44.24713" lon="7.01454">
        <ele>2259.1</ele>
        <time>2018-05-11T07:02:40Z</time>
      </trkpt>
      <trkpt lat="44.24721" lon="7.01444">
        <ele>2260.77</ele>
        <time>2018-05-11T07:03:05Z</time>
      </trkpt>
      <trkpt lat="44.24723" lon="7.01439">
        <ele>2262.27</ele>
        <time>2018-05-11T07:03:24Z</time>
      </trkpt>
      <trkpt lat="44.24727" lon="7.01434">
        <ele>2263.52</ele>
        <time>2018-05-11T07:03:43Z</time>
      </trkpt>
      <trkpt lat="44.2473" lon="7.01431">
        <ele>2264.93</ele>
        <time>2018-05-11T07:04:04Z</time>
      </trkpt>
      <trkpt lat="44.24729" lon="7.01431">
        <ele>2265.17</ele>
        <time>2018-05-11T07:04:23Z</time>
      </trkpt>
      <trkpt lat="44.24736" lon="7.0142">
        <ele>2267.36</ele>
        <time>2018-05-11T07:04:42Z</time>
      </trkpt>
      <trkpt lat="44.24741" lon="7.01413">
        <ele>2268.82</ele>
        <time>2018-05-11T07:05:02Z</time>
      </trkpt>
      <trkpt lat="44.24744" lon="7.01414">
        <ele>2270.1</ele>
        <time>2018-05-11T07:05:22Z</time>
      </trkpt>
      <trkpt lat="44.24743" lon="7.01415">
        <ele>2269.91</ele>
        <time>2018-05-11T07:05:47Z</time>
      </trkpt>
      <trkpt lat="44.24749" lon="7.01404">
        <ele>2271.37</ele>
        <time>2018-05-11T07:06:04Z</time>
      </trkpt>
      <trkpt lat="44.24752" lon="7.01399">
        <ele>2272.34</ele>
        <time>2018-05-11T07:06:26Z</time>
      </trkpt>
      <trkpt lat="44.24759" lon="7.01392">
        <ele>2274.53</ele>
        <time>2018-05-11T07:06:49Z</time>
      </trkpt>
      <trkpt lat="44.24764" lon="7.01382">
        <ele>2276.6</ele>
        <time>2018-05-11T07:07:12Z</time>
      </trkpt>
      <trkpt lat="44.24768" lon="7.01379">
        <ele>2278.52</ele>
        <time>2018-05-11T07:07:31Z</time>
      </trkpt>
      <trkpt lat="44.24771" lon="7.01377">
        <ele>2280.19</ele>
        <time>2018-05-11T07:07:53Z</time>
      </trkpt>
      <trkpt lat="44.24775" lon="7.01375">
        <ele>2282.24</ele>
        <time>2018-05-11T07:08:17Z</time>
      </trkpt>
      <trkpt lat="44.24768" lon="7.01375">
        <ele>2283.76</ele>
        <time>2018-05-11T07:08:35Z</time>
      </trkpt>
      <trkpt lat="44.24764" lon="7.01377">
        <ele>2284.1</ele>
        <time>2018-05-11T07:08:58Z</time>
      </trkpt>
      <trkpt lat="44.24771" lon="7.01365">
        <ele>2286.7</ele>
        <time>2018-05-11T07:09:16Z</time>
      </trkpt>
      <trkpt lat="44.2478" lon="7.01356">
        <ele>2288.95</ele>
        <time>2018-05-11T07:09:36Z</time>
      </trkpt>
      <trkpt lat="44.24786" lon="7.01349">
        <ele>2291.31</ele>
        <time>2018-05-11T07:09:56Z</time>
      </trkpt>
      <trkpt lat="44.24792" lon="7.01341">
        <ele>2294.24</ele>
        <time>2018-05-11T07:10:17Z</time>
      </trkpt>
      <trkpt lat="44.248" lon="7.01331">
        <ele>2296.14</ele>
        <time>2018-05-11T07:10:42Z</time>
      </trkpt>
      <trkpt lat="44.24809" lon="7.01323">
        <ele>2298.21</ele>
        <time>2018-05-11T07:11:04Z</time>
      </trkpt>
      <trkpt lat="44.24815" lon="7.01318">
        <ele>2299.8</ele>
        <time>2018-05-11T07:11:18Z</time>
      </trkpt>
      <trkpt lat="44.24826" lon="7.0131">
        <ele>2302.47</ele>
        <time>2018-05-11T07:11:44Z</time>
      </trkpt>
      <trkpt lat="44.24834" lon="7.01311">
        <ele>2303.96</ele>
        <time>2018-05-11T07:11:58Z</time>
      </trkpt>
      <trkpt lat="44.24838" lon="7.01308">
        <ele>2305.05</ele>
        <time>2018-05-11T07:12:21Z</time>
      </trkpt>
      <trkpt lat="44.2484" lon="7.01305">
        <ele>2307.4</ele>
        <time>2018-05-11T07:12:43Z</time>
      </trkpt>
      <trkpt lat="44.24846" lon="7.013">
        <ele>2309.46</ele>
        <time>2018-05-11T07:13:10Z</time>
      </trkpt>
      <trkpt lat="44.24868" lon="7.01305">
        <ele>2312.59</ele>
        <time>2018-05-11T07:13:39Z</time>
      </trkpt>
      <trkpt lat="44.24878" lon="7.01306">
        <ele>2314.99</ele>
        <time>2018-05-11T07:14:03Z</time>
      </trkpt>
      <trkpt lat="44.24882" lon="7.01306">
        <ele>2317.81</ele>
        <time>2018-05-11T07:14:29Z</time>
      </trkpt>
      <trkpt lat="44.24891" lon="7.01307">
        <ele>2320.56</ele>
        <time>2018-05-11T07:14:55Z</time>
      </trkpt>
      <trkpt lat="44.24898" lon="7.01306">
        <ele>2322.13</ele>
        <time>2018-05-11T07:15:18Z</time>
      </trkpt>
      <trkpt lat="44.24914" lon="7.0131">
        <ele>2324.42</ele>
        <time>2018-05-11T07:15:44Z</time>
      </trkpt>
      <trkpt lat="44.24927" lon="7.01309">
        <ele>2326.42</ele>
        <time>2018-05-11T07:16:07Z</time>
      </trkpt>
      <trkpt lat="44.2494" lon="7.01306">
        <ele>2328.79</ele>
        <time>2018-05-11T07:16:29Z</time>
      </trkpt>
      <trkpt lat="44.24951" lon="7.01303">
        <ele>2331.08</ele>
        <time>2018-05-11T07:16:47Z</time>
      </trkpt>
      <trkpt lat="44.24955" lon="7.01299">
        <ele>2331.77</ele>
        <time>2018-05-11T07:17:08Z</time>
      </trkpt>
      <trkpt lat="44.24963" lon="7.01289">
        <ele>2334.88</ele>
        <time>2018-05-11T07:17:27Z</time>
      </trkpt>
      <trkpt lat="44.24973" lon="7.01279">
        <ele>2336.75</ele>
        <time>2018-05-11T07:17:48Z</time>
      </trkpt>
      <trkpt lat="44.24981" lon="7.01271">
        <ele>2339.16</ele>
        <time>2018-05-11T07:18:05Z</time>
      </trkpt>
      <trkpt lat="44.24989" lon="7.01263">
        <ele>2341.54</ele>
        <time>2018-05-11T07:18:23Z</time>
      </trkpt>
      <trkpt lat="44.24993" lon="7.01255">
        <ele>2343.37</ele>
        <time>2018-05-11T07:18:38Z</time>
      </trkpt>
      <trkpt lat="44.24999" lon="7.0125">
        <ele>2344.77</ele>
        <time>2018-05-11T07:18:50Z</time>
      </trkpt>
      <trkpt lat="44.25004" lon="7.01243">
        <ele>2346.69</ele>
        <time>2018-05-11T07:19:04Z</time>
      </trkpt>
      <trkpt lat="44.2501" lon="7.01234">
        <ele>2349.32</ele>
        <time>2018-05-11T07:19:24Z</time>
      </trkpt>
      <trkpt lat="44.25015" lon="7.01225">
        <ele>2351.32</ele>
        <time>2018-05-11T07:19:48Z</time>
      </trkpt>
      <trkpt lat="44.25018" lon="7.01214">
        <ele>2352.64</ele>
        <time>2018-05-11T07:20:11Z</time>
      </trkpt>
      <trkpt lat="44.25031" lon="7.01202">
        <ele>2355.23</ele>
        <time>2018-05-11T07:20:31Z</time>
      </trkpt>
      <trkpt lat="44.25039" lon="7.01199">
        <ele>2356.32</ele>
        <time>2018-05-11T07:20:37Z</time>
      </trkpt>
      <trkpt lat="44.25042" lon="7.01199">
        <ele>2356.51</ele>
        <time>2018-05-11T07:21:05Z</time>
      </trkpt>
      <trkpt lat="44.25039" lon="7.01199">
        <ele>2356.29</ele>
        <time>2018-05-11T07:21:11Z</time>
      </trkpt>
      <trkpt lat="44.25028" lon="7.01198">
        <ele>2357.02</ele>
        <time>2018-05-11T07:21:46Z</time>
      </trkpt>
      <trkpt lat="44.25041" lon="7.01197">
        <ele>2356.49</ele>
        <time>2018-05-11T07:22:07Z</time>
      </trkpt>
      <trkpt lat="44.25042" lon="7.01198">
        <ele>2356.64</ele>
        <time>2018-05-11T07:22:14Z</time>
      </trkpt>
      <trkpt lat="44.25051" lon="7.01203">
        <ele>2356.67</ele>
        <time>2018-05-11T07:22:38Z</time>
      </trkpt>
      <trkpt lat="44.25052" lon="7.01203">
        <ele>2356.76</ele>
        <time>2018-05-11T07:22:49Z</time>
      </trkpt>
      <trkpt lat="44.25044" lon="7.01198">
        <ele>2356.46</ele>
        <time>2018-05-11T07:23:05Z</time>
      </trkpt>
      <trkpt lat="44.25045" lon="7.01197">
        <ele>2357</ele>
        <time>2018-05-11T07:23:34Z</time>
      </trkpt>
      <trkpt lat="44.25036" lon="7.01202">
        <ele>2356.97</ele>
        <time>2018-05-11T07:24:01Z</time>
      </trkpt>
      <trkpt lat="44.25035" lon="7.01205">
        <ele>2356.83</ele>
        <time>2018-05-11T07:24:09Z</time>
      </trkpt>
      <trkpt lat="44.25024" lon="7.012">
        <ele>2356.54</ele>
        <time>2018-05-11T07:24:40Z</time>
      </trkpt>
      <trkpt lat="44.25022" lon="7.012">
        <ele>2356.57</ele>
        <time>2018-05-11T07:25:12Z</time>
      </trkpt>
      <trkpt lat="44.2502" lon="7.01199">
        <ele>2356.22</ele>
        <time>2018-05-11T07:25:37Z</time>
      </trkpt>
      <trkpt lat="44.25021" lon="7.012">
        <ele>2356.01</ele>
        <time>2018-05-11T07:25:58Z</time>
      </trkpt>
      <trkpt lat="44.2502" lon="7.01195">
        <ele>2356.25</ele>
        <time>2018-05-11T07:26:21Z</time>
      </trkpt>
      <trkpt lat="44.2502" lon="7.012">
        <ele>2355.96</ele>
        <time>2018-05-11T07:26:49Z</time>
      </trkpt>
      <trkpt lat="44.25019" lon="7.012">
        <ele>2355.95</ele>
        <time>2018-05-11T07:26:57Z</time>
      </trkpt>
      <trkpt lat="44.25017" lon="7.01195">
        <ele>2355.93</ele>
        <time>2018-05-11T07:27:26Z</time>
      </trkpt>
      <trkpt lat="44.25019" lon="7.01197">
        <ele>2356.03</ele>
        <time>2018-05-11T07:27:58Z</time>
      </trkpt>
      <trkpt lat="44.2503" lon="7.01205">
        <ele>2356.05</ele>
        <time>2018-05-11T07:28:28Z</time>
      </trkpt>
      <trkpt lat="44.25024" lon="7.01197">
        <ele>2356.05</ele>
        <time>2018-05-11T07:29:00Z</time>
      </trkpt>
      <trkpt lat="44.25022" lon="7.01191">
        <ele>2356.09</ele>
        <time>2018-05-11T07:29:35Z</time>
      </trkpt>
      <trkpt lat="44.2502" lon="7.01196">
        <ele>2356.24</ele>
        <time>2018-05-11T07:30:01Z</time>
      </trkpt>
      <trkpt lat="44.25021" lon="7.01198">
        <ele>2356.83</ele>
        <time>2018-05-11T07:30:25Z</time>
      </trkpt>
      <trkpt lat="44.25024" lon="7.01197">
        <ele>2356.04</ele>
        <time>2018-05-11T07:30:54Z</time>
      </trkpt>
      <trkpt lat="44.25024" lon="7.01198">
        <ele>2356.01</ele>
        <time>2018-05-11T07:31:24Z</time>
      </trkpt>
      <trkpt lat="44.2502" lon="7.01199">
        <ele>2356.33</ele>
        <time>2018-05-11T07:31:56Z</time>
      </trkpt>
      <trkpt lat="44.25019" lon="7.01199">
        <ele>2355.37</ele>
        <time>2018-05-11T07:32:24Z</time>
      </trkpt>
      <trkpt lat="44.25021" lon="7.01198">
        <ele>2355.99</ele>
        <time>2018-05-11T07:32:51Z</time>
      </trkpt>
      <trkpt lat="44.25022" lon="7.012">
        <ele>2355.6</ele>
        <time>2018-05-11T07:33:13Z</time>
      </trkpt>
      <trkpt lat="44.25019" lon="7.01195">
        <ele>2356.13</ele>
        <time>2018-05-11T07:33:41Z</time>
      </trkpt>
      <trkpt lat="44.2502" lon="7.01193">
        <ele>2355.6</ele>
        <time>2018-05-11T07:34:10Z</time>
      </trkpt>
      <trkpt lat="44.2502" lon="7.01199">
        <ele>2353.88</ele>
        <time>2018-05-11T07:34:21Z</time>
      </trkpt>
      <trkpt lat="44.2502" lon="7.012">
        <ele>2355.37</ele>
        <time>2018-05-11T07:34:42Z</time>
      </trkpt>
      <trkpt lat="44.25022" lon="7.01198">
        <ele>2357.11</ele>
        <time>2018-05-11T07:35:02Z</time>
      </trkpt>
      <trkpt lat="44.2502" lon="7.01195">
        <ele>2356.95</ele>
        <time>2018-05-11T07:35:26Z</time>
      </trkpt>
      <trkpt lat="44.25022" lon="7.01198">
        <ele>2357.14</ele>
        <time>2018-05-11T07:35:57Z</time>
      </trkpt>
      <trkpt lat="44.25022" lon="7.012">
        <ele>2357.36</ele>
        <time>2018-05-11T07:36:23Z</time>
      </trkpt>
      <trkpt lat="44.25022" lon="7.012">
        <ele>2356.83</ele>
        <time>2018-05-11T07:36:51Z</time>
      </trkpt>
      <trkpt lat="44.25022" lon="7.01199">
        <ele>2357.34</ele>
        <time>2018-05-11T07:37:13Z</time>
      </trkpt>
      <trkpt lat="44.25022" lon="7.01199">
        <ele>2357.26</ele>
        <time>2018-05-11T07:37:40Z</time>
      </trkpt>
      <trkpt lat="44.25026" lon="7.01199">
        <ele>2357.5</ele>
        <time>2018-05-11T07:38:09Z</time>
      </trkpt>
      <trkpt lat="44.25027" lon="7.012">
        <ele>2357.53</ele>
        <time>2018-05-11T07:38:10Z</time>
      </trkpt>
      <trkpt lat="44.25022" lon="7.01203">
        <ele>2357.5</ele>
        <time>2018-05-11T07:38:37Z</time>
      </trkpt>
      <trkpt lat="44.25025" lon="7.01195">
        <ele>2358.39</ele>
        <time>2018-05-11T07:39:02Z</time>
      </trkpt>
      <trkpt lat="44.25027" lon="7.01188">
        <ele>2359.33</ele>
        <time>2018-05-11T07:39:26Z</time>
      </trkpt>
      <trkpt lat="44.25035" lon="7.01178">
        <ele>2362.37</ele>
        <time>2018-05-11T07:39:48Z</time>
      </trkpt>
      <trkpt lat="44.25045" lon="7.0117">
        <ele>2364.92</ele>
        <time>2018-05-11T07:40:11Z</time>
      </trkpt>
      <trkpt lat="44.25057" lon="7.01169">
        <ele>2367.77</ele>
        <time>2018-05-11T07:40:36Z</time>
      </trkpt>
      <trkpt lat="44.25073" lon="7.01171">
        <ele>2370.68</ele>
        <time>2018-05-11T07:41:04Z</time>
      </trkpt>
      <trkpt lat="44.25087" lon="7.01171">
        <ele>2373.46</ele>
        <time>2018-05-11T07:41:28Z</time>
      </trkpt>
      <trkpt lat="44.25095" lon="7.01165">
        <ele>2375.72</ele>
        <time>2018-05-11T07:41:55Z</time>
      </trkpt>
      <trkpt lat="44.25104" lon="7.01161">
        <ele>2376.75</ele>
        <time>2018-05-11T07:42:23Z</time>
      </trkpt>
      <trkpt lat="44.25117" lon="7.01152">
        <ele>2378.1</ele>
        <time>2018-05-11T07:42:44Z</time>
      </trkpt>
      <trkpt lat="44.25128" lon="7.01142">
        <ele>2379.81</ele>
        <time>2018-05-11T07:43:06Z</time>
      </trkpt>
      <trkpt lat="44.25141" lon="7.0113">
        <ele>2381.17</ele>
        <time>2018-05-11T07:43:27Z</time>
      </trkpt>
      <trkpt lat="44.25151" lon="7.01122">
        <ele>2382.81</ele>
        <time>2018-05-11T07:43:48Z</time>
      </trkpt>
      <trkpt lat="44.25169" lon="7.01115">
        <ele>2384.55</ele>
        <time>2018-05-11T07:44:13Z</time>
      </trkpt>
      <trkpt lat="44.25181" lon="7.01108">
        <ele>2386.61</ele>
        <time>2018-05-11T07:44:36Z</time>
      </trkpt>
      <trkpt lat="44.25194" lon="7.01099">
        <ele>2388.4</ele>
        <time>2018-05-11T07:44:58Z</time>
      </trkpt>
      <trkpt lat="44.25207" lon="7.01092">
        <ele>2390.64</ele>
        <time>2018-05-11T07:45:22Z</time>
      </trkpt>
      <trkpt lat="44.25209" lon="7.01087">
        <ele>2391.83</ele>
        <time>2018-05-11T07:45:37Z</time>
      </trkpt>
      <trkpt lat="44.25211" lon="7.01086">
        <ele>2392.24</ele>
        <time>2018-05-11T07:46:00Z</time>
      </trkpt>
      <trkpt lat="44.25214" lon="7.01081">
        <ele>2392.78</ele>
        <time>2018-05-11T07:46:18Z</time>
      </trkpt>
      <trkpt lat="44.25214" lon="7.01075">
        <ele>2393.61</ele>
        <time>2018-05-11T07:46:46Z</time>
      </trkpt>
      <trkpt lat="44.25222" lon="7.01063">
        <ele>2396.15</ele>
        <time>2018-05-11T07:47:03Z</time>
      </trkpt>
      <trkpt lat="44.25228" lon="7.01056">
        <ele>2397.2</ele>
        <time>2018-05-11T07:47:19Z</time>
      </trkpt>
      <trkpt lat="44.25242" lon="7.01045">
        <ele>2399.47</ele>
        <time>2018-05-11T07:47:38Z</time>
      </trkpt>
      <trkpt lat="44.25254" lon="7.01036">
        <ele>2401.33</ele>
        <time>2018-05-11T07:47:52Z</time>
      </trkpt>
      <trkpt lat="44.25266" lon="7.01023">
        <ele>2403.5</ele>
        <time>2018-05-11T07:48:16Z</time>
      </trkpt>
      <trkpt lat="44.25277" lon="7.01018">
        <ele>2406.6</ele>
        <time>2018-05-11T07:48:37Z</time>
      </trkpt>
      <trkpt lat="44.2529" lon="7.01013">
        <ele>2409.61</ele>
        <time>2018-05-11T07:48:59Z</time>
      </trkpt>
      <trkpt lat="44.25296" lon="7.01003">
        <ele>2411.72</ele>
        <time>2018-05-11T07:49:19Z</time>
      </trkpt>
      <trkpt lat="44.25296" lon="7.00994">
        <ele>2413.4</ele>
        <time>2018-05-11T07:49:35Z</time>
      </trkpt>
      <trkpt lat="44.25302" lon="7.00989">
        <ele>2415.52</ele>
        <time>2018-05-11T07:49:51Z</time>
      </trkpt>
      <trkpt lat="44.25301" lon="7.00978">
        <ele>2417.73</ele>
        <time>2018-05-11T07:50:08Z</time>
      </trkpt>
      <trkpt lat="44.25299" lon="7.00968">
        <ele>2420.04</ele>
        <time>2018-05-11T07:50:26Z</time>
      </trkpt>
      <trkpt lat="44.25297" lon="7.00959">
        <ele>2421.94</ele>
        <time>2018-05-11T07:50:42Z</time>
      </trkpt>
      <trkpt lat="44.25294" lon="7.0095">
        <ele>2423.96</ele>
        <time>2018-05-11T07:50:59Z</time>
      </trkpt>
      <trkpt lat="44.25293" lon="7.0094">
        <ele>2425.88</ele>
        <time>2018-05-11T07:51:16Z</time>
      </trkpt>
      <trkpt lat="44.25293" lon="7.00938">
        <ele>2426.83</ele>
        <time>2018-05-11T07:51:36Z</time>
      </trkpt>
      <trkpt lat="44.25295" lon="7.00938">
        <ele>2426.75</ele>
        <time>2018-05-11T07:51:56Z</time>
      </trkpt>
      <trkpt lat="44.25308" lon="7.00936">
        <ele>2429.88</ele>
        <time>2018-05-11T07:52:18Z</time>
      </trkpt>
      <trkpt lat="44.25316" lon="7.00934">
        <ele>2433</ele>
        <time>2018-05-11T07:52:32Z</time>
      </trkpt>
      <trkpt lat="44.25324" lon="7.00935">
        <ele>2435.08</ele>
        <time>2018-05-11T07:52:57Z</time>
      </trkpt>
      <trkpt lat="44.25335" lon="7.00932">
        <ele>2436.8</ele>
        <time>2018-05-11T07:53:21Z</time>
      </trkpt>
      <trkpt lat="44.25351" lon="7.00926">
        <ele>2439.78</ele>
        <time>2018-05-11T07:53:39Z</time>
      </trkpt>
      <trkpt lat="44.25361" lon="7.00918">
        <ele>2442.88</ele>
        <time>2018-05-11T07:53:58Z</time>
      </trkpt>
      <trkpt lat="44.25365" lon="7.00914">
        <ele>2445.19</ele>
        <time>2018-05-11T07:54:18Z</time>
      </trkpt>
      <trkpt lat="44.25363" lon="7.00913">
        <ele>2444.7</ele>
        <time>2018-05-11T07:54:40Z</time>
      </trkpt>
      <trkpt lat="44.25369" lon="7.00901">
        <ele>2447.26</ele>
        <time>2018-05-11T07:54:59Z</time>
      </trkpt>
      <trkpt lat="44.25373" lon="7.00887">
        <ele>2450.19</ele>
        <time>2018-05-11T07:55:16Z</time>
      </trkpt>
      <trkpt lat="44.25383" lon="7.00893">
        <ele>2453.12</ele>
        <time>2018-05-11T07:55:36Z</time>
      </trkpt>
      <trkpt lat="44.25388" lon="7.00888">
        <ele>2456.15</ele>
        <time>2018-05-11T07:55:58Z</time>
      </trkpt>
      <trkpt lat="44.25391" lon="7.00881">
        <ele>2458.49</ele>
        <time>2018-05-11T07:56:16Z</time>
      </trkpt>
      <trkpt lat="44.25393" lon="7.00881">
        <ele>2458.17</ele>
        <time>2018-05-11T07:56:37Z</time>
      </trkpt>
      <trkpt lat="44.25391" lon="7.00882">
        <ele>2458.08</ele>
        <time>2018-05-11T07:57:10Z</time>
      </trkpt>
      <trkpt lat="44.25392" lon="7.00881">
        <ele>2458.12</ele>
        <time>2018-05-11T07:57:47Z</time>
      </trkpt>
      <trkpt lat="44.25392" lon="7.00881">
        <ele>2458.51</ele>
        <time>2018-05-11T07:58:53Z</time>
      </trkpt>
      <trkpt lat="44.25396" lon="7.00869">
        <ele>2460.62</ele>
        <time>2018-05-11T07:59:42Z</time>
      </trkpt>
      <trkpt lat="44.25402" lon="7.00857">
        <ele>2462.63</ele>
        <time>2018-05-11T08:00:03Z</time>
      </trkpt>
      <trkpt lat="44.25407" lon="7.00846">
        <ele>2464.77</ele>
        <time>2018-05-11T08:00:20Z</time>
      </trkpt>
      <trkpt lat="44.25411" lon="7.00837">
        <ele>2467.17</ele>
        <time>2018-05-11T08:00:38Z</time>
      </trkpt>
      <trkpt lat="44.25415" lon="7.00826">
        <ele>2469.4</ele>
        <time>2018-05-11T08:00:56Z</time>
      </trkpt>
      <trkpt lat="44.25421" lon="7.00817">
        <ele>2471.67</ele>
        <time>2018-05-11T08:01:15Z</time>
      </trkpt>
      <trkpt lat="44.25426" lon="7.00808">
        <ele>2473.69</ele>
        <time>2018-05-11T08:01:32Z</time>
      </trkpt>
      <trkpt lat="44.25427" lon="7.00804">
        <ele>2474.4</ele>
        <time>2018-05-11T08:01:38Z</time>
      </trkpt>
      <trkpt lat="44.25429" lon="7.00798">
        <ele>2475.51</ele>
        <time>2018-05-11T08:01:49Z</time>
      </trkpt>
      <trkpt lat="44.25437" lon="7.0079">
        <ele>2478.11</ele>
        <time>2018-05-11T08:02:10Z</time>
      </trkpt>
      <trkpt lat="44.2544" lon="7.0078">
        <ele>2480.51</ele>
        <time>2018-05-11T08:02:28Z</time>
      </trkpt>
      <trkpt lat="44.25434" lon="7.00769">
        <ele>2482.89</ele>
        <time>2018-05-11T08:02:46Z</time>
      </trkpt>
      <trkpt lat="44.2543" lon="7.0076">
        <ele>2484.89</ele>
        <time>2018-05-11T08:03:04Z</time>
      </trkpt>
      <trkpt lat="44.25436" lon="7.00756">
        <ele>2486.51</ele>
        <time>2018-05-11T08:03:18Z</time>
      </trkpt>
      <trkpt lat="44.25444" lon="7.00749">
        <ele>2488.6</ele>
        <time>2018-05-11T08:03:38Z</time>
      </trkpt>
      <trkpt lat="44.25454" lon="7.00738">
        <ele>2491.32</ele>
        <time>2018-05-11T08:04:00Z</time>
      </trkpt>
      <trkpt lat="44.25462" lon="7.00731">
        <ele>2493.63</ele>
        <time>2018-05-11T08:04:20Z</time>
      </trkpt>
      <trkpt lat="44.25468" lon="7.00723">
        <ele>2495.36</ele>
        <time>2018-05-11T08:04:35Z</time>
      </trkpt>
      <trkpt lat="44.25472" lon="7.00718">
        <ele>2496.26</ele>
        <time>2018-05-11T08:04:45Z</time>
      </trkpt>
      <trkpt lat="44.25482" lon="7.00709">
        <ele>2497.67</ele>
        <time>2018-05-11T08:05:03Z</time>
      </trkpt>
      <trkpt lat="44.25487" lon="7.007">
        <ele>2499.39</ele>
        <time>2018-05-11T08:05:21Z</time>
      </trkpt>
      <trkpt lat="44.25495" lon="7.00687">
        <ele>2501.8</ele>
        <time>2018-05-11T08:05:44Z</time>
      </trkpt>
      <trkpt lat="44.25501" lon="7.00679">
        <ele>2503.48</ele>
        <time>2018-05-11T08:06:00Z</time>
      </trkpt>
      <trkpt lat="44.25505" lon="7.00671">
        <ele>2504.87</ele>
        <time>2018-05-11T08:06:14Z</time>
      </trkpt>
      <trkpt lat="44.25506" lon="7.00663">
        <ele>2506.25</ele>
        <time>2018-05-11T08:06:25Z</time>
      </trkpt>
      <trkpt lat="44.25509" lon="7.00655">
        <ele>2507.75</ele>
        <time>2018-05-11T08:06:38Z</time>
      </trkpt>
      <trkpt lat="44.25512" lon="7.0065">
        <ele>2508.77</ele>
        <time>2018-05-11T08:06:49Z</time>
      </trkpt>
      <trkpt lat="44.2552" lon="7.00643">
        <ele>2511.27</ele>
        <time>2018-05-11T08:07:08Z</time>
      </trkpt>
      <trkpt lat="44.2553" lon="7.00645">
        <ele>2513.57</ele>
        <time>2018-05-11T08:07:28Z</time>
      </trkpt>
      <trkpt lat="44.25529" lon="7.00646">
        <ele>2513.39</ele>
        <time>2018-05-11T08:07:57Z</time>
      </trkpt>
      <trkpt lat="44.25529" lon="7.00645">
        <ele>2513.25</ele>
        <time>2018-05-11T08:08:24Z</time>
      </trkpt>
      <trkpt lat="44.25528" lon="7.00644">
        <ele>2512.99</ele>
        <time>2018-05-11T08:08:53Z</time>
      </trkpt>
      <trkpt lat="44.25527" lon="7.00645">
        <ele>2513.02</ele>
        <time>2018-05-11T08:09:23Z</time>
      </trkpt>
      <trkpt lat="44.2553" lon="7.00651">
        <ele>2513.49</ele>
        <time>2018-05-11T08:09:46Z</time>
      </trkpt>
      <trkpt lat="44.25528" lon="7.00663">
        <ele>2513.47</ele>
        <time>2018-05-11T08:09:55Z</time>
      </trkpt>
      <trkpt lat="44.25529" lon="7.00689">
        <ele>2512.35</ele>
        <time>2018-05-11T08:10:09Z</time>
      </trkpt>
      <trkpt lat="44.25531" lon="7.00704">
        <ele>2511.25</ele>
        <time>2018-05-11T08:10:19Z</time>
      </trkpt>
      <trkpt lat="44.25533" lon="7.00716">
        <ele>2510.62</ele>
        <time>2018-05-11T08:10:26Z</time>
      </trkpt>
      <trkpt lat="44.25535" lon="7.00723">
        <ele>2509.92</ele>
        <time>2018-05-11T08:10:31Z</time>
      </trkpt>
      <trkpt lat="44.25539" lon="7.00737">
        <ele>2510.03</ele>
        <time>2018-05-11T08:10:46Z</time>
      </trkpt>
      <trkpt lat="44.25545" lon="7.0076">
        <ele>2509.56</ele>
        <time>2018-05-11T08:11:03Z</time>
      </trkpt>
      <trkpt lat="44.2556" lon="7.00776">
        <ele>2506.48</ele>
        <time>2018-05-11T08:11:15Z</time>
      </trkpt>
      <trkpt lat="44.25575" lon="7.00777">
        <ele>2505.48</ele>
        <time>2018-05-11T08:11:31Z</time>
      </trkpt>
      <trkpt lat="44.25589" lon="7.00778">
        <ele>2505.06</ele>
        <time>2018-05-11T08:11:47Z</time>
      </trkpt>
      <trkpt lat="44.25601" lon="7.00776">
        <ele>2505.44</ele>
        <time>2018-05-11T08:12:02Z</time>
      </trkpt>
      <trkpt lat="44.25619" lon="7.00773">
        <ele>2506.76</ele>
        <time>2018-05-11T08:12:23Z</time>
      </trkpt>
      <trkpt lat="44.25635" lon="7.0077">
        <ele>2506.6</ele>
        <time>2018-05-11T08:12:43Z</time>
      </trkpt>
      <trkpt lat="44.25654" lon="7.00767">
        <ele>2505.65</ele>
        <time>2018-05-11T08:13:03Z</time>
      </trkpt>
      <trkpt lat="44.25671" lon="7.00764">
        <ele>2506.58</ele>
        <time>2018-05-11T08:13:25Z</time>
      </trkpt>
      <trkpt lat="44.25682" lon="7.00761">
        <ele>2508.27</ele>
        <time>2018-05-11T08:13:45Z</time>
      </trkpt>
      <trkpt lat="44.25692" lon="7.0076">
        <ele>2510.57</ele>
        <time>2018-05-11T08:14:05Z</time>
      </trkpt>
      <trkpt lat="44.25702" lon="7.0076">
        <ele>2512.9</ele>
        <time>2018-05-11T08:14:26Z</time>
      </trkpt>
      <trkpt lat="44.25712" lon="7.0076">
        <ele>2513.94</ele>
        <time>2018-05-11T08:14:43Z</time>
      </trkpt>
      <trkpt lat="44.25711" lon="7.00761">
        <ele>2514.32</ele>
        <time>2018-05-11T08:14:58Z</time>
      </trkpt>
      <trkpt lat="44.25706" lon="7.00761">
        <ele>2514.53</ele>
        <time>2018-05-11T08:15:07Z</time>
      </trkpt>
      <trkpt lat="44.25723" lon="7.00759">
        <ele>2515.49</ele>
        <time>2018-05-11T08:15:25Z</time>
      </trkpt>
      <trkpt lat="44.25729" lon="7.0076">
        <ele>2518.15</ele>
        <time>2018-05-11T08:15:48Z</time>
      </trkpt>
      <trkpt lat="44.25742" lon="7.00756">
        <ele>2519.96</ele>
        <time>2018-05-11T08:16:06Z</time>
      </trkpt>
      <trkpt lat="44.25752" lon="7.00753">
        <ele>2521.59</ele>
        <time>2018-05-11T08:16:24Z</time>
      </trkpt>
      <trkpt lat="44.25765" lon="7.00755">
        <ele>2522.94</ele>
        <time>2018-05-11T08:16:45Z</time>
      </trkpt>
      <trkpt lat="44.25775" lon="7.00752">
        <ele>2523.67</ele>
        <time>2018-05-11T08:16:59Z</time>
      </trkpt>
      <trkpt lat="44.25777" lon="7.00752">
        <ele>2523.99</ele>
        <time>2018-05-11T08:17:15Z</time>
      </trkpt>
      <trkpt lat="44.25775" lon="7.00749">
        <ele>2523.79</ele>
        <time>2018-05-11T08:17:46Z</time>
      </trkpt>
      <trkpt lat="44.25776" lon="7.0075">
        <ele>2523.57</ele>
        <time>2018-05-11T08:17:59Z</time>
      </trkpt>
      <trkpt lat="44.25777" lon="7.00752">
        <ele>2523.58</ele>
        <time>2018-05-11T08:18:26Z</time>
      </trkpt>
      <trkpt lat="44.25782" lon="7.00748">
        <ele>2523.13</ele>
        <time>2018-05-11T08:18:43Z</time>
      </trkpt>
      <trkpt lat="44.25792" lon="7.00744">
        <ele>2522.34</ele>
        <time>2018-05-11T08:18:56Z</time>
      </trkpt>
      <trkpt lat="44.258" lon="7.00742">
        <ele>2522.46</ele>
        <time>2018-05-11T08:19:21Z</time>
      </trkpt>
      <trkpt lat="44.25814" lon="7.00736">
        <ele>2523.08</ele>
        <time>2018-05-11T08:19:39Z</time>
      </trkpt>
      <trkpt lat="44.25831" lon="7.00728">
        <ele>2524.69</ele>
        <time>2018-05-11T08:20:01Z</time>
      </trkpt>
      <trkpt lat="44.25844" lon="7.00718">
        <ele>2525.99</ele>
        <time>2018-05-11T08:20:21Z</time>
      </trkpt>
      <trkpt lat="44.2585" lon="7.00712">
        <ele>2526.72</ele>
        <time>2018-05-11T08:20:32Z</time>
      </trkpt>
      <trkpt lat="44.25856" lon="7.00708">
        <ele>2527.36</ele>
        <time>2018-05-11T08:20:42Z</time>
      </trkpt>
      <trkpt lat="44.25864" lon="7.00701">
        <ele>2527.98</ele>
        <time>2018-05-11T08:20:55Z</time>
      </trkpt>
      <trkpt lat="44.25875" lon="7.00693">
        <ele>2529.21</ele>
        <time>2018-05-11T08:21:14Z</time>
      </trkpt>
      <trkpt lat="44.25884" lon="7.00684">
        <ele>2530.62</ele>
        <time>2018-05-11T08:21:30Z</time>
      </trkpt>
      <trkpt lat="44.25893" lon="7.00678">
        <ele>2532.02</ele>
        <time>2018-05-11T08:21:46Z</time>
      </trkpt>
      <trkpt lat="44.25902" lon="7.00669">
        <ele>2533.82</ele>
        <time>2018-05-11T08:22:05Z</time>
      </trkpt>
      <trkpt lat="44.25912" lon="7.00663">
        <ele>2535.76</ele>
        <time>2018-05-11T08:22:24Z</time>
      </trkpt>
      <trkpt lat="44.25922" lon="7.00656">
        <ele>2537.99</ele>
        <time>2018-05-11T08:22:45Z</time>
      </trkpt>
      <trkpt lat="44.25937" lon="7.00651">
        <ele>2539.99</ele>
        <time>2018-05-11T08:23:08Z</time>
      </trkpt>
      <trkpt lat="44.25949" lon="7.00646">
        <ele>2541.42</ele>
        <time>2018-05-11T08:23:27Z</time>
      </trkpt>
      <trkpt lat="44.25964" lon="7.00641">
        <ele>2543.19</ele>
        <time>2018-05-11T08:23:49Z</time>
      </trkpt>
      <trkpt lat="44.2598" lon="7.00634">
        <ele>2544.57</ele>
        <time>2018-05-11T08:24:12Z</time>
      </trkpt>
      <trkpt lat="44.25996" lon="7.00626">
        <ele>2545.61</ele>
        <time>2018-05-11T08:24:33Z</time>
      </trkpt>
      <trkpt lat="44.26012" lon="7.00615">
        <ele>2546.49</ele>
        <time>2018-05-11T08:24:55Z</time>
      </trkpt>
      <trkpt lat="44.26026" lon="7.00607">
        <ele>2547.25</ele>
        <time>2018-05-11T08:25:17Z</time>
      </trkpt>
      <trkpt lat="44.26041" lon="7.00599">
        <ele>2548.16</ele>
        <time>2018-05-11T08:25:40Z</time>
      </trkpt>
      <trkpt lat="44.2604" lon="7.00597">
        <ele>2548.31</ele>
        <time>2018-05-11T08:25:59Z</time>
      </trkpt>
      <trkpt lat="44.2604" lon="7.00598">
        <ele>2548.26</ele>
        <time>2018-05-11T08:26:23Z</time>
      </trkpt>
      <trkpt lat="44.26043" lon="7.00597">
        <ele>2548.18</ele>
        <time>2018-05-11T08:26:49Z</time>
      </trkpt>
      <trkpt lat="44.2605" lon="7.00592">
        <ele>2548.71</ele>
        <time>2018-05-11T08:27:15Z</time>
      </trkpt>
      <trkpt lat="44.26072" lon="7.0058">
        <ele>2548.59</ele>
        <time>2018-05-11T08:27:36Z</time>
      </trkpt>
      <trkpt lat="44.26083" lon="7.00575">
        <ele>2548.38</ele>
        <time>2018-05-11T08:27:48Z</time>
      </trkpt>
      <trkpt lat="44.26103" lon="7.00567">
        <ele>2547.61</ele>
        <time>2018-05-11T08:28:08Z</time>
      </trkpt>
      <trkpt lat="44.26117" lon="7.0056">
        <ele>2547.73</ele>
        <time>2018-05-11T08:28:28Z</time>
      </trkpt>
      <trkpt lat="44.26122" lon="7.00555">
        <ele>2548.19</ele>
        <time>2018-05-11T08:28:48Z</time>
      </trkpt>
      <trkpt lat="44.26131" lon="7.0055">
        <ele>2548.32</ele>
        <time>2018-05-11T08:29:13Z</time>
      </trkpt>
      <trkpt lat="44.26145" lon="7.00539">
        <ele>2549.71</ele>
        <time>2018-05-11T08:29:35Z</time>
      </trkpt>
      <trkpt lat="44.26158" lon="7.00531">
        <ele>2550.6</ele>
        <time>2018-05-11T08:29:53Z</time>
      </trkpt>
      <trkpt lat="44.26172" lon="7.00526">
        <ele>2551.93</ele>
        <time>2018-05-11T08:30:13Z</time>
      </trkpt>
      <trkpt lat="44.26181" lon="7.00527">
        <ele>2553.32</ele>
        <time>2018-05-11T08:30:32Z</time>
      </trkpt>
      <trkpt lat="44.26195" lon="7.00523">
        <ele>2554.78</ele>
        <time>2018-05-11T08:30:52Z</time>
      </trkpt>
      <trkpt lat="44.26208" lon="7.00521">
        <ele>2556.18</ele>
        <time>2018-05-11T08:31:09Z</time>
      </trkpt>
      <trkpt lat="44.26221" lon="7.00521">
        <ele>2558.2</ele>
        <time>2018-05-11T08:31:31Z</time>
      </trkpt>
      <trkpt lat="44.26234" lon="7.0052">
        <ele>2560.18</ele>
        <time>2018-05-11T08:31:50Z</time>
      </trkpt>
      <trkpt lat="44.26245" lon="7.00518">
        <ele>2562.84</ele>
        <time>2018-05-11T08:32:15Z</time>
      </trkpt>
      <trkpt lat="44.2626" lon="7.00516">
        <ele>2565.03</ele>
        <time>2018-05-11T08:32:38Z</time>
      </trkpt>
      <trkpt lat="44.26267" lon="7.00513">
        <ele>2567.31</ele>
        <time>2018-05-11T08:32:56Z</time>
      </trkpt>
      <trkpt lat="44.26268" lon="7.00522">
        <ele>2569.28</ele>
        <time>2018-05-11T08:33:11Z</time>
      </trkpt>
      <trkpt lat="44.26277" lon="7.00529">
        <ele>2571.52</ele>
        <time>2018-05-11T08:33:29Z</time>
      </trkpt>
      <trkpt lat="44.26281" lon="7.0053">
        <ele>2572.57</ele>
        <time>2018-05-11T08:33:49Z</time>
      </trkpt>
      <trkpt lat="44.2629" lon="7.00532">
        <ele>2572.46</ele>
        <time>2018-05-11T08:34:15Z</time>
      </trkpt>
      <trkpt lat="44.26304" lon="7.00538">
        <ele>2573.96</ele>
        <time>2018-05-11T08:34:38Z</time>
      </trkpt>
      <trkpt lat="44.26318" lon="7.00538">
        <ele>2575.59</ele>
        <time>2018-05-11T08:34:59Z</time>
      </trkpt>
      <trkpt lat="44.26332" lon="7.00531">
        <ele>2577.84</ele>
        <time>2018-05-11T08:35:21Z</time>
      </trkpt>
      <trkpt lat="44.26337" lon="7.00522">
        <ele>2578.65</ele>
        <time>2018-05-11T08:35:39Z</time>
      </trkpt>
      <trkpt lat="44.26344" lon="7.00515">
        <ele>2580.72</ele>
        <time>2018-05-11T08:35:57Z</time>
      </trkpt>
      <trkpt lat="44.26352" lon="7.00508">
        <ele>2582.98</ele>
        <time>2018-05-11T08:36:17Z</time>
      </trkpt>
      <trkpt lat="44.2635" lon="7.00506">
        <ele>2583.87</ele>
        <time>2018-05-11T08:36:32Z</time>
      </trkpt>
      <trkpt lat="44.26337" lon="7.00497">
        <ele>2586.96</ele>
        <time>2018-05-11T08:36:51Z</time>
      </trkpt>
      <trkpt lat="44.26338" lon="7.00486">
        <ele>2588.95</ele>
        <time>2018-05-11T08:37:07Z</time>
      </trkpt>
      <trkpt lat="44.26342" lon="7.00479">
        <ele>2591.03</ele>
        <time>2018-05-11T08:37:24Z</time>
      </trkpt>
      <trkpt lat="44.26345" lon="7.00471">
        <ele>2593.11</ele>
        <time>2018-05-11T08:37:37Z</time>
      </trkpt>
      <trkpt lat="44.26353" lon="7.00463">
        <ele>2595.64</ele>
        <time>2018-05-11T08:37:56Z</time>
      </trkpt>
      <trkpt lat="44.26358" lon="7.00454">
        <ele>2598.04</ele>
        <time>2018-05-11T08:38:13Z</time>
      </trkpt>
      <trkpt lat="44.26366" lon="7.00446">
        <ele>2600.45</ele>
        <time>2018-05-11T08:38:32Z</time>
      </trkpt>
      <trkpt lat="44.26374" lon="7.00439">
        <ele>2602.6</ele>
        <time>2018-05-11T08:38:51Z</time>
      </trkpt>
      <trkpt lat="44.26381" lon="7.00427">
        <ele>2605.39</ele>
        <time>2018-05-11T08:39:10Z</time>
      </trkpt>
      <trkpt lat="44.26386" lon="7.0042">
        <ele>2607.52</ele>
        <time>2018-05-11T08:39:27Z</time>
      </trkpt>
      <trkpt lat="44.26388" lon="7.00413">
        <ele>2609.37</ele>
        <time>2018-05-11T08:39:42Z</time>
      </trkpt>
      <trkpt lat="44.26389" lon="7.00404">
        <ele>2611.5</ele>
        <time>2018-05-11T08:39:57Z</time>
      </trkpt>
      <trkpt lat="44.26388" lon="7.00399">
        <ele>2612.61</ele>
        <time>2018-05-11T08:40:06Z</time>
      </trkpt>
      <trkpt lat="44.26388" lon="7.00391">
        <ele>2614.08</ele>
        <time>2018-05-11T08:40:18Z</time>
      </trkpt>
      <trkpt lat="44.26388" lon="7.00384">
        <ele>2615.53</ele>
        <time>2018-05-11T08:40:30Z</time>
      </trkpt>
      <trkpt lat="44.26387" lon="7.00375">
        <ele>2617.38</ele>
        <time>2018-05-11T08:40:44Z</time>
      </trkpt>
      <trkpt lat="44.26388" lon="7.00368">
        <ele>2618.71</ele>
        <time>2018-05-11T08:40:55Z</time>
      </trkpt>
      <trkpt lat="44.26389" lon="7.00358">
        <ele>2620.25</ele>
        <time>2018-05-11T08:41:08Z</time>
      </trkpt>
      <trkpt lat="44.26389" lon="7.00351">
        <ele>2621.65</ele>
        <time>2018-05-11T08:41:19Z</time>
      </trkpt>
      <trkpt lat="44.2639" lon="7.00347">
        <ele>2622.66</ele>
        <time>2018-05-11T08:41:33Z</time>
      </trkpt>
      <trkpt lat="44.26398" lon="7.00352">
        <ele>2624.56</ele>
        <time>2018-05-11T08:41:56Z</time>
      </trkpt>
      <trkpt lat="44.26409" lon="7.00361">
        <ele>2627.55</ele>
        <time>2018-05-11T08:42:19Z</time>
      </trkpt>
      <trkpt lat="44.26419" lon="7.00372">
        <ele>2630.53</ele>
        <time>2018-05-11T08:42:41Z</time>
      </trkpt>
      <trkpt lat="44.26425" lon="7.00376">
        <ele>2633.17</ele>
        <time>2018-05-11T08:43:04Z</time>
      </trkpt>
      <trkpt lat="44.26431" lon="7.00371">
        <ele>2635.75</ele>
        <time>2018-05-11T08:43:21Z</time>
      </trkpt>
      <trkpt lat="44.26433" lon="7.0036">
        <ele>2637.78</ele>
        <time>2018-05-11T08:43:37Z</time>
      </trkpt>
      <trkpt lat="44.26435" lon="7.00349">
        <ele>2639.73</ele>
        <time>2018-05-11T08:43:53Z</time>
      </trkpt>
      <trkpt lat="44.26438" lon="7.00339">
        <ele>2641.57</ele>
        <time>2018-05-11T08:44:08Z</time>
      </trkpt>
      <trkpt lat="44.26449" lon="7.00341">
        <ele>2643.76</ele>
        <time>2018-05-11T08:44:27Z</time>
      </trkpt>
      <trkpt lat="44.26455" lon="7.00341">
        <ele>2646.63</ele>
        <time>2018-05-11T08:44:48Z</time>
      </trkpt>
      <trkpt lat="44.26458" lon="7.00332">
        <ele>2648.99</ele>
        <time>2018-05-11T08:45:05Z</time>
      </trkpt>
      <trkpt lat="44.2646" lon="7.00322">
        <ele>2651.29</ele>
        <time>2018-05-11T08:45:21Z</time>
      </trkpt>
      <trkpt lat="44.26465" lon="7.00312">
        <ele>2653.59</ele>
        <time>2018-05-11T08:45:39Z</time>
      </trkpt>
      <trkpt lat="44.26471" lon="7.003">
        <ele>2655.47</ele>
        <time>2018-05-11T08:45:57Z</time>
      </trkpt>
      <trkpt lat="44.26478" lon="7.00292">
        <ele>2657.66</ele>
        <time>2018-05-11T08:46:14Z</time>
      </trkpt>
      <trkpt lat="44.26483" lon="7.00283">
        <ele>2659.42</ele>
        <time>2018-05-11T08:46:29Z</time>
      </trkpt>
      <trkpt lat="44.26488" lon="7.00274">
        <ele>2661.75</ele>
        <time>2018-05-11T08:46:45Z</time>
      </trkpt>
      <trkpt lat="44.26494" lon="7.0027">
        <ele>2663.29</ele>
        <time>2018-05-11T08:46:56Z</time>
      </trkpt>
      <trkpt lat="44.26501" lon="7.00267">
        <ele>2665.12</ele>
        <time>2018-05-11T08:47:13Z</time>
      </trkpt>
      <trkpt lat="44.26509" lon="7.00264">
        <ele>2667.44</ele>
        <time>2018-05-11T08:47:30Z</time>
      </trkpt>
      <trkpt lat="44.26509" lon="7.00262">
        <ele>2669.29</ele>
        <time>2018-05-11T08:47:54Z</time>
      </trkpt>
      <trkpt lat="44.26508" lon="7.00264">
        <ele>2669.03</ele>
        <time>2018-05-11T08:48:12Z</time>
      </trkpt>
      <trkpt lat="44.26508" lon="7.00263">
        <ele>2668.28</ele>
        <time>2018-05-11T08:48:32Z</time>
      </trkpt>
      <trkpt lat="44.26512" lon="7.00262">
        <ele>2668.92</ele>
        <time>2018-05-11T08:48:57Z</time>
      </trkpt>
      <trkpt lat="44.26513" lon="7.00252">
        <ele>2671.86</ele>
        <time>2018-05-11T08:49:13Z</time>
      </trkpt>
      <trkpt lat="44.26514" lon="7.00235">
        <ele>2674.49</ele>
        <time>2018-05-11T08:49:32Z</time>
      </trkpt>
      <trkpt lat="44.26514" lon="7.00224">
        <ele>2676.86</ele>
        <time>2018-05-11T08:49:47Z</time>
      </trkpt>
      <trkpt lat="44.26514" lon="7.00216">
        <ele>2678.85</ele>
        <time>2018-05-11T08:50:00Z</time>
      </trkpt>
      <trkpt lat="44.26524" lon="7.0021">
        <ele>2681.41</ele>
        <time>2018-05-11T08:50:24Z</time>
      </trkpt>
      <trkpt lat="44.26527" lon="7.00204">
        <ele>2683.82</ele>
        <time>2018-05-11T08:50:42Z</time>
      </trkpt>
      <trkpt lat="44.26523" lon="7.0019">
        <ele>2686.29</ele>
        <time>2018-05-11T08:51:01Z</time>
      </trkpt>
      <trkpt lat="44.26524" lon="7.00182">
        <ele>2688.37</ele>
        <time>2018-05-11T08:51:17Z</time>
      </trkpt>
      <trkpt lat="44.26528" lon="7.00172">
        <ele>2691.03</ele>
        <time>2018-05-11T08:51:39Z</time>
      </trkpt>
      <trkpt lat="44.26529" lon="7.00162">
        <ele>2693.06</ele>
        <time>2018-05-11T08:51:54Z</time>
      </trkpt>
      <trkpt lat="44.26535" lon="7.00149">
        <ele>2695.73</ele>
        <time>2018-05-11T08:52:12Z</time>
      </trkpt>
      <trkpt lat="44.26537" lon="7.00138">
        <ele>2697.54</ele>
        <time>2018-05-11T08:52:28Z</time>
      </trkpt>
      <trkpt lat="44.26538" lon="7.00127">
        <ele>2700.39</ele>
        <time>2018-05-11T08:52:48Z</time>
      </trkpt>
      <trkpt lat="44.26533" lon="7.00118">
        <ele>2702.56</ele>
        <time>2018-05-11T08:53:04Z</time>
      </trkpt>
      <trkpt lat="44.26535" lon="7.00115">
        <ele>2703.51</ele>
        <time>2018-05-11T08:53:22Z</time>
      </trkpt>
      <trkpt lat="44.26542" lon="7.00105">
        <ele>2706.54</ele>
        <time>2018-05-11T08:53:43Z</time>
      </trkpt>
      <trkpt lat="44.26544" lon="7.00095">
        <ele>2708.95</ele>
        <time>2018-05-11T08:54:01Z</time>
      </trkpt>
      <trkpt lat="44.26547" lon="7.0008">
        <ele>2711.78</ele>
        <time>2018-05-11T08:54:22Z</time>
      </trkpt>
      <trkpt lat="44.26549" lon="7.0007">
        <ele>2713.84</ele>
        <time>2018-05-11T08:54:39Z</time>
      </trkpt>
      <trkpt lat="44.26549" lon="7.0007">
        <ele>2713.93</ele>
        <time>2018-05-11T08:54:56Z</time>
      </trkpt>
      <trkpt lat="44.26546" lon="7.00073">
        <ele>2713.6</ele>
        <time>2018-05-11T08:55:23Z</time>
      </trkpt>
      <trkpt lat="44.2655" lon="7.00074">
        <ele>2712.77</ele>
        <time>2018-05-11T08:55:45Z</time>
      </trkpt>
      <trkpt lat="44.26551" lon="7.00072">
        <ele>2713.13</ele>
        <time>2018-05-11T08:56:07Z</time>
      </trkpt>
      <trkpt lat="44.2655" lon="7.00072">
        <ele>2712.93</ele>
        <time>2018-05-11T08:56:34Z</time>
      </trkpt>
      <trkpt lat="44.26554" lon="7.0006">
        <ele>2714.71</ele>
        <time>2018-05-11T08:56:57Z</time>
      </trkpt>
      <trkpt lat="44.2655" lon="7.0005">
        <ele>2717.73</ele>
        <time>2018-05-11T08:57:14Z</time>
      </trkpt>
      <trkpt lat="44.26546" lon="7.00038">
        <ele>2720.16</ele>
        <time>2018-05-11T08:57:31Z</time>
      </trkpt>
      <trkpt lat="44.26541" lon="7.00028">
        <ele>2722.4</ele>
        <time>2018-05-11T08:57:50Z</time>
      </trkpt>
      <trkpt lat="44.26536" lon="7.00018">
        <ele>2724.76</ele>
        <time>2018-05-11T08:58:07Z</time>
      </trkpt>
      <trkpt lat="44.26529" lon="7.00016">
        <ele>2726.6</ele>
        <time>2018-05-11T08:58:24Z</time>
      </trkpt>
      <trkpt lat="44.26531" lon="7.00013">
        <ele>2727.38</ele>
        <time>2018-05-11T08:58:43Z</time>
      </trkpt>
      <trkpt lat="44.26537" lon="7.00002">
        <ele>2729.93</ele>
        <time>2018-05-11T08:59:05Z</time>
      </trkpt>
      <trkpt lat="44.26542" lon="6.99993">
        <ele>2732.93</ele>
        <time>2018-05-11T08:59:24Z</time>
      </trkpt>
      <trkpt lat="44.26546" lon="6.99992">
        <ele>2733.6</ele>
        <time>2018-05-11T08:59:46Z</time>
      </trkpt>
      <trkpt lat="44.26553" lon="6.99987">
        <ele>2735.62</ele>
        <time>2018-05-11T09:00:06Z</time>
      </trkpt>
      <trkpt lat="44.26552" lon="6.99984">
        <ele>2737.42</ele>
        <time>2018-05-11T09:00:22Z</time>
      </trkpt>
      <trkpt lat="44.26544" lon="6.99975">
        <ele>2739.36</ele>
        <time>2018-05-11T09:00:41Z</time>
      </trkpt>
      <trkpt lat="44.26534" lon="6.99971">
        <ele>2741.22</ele>
        <time>2018-05-11T09:00:59Z</time>
      </trkpt>
      <trkpt lat="44.26528" lon="6.9997">
        <ele>2741.97</ele>
        <time>2018-05-11T09:01:19Z</time>
      </trkpt>
      <trkpt lat="44.26518" lon="6.9997">
        <ele>2744.03</ele>
        <time>2018-05-11T09:01:35Z</time>
      </trkpt>
      <trkpt lat="44.26505" lon="6.99967">
        <ele>2746.62</ele>
        <time>2018-05-11T09:01:55Z</time>
      </trkpt>
      <trkpt lat="44.26494" lon="6.99963">
        <ele>2748.6</ele>
        <time>2018-05-11T09:02:17Z</time>
      </trkpt>
      <trkpt lat="44.26495" lon="6.99962">
        <ele>2748.01</ele>
        <time>2018-05-11T09:02:41Z</time>
      </trkpt>
      <trkpt lat="44.26495" lon="6.99961">
        <ele>2748.96</ele>
        <time>2018-05-11T09:03:09Z</time>
      </trkpt>
      <trkpt lat="44.26495" lon="6.99963">
        <ele>2749.05</ele>
        <time>2018-05-11T09:03:34Z</time>
      </trkpt>
      <trkpt lat="44.26494" lon="6.99964">
        <ele>2748.05</ele>
        <time>2018-05-11T09:03:58Z</time>
      </trkpt>
      <trkpt lat="44.26493" lon="6.99962">
        <ele>2748.16</ele>
        <time>2018-05-11T09:04:21Z</time>
      </trkpt>
      <trkpt lat="44.26492" lon="6.99966">
        <ele>2748.94</ele>
        <time>2018-05-11T09:04:45Z</time>
      </trkpt>
      <trkpt lat="44.26494" lon="6.99966">
        <ele>2749.11</ele>
        <time>2018-05-11T09:05:10Z</time>
      </trkpt>
      <trkpt lat="44.26492" lon="6.99962">
        <ele>2748.88</ele>
        <time>2018-05-11T09:05:37Z</time>
      </trkpt>
      <trkpt lat="44.26489" lon="6.99965">
        <ele>2749.01</ele>
        <time>2018-05-11T09:06:08Z</time>
      </trkpt>
      <trkpt lat="44.26488" lon="6.99964">
        <ele>2748.96</ele>
        <time>2018-05-11T09:06:32Z</time>
      </trkpt>
      <trkpt lat="44.26478" lon="6.99965">
        <ele>2748.95</ele>
        <time>2018-05-11T09:07:04Z</time>
      </trkpt>
      <trkpt lat="44.26476" lon="6.99961">
        <ele>2748.63</ele>
        <time>2018-05-11T09:07:17Z</time>
      </trkpt>
      <trkpt lat="44.26481" lon="6.99966">
        <ele>2749.1</ele>
        <time>2018-05-11T09:07:22Z</time>
      </trkpt>
      <trkpt lat="44.2649" lon="6.99969">
        <ele>2749.09</ele>
        <time>2018-05-11T09:07:49Z</time>
      </trkpt>
      <trkpt lat="44.2649" lon="6.99968">
        <ele>2748.73</ele>
        <time>2018-05-11T09:08:00Z</time>
      </trkpt>
      <trkpt lat="44.26493" lon="6.99962">
        <ele>2748.57</ele>
        <time>2018-05-11T09:08:20Z</time>
      </trkpt>
      <trkpt lat="44.26491" lon="6.99962">
        <ele>2748.8</ele>
        <time>2018-05-11T09:08:43Z</time>
      </trkpt>
      <trkpt lat="44.26492" lon="6.99964">
        <ele>2747.62</ele>
        <time>2018-05-11T09:09:04Z</time>
      </trkpt>
      <trkpt lat="44.26493" lon="6.99963">
        <ele>2748.08</ele>
        <time>2018-05-11T09:09:27Z</time>
      </trkpt>
      <trkpt lat="44.26495" lon="6.99963">
        <ele>2747.68</ele>
        <time>2018-05-11T09:09:48Z</time>
      </trkpt>
      <trkpt lat="44.26493" lon="6.99965">
        <ele>2748.35</ele>
        <time>2018-05-11T09:10:07Z</time>
      </trkpt>
      <trkpt lat="44.26493" lon="6.99965">
        <ele>2748.28</ele>
        <time>2018-05-11T09:10:35Z</time>
      </trkpt>
      <trkpt lat="44.26492" lon="6.99967">
        <ele>2748.19</ele>
        <time>2018-05-11T09:13:49Z</time>
      </trkpt>
      <trkpt lat="44.26492" lon="6.99968">
        <ele>2747.38</ele>
        <time>2018-05-11T09:15:30Z</time>
      </trkpt>
      <trkpt lat="44.26492" lon="6.99967">
        <ele>2747.96</ele>
        <time>2018-05-11T09:16:01Z</time>
      </trkpt>
      <trkpt lat="44.26493" lon="6.99969">
        <ele>2748.29</ele>
        <time>2018-05-11T09:16:59Z</time>
      </trkpt>
      <trkpt lat="44.26491" lon="6.99967">
        <ele>2748.73</ele>
        <time>2018-05-11T09:17:29Z</time>
      </trkpt>
      <trkpt lat="44.26491" lon="6.99968">
        <ele>2748.92</ele>
        <time>2018-05-11T09:17:36Z</time>
      </trkpt>
      <trkpt lat="44.26492" lon="6.99966">
        <ele>2748.78</ele>
        <time>2018-05-11T09:18:01Z</time>
      </trkpt>
      <trkpt lat="44.2649" lon="6.99964">
        <ele>2748.99</ele>
        <time>2018-05-11T09:18:23Z</time>
      </trkpt>
      <trkpt lat="44.26491" lon="6.99966">
        <ele>2748.57</ele>
        <time>2018-05-11T09:18:45Z</time>
      </trkpt>
      <trkpt lat="44.26493" lon="6.99966">
        <ele>2748.77</ele>
        <time>2018-05-11T09:19:07Z</time>
      </trkpt>
      <trkpt lat="44.26492" lon="6.99966">
        <ele>2748.7</ele>
        <time>2018-05-11T09:19:37Z</time>
      </trkpt>
      <trkpt lat="44.2649" lon="6.99966">
        <ele>2748.93</ele>
        <time>2018-05-11T09:20:13Z</time>
      </trkpt>
      <trkpt lat="44.26489" lon="6.99962">
        <ele>2748.56</ele>
        <time>2018-05-11T09:20:40Z</time>
      </trkpt>
      <trkpt lat="44.2649" lon="6.99962">
        <ele>2748.65</ele>
        <time>2018-05-11T09:21:00Z</time>
      </trkpt>
      <trkpt lat="44.26492" lon="6.99962">
        <ele>2748.74</ele>
        <time>2018-05-11T09:21:20Z</time>
      </trkpt>
      <trkpt lat="44.26489" lon="6.99965">
        <ele>2748.72</ele>
        <time>2018-05-11T09:21:52Z</time>
      </trkpt>
      <trkpt lat="44.2649" lon="6.99969">
        <ele>2748.72</ele>
        <time>2018-05-11T09:22:24Z</time>
      </trkpt>
      <trkpt lat="44.26491" lon="6.99968">
        <ele>2749.1</ele>
        <time>2018-05-11T09:22:54Z</time>
      </trkpt>
      <trkpt lat="44.26493" lon="6.99963">
        <ele>2749.43</ele>
        <time>2018-05-11T09:23:17Z</time>
      </trkpt>
      <trkpt lat="44.26491" lon="6.99967">
        <ele>2748.91</ele>
        <time>2018-05-11T09:23:37Z</time>
      </trkpt>
      <trkpt lat="44.26492" lon="6.99967">
        <ele>2748.74</ele>
        <time>2018-05-11T09:24:01Z</time>
      </trkpt>
      <trkpt lat="44.2649" lon="6.99965">
        <ele>2749.18</ele>
        <time>2018-05-11T09:24:18Z</time>
      </trkpt>
      <trkpt lat="44.2649" lon="6.99962">
        <ele>2749.45</ele>
        <time>2018-05-11T09:24:43Z</time>
      </trkpt>
      <trkpt lat="44.26478" lon="6.99962">
        <ele>2749.35</ele>
        <time>2018-05-11T09:25:01Z</time>
      </trkpt>
      <trkpt lat="44.26475" lon="6.99962">
        <ele>2749.26</ele>
        <time>2018-05-11T09:25:05Z</time>
      </trkpt>
      <trkpt lat="44.26464" lon="6.99961">
        <ele>2748.37</ele>
        <time>2018-05-11T09:25:20Z</time>
      </trkpt>
      <trkpt lat="44.26452" lon="6.99953">
        <ele>2748.65</ele>
        <time>2018-05-11T09:25:37Z</time>
      </trkpt>
      <trkpt lat="44.26443" lon="6.99944">
        <ele>2749.24</ele>
        <time>2018-05-11T09:25:51Z</time>
      </trkpt>
      <trkpt lat="44.26442" lon="6.99943">
        <ele>2749.2</ele>
        <time>2018-05-11T09:25:53Z</time>
      </trkpt>
      <trkpt lat="44.26437" lon="6.99935">
        <ele>2749.23</ele>
        <time>2018-05-11T09:26:07Z</time>
      </trkpt>
      <trkpt lat="44.26435" lon="6.99928">
        <ele>2749.15</ele>
        <time>2018-05-11T09:26:16Z</time>
      </trkpt>
      <trkpt lat="44.26431" lon="6.99914">
        <ele>2748.5</ele>
        <time>2018-05-11T09:26:34Z</time>
      </trkpt>
      <trkpt lat="44.26429" lon="6.9991">
        <ele>2748.58</ele>
        <time>2018-05-11T09:26:59Z</time>
      </trkpt>
      <trkpt lat="44.26427" lon="6.99908">
        <ele>2748.91</ele>
        <time>2018-05-11T09:27:19Z</time>
      </trkpt>
      <trkpt lat="44.26426" lon="6.99908">
        <ele>2748.73</ele>
        <time>2018-05-11T09:27:23Z</time>
      </trkpt>
      <trkpt lat="44.26412" lon="6.99914">
        <ele>2745.28</ele>
        <time>2018-05-11T09:27:29Z</time>
      </trkpt>
      <trkpt lat="44.26407" lon="6.99916">
        <ele>2746.8</ele>
        <time>2018-05-11T09:27:51Z</time>
      </trkpt>
      <trkpt lat="44.26403" lon="6.99906">
        <ele>2747.48</ele>
        <time>2018-05-11T09:28:08Z</time>
      </trkpt>
      <trkpt lat="44.26398" lon="6.99898">
        <ele>2748.59</ele>
        <time>2018-05-11T09:28:22Z</time>
      </trkpt>
      <trkpt lat="44.26393" lon="6.99892">
        <ele>2749.79</ele>
        <time>2018-05-11T09:28:41Z</time>
      </trkpt>
      <trkpt lat="44.2639" lon="6.99887">
        <ele>2751.18</ele>
        <time>2018-05-11T09:28:53Z</time>
      </trkpt>
      <trkpt lat="44.26398" lon="6.99873">
        <ele>2752.51</ele>
        <time>2018-05-11T09:29:10Z</time>
      </trkpt>
      <trkpt lat="44.26397" lon="6.99867">
        <ele>2754.9</ele>
        <time>2018-05-11T09:29:28Z</time>
      </trkpt>
      <trkpt lat="44.26391" lon="6.99866">
        <ele>2756.28</ele>
        <time>2018-05-11T09:29:48Z</time>
      </trkpt>
      <trkpt lat="44.26386" lon="6.99863">
        <ele>2757.38</ele>
        <time>2018-05-11T09:30:05Z</time>
      </trkpt>
      <trkpt lat="44.26382" lon="6.99858">
        <ele>2758.6</ele>
        <time>2018-05-11T09:30:21Z</time>
      </trkpt>
      <trkpt lat="44.26391" lon="6.99847">
        <ele>2760.73</ele>
        <time>2018-05-11T09:30:42Z</time>
      </trkpt>
      <trkpt lat="44.26393" lon="6.99837">
        <ele>2762.84</ele>
        <time>2018-05-11T09:31:00Z</time>
      </trkpt>
      <trkpt lat="44.26387" lon="6.99837">
        <ele>2764.72</ele>
        <time>2018-05-11T09:31:18Z</time>
      </trkpt>
      <trkpt lat="44.26383" lon="6.99838">
        <ele>2765.91</ele>
        <time>2018-05-11T09:31:37Z</time>
      </trkpt>
      <trkpt lat="44.26388" lon="6.99825">
        <ele>2767.46</ele>
        <time>2018-05-11T09:31:55Z</time>
      </trkpt>
      <trkpt lat="44.26389" lon="6.99821">
        <ele>2769.33</ele>
        <time>2018-05-11T09:32:14Z</time>
      </trkpt>
      <trkpt lat="44.26382" lon="6.99823">
        <ele>2770.92</ele>
        <time>2018-05-11T09:32:31Z</time>
      </trkpt>
      <trkpt lat="44.26378" lon="6.99823">
        <ele>2772.08</ele>
        <time>2018-05-11T09:32:52Z</time>
      </trkpt>
      <trkpt lat="44.26381" lon="6.99816">
        <ele>2773.17</ele>
        <time>2018-05-11T09:33:09Z</time>
      </trkpt>
      <trkpt lat="44.26379" lon="6.99821">
        <ele>2772.71</ele>
        <time>2018-05-11T09:33:42Z</time>
      </trkpt>
      <trkpt lat="44.26382" lon="6.99817">
        <ele>2772.39</ele>
        <time>2018-05-11T09:34:09Z</time>
      </trkpt>
      <trkpt lat="44.26385" lon="6.99808">
        <ele>2773.97</ele>
        <time>2018-05-11T09:34:31Z</time>
      </trkpt>
      <trkpt lat="44.2638" lon="6.99807">
        <ele>2776.08</ele>
        <time>2018-05-11T09:34:47Z</time>
      </trkpt>
      <trkpt lat="44.26369" lon="6.99809">
        <ele>2778.23</ele>
        <time>2018-05-11T09:35:03Z</time>
      </trkpt>
      <trkpt lat="44.26371" lon="6.99804">
        <ele>2779.17</ele>
        <time>2018-05-11T09:35:15Z</time>
      </trkpt>
      <trkpt lat="44.26376" lon="6.99791">
        <ele>2781.83</ele>
        <time>2018-05-11T09:35:33Z</time>
      </trkpt>
      <trkpt lat="44.26371" lon="6.99795">
        <ele>2783.08</ele>
        <time>2018-05-11T09:35:52Z</time>
      </trkpt>
      <trkpt lat="44.26368" lon="6.99795">
        <ele>2783.7</ele>
        <time>2018-05-11T09:36:07Z</time>
      </trkpt>
      <trkpt lat="44.26367" lon="6.99796">
        <ele>2783.81</ele>
        <time>2018-05-11T09:36:30Z</time>
      </trkpt>
      <trkpt lat="44.26368" lon="6.99796">
        <ele>2783.76</ele>
        <time>2018-05-11T09:36:47Z</time>
      </trkpt>
      <trkpt lat="44.26363" lon="6.99796">
        <ele>2783.96</ele>
        <time>2018-05-11T09:37:09Z</time>
      </trkpt>
      <trkpt lat="44.26363" lon="6.99791">
        <ele>2785.58</ele>
        <time>2018-05-11T09:37:25Z</time>
      </trkpt>
      <trkpt lat="44.26368" lon="6.99781">
        <ele>2788.62</ele>
        <time>2018-05-11T09:37:42Z</time>
      </trkpt>
      <trkpt lat="44.26357" lon="6.99782">
        <ele>2790.1</ele>
        <time>2018-05-11T09:38:01Z</time>
      </trkpt>
      <trkpt lat="44.26353" lon="6.9978">
        <ele>2791.75</ele>
        <time>2018-05-11T09:38:19Z</time>
      </trkpt>
      <trkpt lat="44.26359" lon="6.99766">
        <ele>2793.61</ele>
        <time>2018-05-11T09:38:39Z</time>
      </trkpt>
      <trkpt lat="44.26361" lon="6.99769">
        <ele>2794.86</ele>
        <time>2018-05-11T09:38:59Z</time>
      </trkpt>
      <trkpt lat="44.26352" lon="6.99769">
        <ele>2796.47</ele>
        <time>2018-05-11T09:39:16Z</time>
      </trkpt>
      <trkpt lat="44.26342" lon="6.99765">
        <ele>2798.94</ele>
        <time>2018-05-11T09:39:32Z</time>
      </trkpt>
      <trkpt lat="44.26336" lon="6.99762">
        <ele>2799.69</ele>
        <time>2018-05-11T09:39:46Z</time>
      </trkpt>
      <trkpt lat="44.26335" lon="6.99766">
        <ele>2799.61</ele>
        <time>2018-05-11T09:40:07Z</time>
      </trkpt>
      <trkpt lat="44.26334" lon="6.99767">
        <ele>2799.28</ele>
        <time>2018-05-11T09:40:30Z</time>
      </trkpt>
      <trkpt lat="44.26333" lon="6.99763">
        <ele>2799.31</ele>
        <time>2018-05-11T09:40:59Z</time>
      </trkpt>
      <trkpt lat="44.26332" lon="6.9976">
        <ele>2798.97</ele>
        <time>2018-05-11T09:41:23Z</time>
      </trkpt>
      <trkpt lat="44.26333" lon="6.99764">
        <ele>2799.33</ele>
        <time>2018-05-11T09:41:48Z</time>
      </trkpt>
      <trkpt lat="44.26334" lon="6.99767">
        <ele>2798.88</ele>
        <time>2018-05-11T09:42:10Z</time>
      </trkpt>
      <trkpt lat="44.26335" lon="6.99767">
        <ele>2798.85</ele>
        <time>2018-05-11T09:42:32Z</time>
      </trkpt>
      <trkpt lat="44.26334" lon="6.99767">
        <ele>2798.78</ele>
        <time>2018-05-11T09:42:57Z</time>
      </trkpt>
      <trkpt lat="44.26333" lon="6.99767">
        <ele>2798.82</ele>
        <time>2018-05-11T09:43:21Z</time>
      </trkpt>
      <trkpt lat="44.26333" lon="6.9977">
        <ele>2798.27</ele>
        <time>2018-05-11T09:43:45Z</time>
      </trkpt>
      <trkpt lat="44.26332" lon="6.99772">
        <ele>2798.39</ele>
        <time>2018-05-11T09:44:14Z</time>
      </trkpt>
      <trkpt lat="44.26333" lon="6.99771">
        <ele>2798.14</ele>
        <time>2018-05-11T09:44:43Z</time>
      </trkpt>
      <trkpt lat="44.26333" lon="6.99773">
        <ele>2797.98</ele>
        <time>2018-05-11T09:45:12Z</time>
      </trkpt>
      <trkpt lat="44.26333" lon="6.99769">
        <ele>2798.66</ele>
        <time>2018-05-11T09:46:12Z</time>
      </trkpt>
      <trkpt lat="44.26332" lon="6.99773">
        <ele>2798.23</ele>
        <time>2018-05-11T09:47:23Z</time>
      </trkpt>
      <trkpt lat="44.26331" lon="6.99773">
        <ele>2797.76</ele>
        <time>2018-05-11T09:48:31Z</time>
      </trkpt>
      <trkpt lat="44.26329" lon="6.99772">
        <ele>2798.82</ele>
        <time>2018-05-11T09:49:41Z</time>
      </trkpt>
      <trkpt lat="44.26331" lon="6.99772">
        <ele>2799.47</ele>
        <time>2018-05-11T09:50:34Z</time>
      </trkpt>
      <trkpt lat="44.26332" lon="6.99772">
        <ele>2799.45</ele>
        <time>2018-05-11T09:51:24Z</time>
      </trkpt>
      <trkpt lat="44.26333" lon="6.99771">
        <ele>2799.38</ele>
        <time>2018-05-11T09:52:31Z</time>
      </trkpt>
      <trkpt lat="44.26332" lon="6.99769">
        <ele>2799.56</ele>
        <time>2018-05-11T09:53:02Z</time>
      </trkpt>
      <trkpt lat="44.26334" lon="6.99768">
        <ele>2799.26</ele>
        <time>2018-05-11T09:53:30Z</time>
      </trkpt>
      <trkpt lat="44.26334" lon="6.99769">
        <ele>2799.44</ele>
        <time>2018-05-11T09:54:05Z</time>
      </trkpt>
      <trkpt lat="44.26332" lon="6.99771">
        <ele>2799.47</ele>
        <time>2018-05-11T09:54:10Z</time>
      </trkpt>
      <trkpt lat="44.26311" lon="6.99788">
        <ele>2796.2</ele>
        <time>2018-05-11T09:54:17Z</time>
      </trkpt>
      <trkpt lat="44.26304" lon="6.9979">
        <ele>2794.85</ele>
        <time>2018-05-11T09:54:20Z</time>
      </trkpt>
      <trkpt lat="44.26306" lon="6.99786">
        <ele>2794.34</ele>
        <time>2018-05-11T09:54:41Z</time>
      </trkpt>
      <trkpt lat="44.26301" lon="6.99787">
        <ele>2794.46</ele>
        <time>2018-05-11T09:55:02Z</time>
      </trkpt>
      <trkpt lat="44.26292" lon="6.99786">
        <ele>2794.61</ele>
        <time>2018-05-11T09:55:30Z</time>
      </trkpt>
      <trkpt lat="44.26285" lon="6.99785">
        <ele>2795.23</ele>
        <time>2018-05-11T09:55:52Z</time>
      </trkpt>
      <trkpt lat="44.26286" lon="6.99784">
        <ele>2795.06</ele>
        <time>2018-05-11T09:56:05Z</time>
      </trkpt>
      <trkpt lat="44.26292" lon="6.99794">
        <ele>2794.18</ele>
        <time>2018-05-11T09:56:09Z</time>
      </trkpt>
      <trkpt lat="44.26288" lon="6.99815">
        <ele>2789.02</ele>
        <time>2018-05-11T09:56:13Z</time>
      </trkpt>
      <trkpt lat="44.26279" lon="6.99818">
        <ele>2786.37</ele>
        <time>2018-05-11T09:56:15Z</time>
      </trkpt>
      <trkpt lat="44.26268" lon="6.99818">
        <ele>2783.63</ele>
        <time>2018-05-11T09:56:17Z</time>
      </trkpt>
      <trkpt lat="44.26249" lon="6.99821">
        <ele>2778.85</ele>
        <time>2018-05-11T09:56:20Z</time>
      </trkpt>
      <trkpt lat="44.26238" lon="6.99827">
        <ele>2776.63</ele>
        <time>2018-05-11T09:56:23Z</time>
      </trkpt>
      <trkpt lat="44.26236" lon="6.99829">
        <ele>2776.6</ele>
        <time>2018-05-11T09:56:24Z</time>
      </trkpt>
      <trkpt lat="44.2622" lon="6.99835">
        <ele>2776.34</ele>
        <time>2018-05-11T09:56:39Z</time>
      </trkpt>
      <trkpt lat="44.26207" lon="6.99842">
        <ele>2773.59</ele>
        <time>2018-05-11T09:56:46Z</time>
      </trkpt>
      <trkpt lat="44.26207" lon="6.99843">
        <ele>2773.92</ele>
        <time>2018-05-11T09:57:18Z</time>
      </trkpt>
      <trkpt lat="44.26207" lon="6.99841">
        <ele>2773.66</ele>
        <time>2018-05-11T09:57:55Z</time>
      </trkpt>
      <trkpt lat="44.26208" lon="6.9984">
        <ele>2773.73</ele>
        <time>2018-05-11T09:58:31Z</time>
      </trkpt>
      <trkpt lat="44.26209" lon="6.99841">
        <ele>2774.21</ele>
        <time>2018-05-11T09:59:02Z</time>
      </trkpt>
      <trkpt lat="44.26208" lon="6.99841">
        <ele>2774.17</ele>
        <time>2018-05-11T10:00:06Z</time>
      </trkpt>
      <trkpt lat="44.26207" lon="6.99842">
        <ele>2774.03</ele>
        <time>2018-05-11T10:00:49Z</time>
      </trkpt>
      <trkpt lat="44.26206" lon="6.99846">
        <ele>2773.97</ele>
        <time>2018-05-11T10:00:50Z</time>
      </trkpt>
      <trkpt lat="44.26208" lon="6.99867">
        <ele>2770.49</ele>
        <time>2018-05-11T10:00:54Z</time>
      </trkpt>
      <trkpt lat="44.26211" lon="6.99877">
        <ele>2767.38</ele>
        <time>2018-05-11T10:00:56Z</time>
      </trkpt>
      <trkpt lat="44.26211" lon="6.99883">
        <ele>2765.46</ele>
        <time>2018-05-11T10:00:57Z</time>
      </trkpt>
      <trkpt lat="44.26222" lon="6.99899">
        <ele>2756.69</ele>
        <time>2018-05-11T10:01:01Z</time>
      </trkpt>
      <trkpt lat="44.26228" lon="6.99909">
        <ele>2753.42</ele>
        <time>2018-05-11T10:01:03Z</time>
      </trkpt>
      <trkpt lat="44.2624" lon="6.99917">
        <ele>2748.54</ele>
        <time>2018-05-11T10:01:05Z</time>
      </trkpt>
      <trkpt lat="44.26251" lon="6.99927">
        <ele>2744.59</ele>
        <time>2018-05-11T10:01:07Z</time>
      </trkpt>
      <trkpt lat="44.26258" lon="6.99938">
        <ele>2742.91</ele>
        <time>2018-05-11T10:01:09Z</time>
      </trkpt>
      <trkpt lat="44.26269" lon="6.99955">
        <ele>2737.33</ele>
        <time>2018-05-11T10:01:13Z</time>
      </trkpt>
      <trkpt lat="44.26274" lon="6.99957">
        <ele>2736.25</ele>
        <time>2018-05-11T10:01:15Z</time>
      </trkpt>
      <trkpt lat="44.26275" lon="6.99958">
        <ele>2735.4</ele>
        <time>2018-05-11T10:01:17Z</time>
      </trkpt>
      <trkpt lat="44.26276" lon="6.99962">
        <ele>2735.38</ele>
        <time>2018-05-11T10:01:43Z</time>
      </trkpt>
      <trkpt lat="44.26276" lon="6.99958">
        <ele>2735.41</ele>
        <time>2018-05-11T10:01:50Z</time>
      </trkpt>
      <trkpt lat="44.26275" lon="6.99953">
        <ele>2735.4</ele>
        <time>2018-05-11T10:02:19Z</time>
      </trkpt>
      <trkpt lat="44.26274" lon="6.99952">
        <ele>2735.06</ele>
        <time>2018-05-11T10:02:50Z</time>
      </trkpt>
      <trkpt lat="44.26279" lon="6.99947">
        <ele>2735.27</ele>
        <time>2018-05-11T10:03:14Z</time>
      </trkpt>
      <trkpt lat="44.26281" lon="6.99945">
        <ele>2734.9</ele>
        <time>2018-05-11T10:03:16Z</time>
      </trkpt>
      <trkpt lat="44.26297" lon="6.99933">
        <ele>2730.49</ele>
        <time>2018-05-11T10:03:21Z</time>
      </trkpt>
      <trkpt lat="44.26312" lon="6.9993">
        <ele>2728.07</ele>
        <time>2018-05-11T10:03:24Z</time>
      </trkpt>
      <trkpt lat="44.26326" lon="6.99929">
        <ele>2725.44</ele>
        <time>2018-05-11T10:03:27Z</time>
      </trkpt>
      <trkpt lat="44.26342" lon="6.99929">
        <ele>2724.15</ele>
        <time>2018-05-11T10:03:35Z</time>
      </trkpt>
      <trkpt lat="44.26344" lon="6.99928">
        <ele>2723.75</ele>
        <time>2018-05-11T10:04:05Z</time>
      </trkpt>
      <trkpt lat="44.26344" lon="6.99927">
        <ele>2723.08</ele>
        <time>2018-05-11T10:04:35Z</time>
      </trkpt>
      <trkpt lat="44.26346" lon="6.99925">
        <ele>2723.65</ele>
        <time>2018-05-11T10:05:05Z</time>
      </trkpt>
      <trkpt lat="44.26347" lon="6.99927">
        <ele>2723.53</ele>
        <time>2018-05-11T10:05:07Z</time>
      </trkpt>
      <trkpt lat="44.26361" lon="6.9995">
        <ele>2720.25</ele>
        <time>2018-05-11T10:05:13Z</time>
      </trkpt>
      <trkpt lat="44.26362" lon="6.99955">
        <ele>2718.17</ele>
        <time>2018-05-11T10:05:24Z</time>
      </trkpt>
      <trkpt lat="44.26363" lon="6.99955">
        <ele>2718.16</ele>
        <time>2018-05-11T10:05:34Z</time>
      </trkpt>
      <trkpt lat="44.26349" lon="6.99977">
        <ele>2712.51</ele>
        <time>2018-05-11T10:05:39Z</time>
      </trkpt>
      <trkpt lat="44.2635" lon="6.99994">
        <ele>2707.71</ele>
        <time>2018-05-11T10:05:41Z</time>
      </trkpt>
      <trkpt lat="44.26343" lon="7.00009">
        <ele>2703.61</ele>
        <time>2018-05-11T10:05:43Z</time>
      </trkpt>
      <trkpt lat="44.26339" lon="7.00018">
        <ele>2700.39</ele>
        <time>2018-05-11T10:05:44Z</time>
      </trkpt>
      <trkpt lat="44.26337" lon="7.00027">
        <ele>2697.04</ele>
        <time>2018-05-11T10:05:45Z</time>
      </trkpt>
      <trkpt lat="44.26329" lon="7.00048">
        <ele>2688.69</ele>
        <time>2018-05-11T10:05:48Z</time>
      </trkpt>
      <trkpt lat="44.26324" lon="7.00061">
        <ele>2682.29</ele>
        <time>2018-05-11T10:05:50Z</time>
      </trkpt>
      <trkpt lat="44.26326" lon="7.00069">
        <ele>2678.6</ele>
        <time>2018-05-11T10:05:52Z</time>
      </trkpt>
      <trkpt lat="44.26325" lon="7.00071">
        <ele>2676.08</ele>
        <time>2018-05-11T10:06:01Z</time>
      </trkpt>
      <trkpt lat="44.26326" lon="7.00067">
        <ele>2676.15</ele>
        <time>2018-05-11T10:06:25Z</time>
      </trkpt>
      <trkpt lat="44.26331" lon="7.00055">
        <ele>2676.17</ele>
        <time>2018-05-11T10:06:54Z</time>
      </trkpt>
      <trkpt lat="44.26331" lon="7.00059">
        <ele>2676.15</ele>
        <time>2018-05-11T10:07:24Z</time>
      </trkpt>
      <trkpt lat="44.26329" lon="7.00059">
        <ele>2675.81</ele>
        <time>2018-05-11T10:07:46Z</time>
      </trkpt>
      <trkpt lat="44.26327" lon="7.00064">
        <ele>2675.71</ele>
        <time>2018-05-11T10:08:21Z</time>
      </trkpt>
      <trkpt lat="44.26328" lon="7.00062">
        <ele>2675.54</ele>
        <time>2018-05-11T10:08:23Z</time>
      </trkpt>
      <trkpt lat="44.26315" lon="7.0008">
        <ele>2670.76</ele>
        <time>2018-05-11T10:08:29Z</time>
      </trkpt>
      <trkpt lat="44.26311" lon="7.00094">
        <ele>2665.76</ele>
        <time>2018-05-11T10:08:31Z</time>
      </trkpt>
      <trkpt lat="44.26303" lon="7.00103">
        <ele>2662.13</ele>
        <time>2018-05-11T10:08:33Z</time>
      </trkpt>
      <trkpt lat="44.26293" lon="7.00115">
        <ele>2655.97</ele>
        <time>2018-05-11T10:08:35Z</time>
      </trkpt>
      <trkpt lat="44.26288" lon="7.00128">
        <ele>2651.87</ele>
        <time>2018-05-11T10:08:37Z</time>
      </trkpt>
      <trkpt lat="44.2628" lon="7.00139">
        <ele>2646.89</ele>
        <time>2018-05-11T10:08:39Z</time>
      </trkpt>
      <trkpt lat="44.26274" lon="7.00153">
        <ele>2641.72</ele>
        <time>2018-05-11T10:08:41Z</time>
      </trkpt>
      <trkpt lat="44.26271" lon="7.00149">
        <ele>2633.4</ele>
        <time>2018-05-11T10:08:52Z</time>
      </trkpt>
      <trkpt lat="44.26272" lon="7.0015">
        <ele>2632.99</ele>
        <time>2018-05-11T10:09:13Z</time>
      </trkpt>
      <trkpt lat="44.2626" lon="7.00155">
        <ele>2630.79</ele>
        <time>2018-05-11T10:09:18Z</time>
      </trkpt>
      <trkpt lat="44.26247" lon="7.00185">
        <ele>2623.18</ele>
        <time>2018-05-11T10:09:22Z</time>
      </trkpt>
      <trkpt lat="44.2624" lon="7.00191">
        <ele>2619.49</ele>
        <time>2018-05-11T10:09:23Z</time>
      </trkpt>
      <trkpt lat="44.26233" lon="7.00192">
        <ele>2612.18</ele>
        <time>2018-05-11T10:09:26Z</time>
      </trkpt>
      <trkpt lat="44.26233" lon="7.00191">
        <ele>2611.22</ele>
        <time>2018-05-11T10:09:28Z</time>
      </trkpt>
      <trkpt lat="44.26236" lon="7.00181">
        <ele>2610.81</ele>
        <time>2018-05-11T10:09:53Z</time>
      </trkpt>
      <trkpt lat="44.26238" lon="7.00176">
        <ele>2611.06</ele>
        <time>2018-05-11T10:10:13Z</time>
      </trkpt>
      <trkpt lat="44.26242" lon="7.00169">
        <ele>2610.7</ele>
        <time>2018-05-11T10:10:37Z</time>
      </trkpt>
      <trkpt lat="44.2624" lon="7.00167">
        <ele>2610.95</ele>
        <time>2018-05-11T10:11:00Z</time>
      </trkpt>
      <trkpt lat="44.26243" lon="7.00166">
        <ele>2610.62</ele>
        <time>2018-05-11T10:11:24Z</time>
      </trkpt>
      <trkpt lat="44.26245" lon="7.00165">
        <ele>2610.86</ele>
        <time>2018-05-11T10:11:49Z</time>
      </trkpt>
      <trkpt lat="44.26246" lon="7.0016">
        <ele>2610.47</ele>
        <time>2018-05-11T10:12:43Z</time>
      </trkpt>
      <trkpt lat="44.26236" lon="7.00158">
        <ele>2608.6</ele>
        <time>2018-05-11T10:13:14Z</time>
      </trkpt>
      <trkpt lat="44.26223" lon="7.00157">
        <ele>2607.54</ele>
        <time>2018-05-11T10:13:30Z</time>
      </trkpt>
      <trkpt lat="44.26207" lon="7.00152">
        <ele>2605.51</ele>
        <time>2018-05-11T10:13:41Z</time>
      </trkpt>
      <trkpt lat="44.26178" lon="7.00158">
        <ele>2602.17</ele>
        <time>2018-05-11T10:13:49Z</time>
      </trkpt>
      <trkpt lat="44.26146" lon="7.00162">
        <ele>2599.03</ele>
        <time>2018-05-11T10:13:59Z</time>
      </trkpt>
      <trkpt lat="44.26126" lon="7.00176">
        <ele>2596.73</ele>
        <time>2018-05-11T10:14:10Z</time>
      </trkpt>
      <trkpt lat="44.26117" lon="7.00186">
        <ele>2596.83</ele>
        <time>2018-05-11T10:14:28Z</time>
      </trkpt>
      <trkpt lat="44.26115" lon="7.00196">
        <ele>2596.62</ele>
        <time>2018-05-11T10:14:50Z</time>
      </trkpt>
      <trkpt lat="44.26112" lon="7.00196">
        <ele>2596.39</ele>
        <time>2018-05-11T10:15:24Z</time>
      </trkpt>
      <trkpt lat="44.26089" lon="7.00228">
        <ele>2593.32</ele>
        <time>2018-05-11T10:15:37Z</time>
      </trkpt>
      <trkpt lat="44.26085" lon="7.00236">
        <ele>2591.89</ele>
        <time>2018-05-11T10:15:38Z</time>
      </trkpt>
      <trkpt lat="44.2607" lon="7.00274">
        <ele>2587.39</ele>
        <time>2018-05-11T10:15:43Z</time>
      </trkpt>
      <trkpt lat="44.26062" lon="7.00295">
        <ele>2584.44</ele>
        <time>2018-05-11T10:15:48Z</time>
      </trkpt>
      <trkpt lat="44.26061" lon="7.00292">
        <ele>2583.27</ele>
        <time>2018-05-11T10:16:07Z</time>
      </trkpt>
      <trkpt lat="44.26062" lon="7.00287">
        <ele>2583.3</ele>
        <time>2018-05-11T10:16:28Z</time>
      </trkpt>
      <trkpt lat="44.26058" lon="7.00295">
        <ele>2582.63</ele>
        <time>2018-05-11T10:16:45Z</time>
      </trkpt>
      <trkpt lat="44.26059" lon="7.00295">
        <ele>2581.77</ele>
        <time>2018-05-11T10:17:15Z</time>
      </trkpt>
      <trkpt lat="44.26058" lon="7.00306">
        <ele>2581.85</ele>
        <time>2018-05-11T10:17:47Z</time>
      </trkpt>
      <trkpt lat="44.26052" lon="7.00317">
        <ele>2582.6</ele>
        <time>2018-05-11T10:18:05Z</time>
      </trkpt>
      <trkpt lat="44.26036" lon="7.00357">
        <ele>2578.98</ele>
        <time>2018-05-11T10:18:13Z</time>
      </trkpt>
      <trkpt lat="44.26024" lon="7.00388">
        <ele>2575.21</ele>
        <time>2018-05-11T10:18:17Z</time>
      </trkpt>
      <trkpt lat="44.26015" lon="7.0042">
        <ele>2572.33</ele>
        <time>2018-05-11T10:18:22Z</time>
      </trkpt>
      <trkpt lat="44.26011" lon="7.00419">
        <ele>2572.2</ele>
        <time>2018-05-11T10:18:33Z</time>
      </trkpt>
      <trkpt lat="44.26014" lon="7.0042">
        <ele>2571.51</ele>
        <time>2018-05-11T10:18:55Z</time>
      </trkpt>
      <trkpt lat="44.26015" lon="7.00421">
        <ele>2572.09</ele>
        <time>2018-05-11T10:19:20Z</time>
      </trkpt>
      <trkpt lat="44.26015" lon="7.00421">
        <ele>2571.96</ele>
        <time>2018-05-11T10:19:25Z</time>
      </trkpt>
      <trkpt lat="44.26013" lon="7.00437">
        <ele>2570.61</ele>
        <time>2018-05-11T10:19:31Z</time>
      </trkpt>
      <trkpt lat="44.26003" lon="7.00462">
        <ele>2568.8</ele>
        <time>2018-05-11T10:19:38Z</time>
      </trkpt>
      <trkpt lat="44.25995" lon="7.00488">
        <ele>2566.26</ele>
        <time>2018-05-11T10:19:49Z</time>
      </trkpt>
      <trkpt lat="44.2599" lon="7.00503">
        <ele>2566.71</ele>
        <time>2018-05-11T10:20:07Z</time>
      </trkpt>
      <trkpt lat="44.25985" lon="7.0052">
        <ele>2567.28</ele>
        <time>2018-05-11T10:20:25Z</time>
      </trkpt>
      <trkpt lat="44.25979" lon="7.00534">
        <ele>2567.52</ele>
        <time>2018-05-11T10:20:41Z</time>
      </trkpt>
      <trkpt lat="44.25974" lon="7.00536">
        <ele>2567.74</ele>
        <time>2018-05-11T10:21:00Z</time>
      </trkpt>
      <trkpt lat="44.25975" lon="7.00537">
        <ele>2568.07</ele>
        <time>2018-05-11T10:21:17Z</time>
      </trkpt>
      <trkpt lat="44.25975" lon="7.00537">
        <ele>2567.32</ele>
        <time>2018-05-11T10:21:39Z</time>
      </trkpt>
      <trkpt lat="44.25976" lon="7.00536">
        <ele>2566.42</ele>
        <time>2018-05-11T10:22:02Z</time>
      </trkpt>
      <trkpt lat="44.25975" lon="7.00539">
        <ele>2566.85</ele>
        <time>2018-05-11T10:22:21Z</time>
      </trkpt>
      <trkpt lat="44.25976" lon="7.00545">
        <ele>2566.3</ele>
        <time>2018-05-11T10:22:35Z</time>
      </trkpt>
      <trkpt lat="44.25977" lon="7.00543">
        <ele>2567.15</ele>
        <time>2018-05-11T10:23:04Z</time>
      </trkpt>
      <trkpt lat="44.25976" lon="7.00545">
        <ele>2566.46</ele>
        <time>2018-05-11T10:23:33Z</time>
      </trkpt>
      <trkpt lat="44.25977" lon="7.00545">
        <ele>2566.93</ele>
        <time>2018-05-11T10:23:54Z</time>
      </trkpt>
      <trkpt lat="44.25976" lon="7.00546">
        <ele>2566.62</ele>
        <time>2018-05-11T10:24:15Z</time>
      </trkpt>
      <trkpt lat="44.25977" lon="7.00548">
        <ele>2567.55</ele>
        <time>2018-05-11T10:24:38Z</time>
      </trkpt>
      <trkpt lat="44.25976" lon="7.00549">
        <ele>2567.15</ele>
        <time>2018-05-11T10:25:05Z</time>
      </trkpt>
      <trkpt lat="44.25975" lon="7.00548">
        <ele>2567.64</ele>
        <time>2018-05-11T10:25:23Z</time>
      </trkpt>
      <trkpt lat="44.25973" lon="7.00548">
        <ele>2567.38</ele>
        <time>2018-05-11T10:25:59Z</time>
      </trkpt>
      <trkpt lat="44.25974" lon="7.00547">
        <ele>2567.19</ele>
        <time>2018-05-11T10:26:39Z</time>
      </trkpt>
      <trkpt lat="44.25972" lon="7.00551">
        <ele>2567.27</ele>
        <time>2018-05-11T10:27:52Z</time>
      </trkpt>
      <trkpt lat="44.25967" lon="7.00559">
        <ele>2567.17</ele>
        <time>2018-05-11T10:28:01Z</time>
      </trkpt>
      <trkpt lat="44.25966" lon="7.0057">
        <ele>2565.28</ele>
        <time>2018-05-11T10:28:06Z</time>
      </trkpt>
      <trkpt lat="44.25964" lon="7.0057">
        <ele>2564.98</ele>
        <time>2018-05-11T10:28:47Z</time>
      </trkpt>
      <trkpt lat="44.25962" lon="7.00571">
        <ele>2565.08</ele>
        <time>2018-05-11T10:28:50Z</time>
      </trkpt>
      <trkpt lat="44.2596" lon="7.00574">
        <ele>2564.83</ele>
        <time>2018-05-11T10:28:52Z</time>
      </trkpt>
      <trkpt lat="44.25949" lon="7.00596">
        <ele>2561.22</ele>
        <time>2018-05-11T10:28:57Z</time>
      </trkpt>
      <trkpt lat="44.25941" lon="7.00605">
        <ele>2558.36</ele>
        <time>2018-05-11T10:29:02Z</time>
      </trkpt>
      <trkpt lat="44.2594" lon="7.00606">
        <ele>2557.38</ele>
        <time>2018-05-11T10:29:15Z</time>
      </trkpt>
      <trkpt lat="44.25939" lon="7.00605">
        <ele>2557.35</ele>
        <time>2018-05-11T10:30:00Z</time>
      </trkpt>
      <trkpt lat="44.25933" lon="7.00608">
        <ele>2557.53</ele>
        <time>2018-05-11T10:30:13Z</time>
      </trkpt>
      <trkpt lat="44.25917" lon="7.00616">
        <ele>2556.31</ele>
        <time>2018-05-11T10:30:26Z</time>
      </trkpt>
      <trkpt lat="44.25903" lon="7.00628">
        <ele>2553.51</ele>
        <time>2018-05-11T10:30:37Z</time>
      </trkpt>
      <trkpt lat="44.25898" lon="7.00631">
        <ele>2552.68</ele>
        <time>2018-05-11T10:30:38Z</time>
      </trkpt>
      <trkpt lat="44.2589" lon="7.00637">
        <ele>2550.03</ele>
        <time>2018-05-11T10:30:41Z</time>
      </trkpt>
      <trkpt lat="44.25892" lon="7.00635">
        <ele>2550.48</ele>
        <time>2018-05-11T10:31:15Z</time>
      </trkpt>
      <trkpt lat="44.25892" lon="7.00635">
        <ele>2550.22</ele>
        <time>2018-05-11T10:31:51Z</time>
      </trkpt>
      <trkpt lat="44.25904" lon="7.00645">
        <ele>2546.9</ele>
        <time>2018-05-11T10:31:55Z</time>
      </trkpt>
      <trkpt lat="44.25906" lon="7.00655">
        <ele>2543.2</ele>
        <time>2018-05-11T10:31:57Z</time>
      </trkpt>
      <trkpt lat="44.25911" lon="7.00669">
        <ele>2538.7</ele>
        <time>2018-05-11T10:31:59Z</time>
      </trkpt>
      <trkpt lat="44.25909" lon="7.00683">
        <ele>2534.11</ele>
        <time>2018-05-11T10:32:01Z</time>
      </trkpt>
      <trkpt lat="44.25905" lon="7.00688">
        <ele>2531.04</ele>
        <time>2018-05-11T10:32:05Z</time>
      </trkpt>
      <trkpt lat="44.25904" lon="7.00688">
        <ele>2530.8</ele>
        <time>2018-05-11T10:32:06Z</time>
      </trkpt>
      <trkpt lat="44.25889" lon="7.00695">
        <ele>2530.03</ele>
        <time>2018-05-11T10:32:15Z</time>
      </trkpt>
      <trkpt lat="44.25864" lon="7.00707">
        <ele>2525.84</ele>
        <time>2018-05-11T10:32:21Z</time>
      </trkpt>
      <trkpt lat="44.25846" lon="7.00717">
        <ele>2523.3</ele>
        <time>2018-05-11T10:32:31Z</time>
      </trkpt>
      <trkpt lat="44.2583" lon="7.0073">
        <ele>2521.59</ele>
        <time>2018-05-11T10:32:44Z</time>
      </trkpt>
      <trkpt lat="44.25797" lon="7.00746">
        <ele>2519.15</ele>
        <time>2018-05-11T10:33:00Z</time>
      </trkpt>
      <trkpt lat="44.25795" lon="7.00747">
        <ele>2518.75</ele>
        <time>2018-05-11T10:33:14Z</time>
      </trkpt>
      <trkpt lat="44.25789" lon="7.0075">
        <ele>2518.75</ele>
        <time>2018-05-11T10:33:31Z</time>
      </trkpt>
      <trkpt lat="44.2578" lon="7.00752">
        <ele>2519.4</ele>
        <time>2018-05-11T10:33:51Z</time>
      </trkpt>
      <trkpt lat="44.25773" lon="7.00755">
        <ele>2519.9</ele>
        <time>2018-05-11T10:34:09Z</time>
      </trkpt>
      <trkpt lat="44.25743" lon="7.00756">
        <ele>2518.02</ele>
        <time>2018-05-11T10:34:23Z</time>
      </trkpt>
      <trkpt lat="44.25734" lon="7.00757">
        <ele>2516.8</ele>
        <time>2018-05-11T10:34:25Z</time>
      </trkpt>
      <trkpt lat="44.25707" lon="7.00758">
        <ele>2513.2</ele>
        <time>2018-05-11T10:34:29Z</time>
      </trkpt>
      <trkpt lat="44.25686" lon="7.00763">
        <ele>2509.91</ele>
        <time>2018-05-11T10:34:33Z</time>
      </trkpt>
      <trkpt lat="44.25665" lon="7.00767">
        <ele>2506.49</ele>
        <time>2018-05-11T10:34:39Z</time>
      </trkpt>
      <trkpt lat="44.2566" lon="7.00767">
        <ele>2505.65</ele>
        <time>2018-05-11T10:34:40Z</time>
      </trkpt>
      <trkpt lat="44.2564" lon="7.00773">
        <ele>2502.29</ele>
        <time>2018-05-11T10:34:45Z</time>
      </trkpt>
      <trkpt lat="44.25639" lon="7.00777">
        <ele>2501.93</ele>
        <time>2018-05-11T10:34:54Z</time>
      </trkpt>
      <trkpt lat="44.25628" lon="7.00777">
        <ele>2502.49</ele>
        <time>2018-05-11T10:35:10Z</time>
      </trkpt>
      <trkpt lat="44.2562" lon="7.00775">
        <ele>2502.54</ele>
        <time>2018-05-11T10:35:30Z</time>
      </trkpt>
      <trkpt lat="44.25618" lon="7.00773">
        <ele>2502.79</ele>
        <time>2018-05-11T10:35:45Z</time>
      </trkpt>
      <trkpt lat="44.25608" lon="7.00771">
        <ele>2503.38</ele>
        <time>2018-05-11T10:36:00Z</time>
      </trkpt>
      <trkpt lat="44.256" lon="7.00768">
        <ele>2504.36</ele>
        <time>2018-05-11T10:36:11Z</time>
      </trkpt>
      <trkpt lat="44.25596" lon="7.00766">
        <ele>2504.13</ele>
        <time>2018-05-11T10:36:26Z</time>
      </trkpt>
      <trkpt lat="44.25594" lon="7.00767">
        <ele>2504.38</ele>
        <time>2018-05-11T10:36:28Z</time>
      </trkpt>
      <trkpt lat="44.25589" lon="7.0077">
        <ele>2504.06</ele>
        <time>2018-05-11T10:36:32Z</time>
      </trkpt>
      <trkpt lat="44.25558" lon="7.00798">
        <ele>2500.97</ele>
        <time>2018-05-11T10:36:41Z</time>
      </trkpt>
      <trkpt lat="44.25554" lon="7.00802">
        <ele>2500.21</ele>
        <time>2018-05-11T10:36:42Z</time>
      </trkpt>
      <trkpt lat="44.25531" lon="7.00813">
        <ele>2496.15</ele>
        <time>2018-05-11T10:36:47Z</time>
      </trkpt>
      <trkpt lat="44.25528" lon="7.00813">
        <ele>2495.68</ele>
        <time>2018-05-11T10:36:48Z</time>
      </trkpt>
      <trkpt lat="44.25525" lon="7.00813">
        <ele>2494.44</ele>
        <time>2018-05-11T10:37:00Z</time>
      </trkpt>
      <trkpt lat="44.25525" lon="7.00811">
        <ele>2494.76</ele>
        <time>2018-05-11T10:37:24Z</time>
      </trkpt>
      <trkpt lat="44.25515" lon="7.00817">
        <ele>2493.7</ele>
        <time>2018-05-11T10:37:30Z</time>
      </trkpt>
      <trkpt lat="44.25501" lon="7.00837">
        <ele>2489.54</ele>
        <time>2018-05-11T10:37:34Z</time>
      </trkpt>
      <trkpt lat="44.25494" lon="7.00851">
        <ele>2485.93</ele>
        <time>2018-05-11T10:37:36Z</time>
      </trkpt>
      <trkpt lat="44.25482" lon="7.00858">
        <ele>2482.27</ele>
        <time>2018-05-11T10:37:38Z</time>
      </trkpt>
      <trkpt lat="44.25471" lon="7.00868">
        <ele>2477.65</ele>
        <time>2018-05-11T10:37:40Z</time>
      </trkpt>
      <trkpt lat="44.25453" lon="7.00885">
        <ele>2469.55</ele>
        <time>2018-05-11T10:37:43Z</time>
      </trkpt>
      <trkpt lat="44.25443" lon="7.00897">
        <ele>2465.2</ele>
        <time>2018-05-11T10:37:45Z</time>
      </trkpt>
      <trkpt lat="44.25423" lon="7.00901">
        <ele>2459.43</ele>
        <time>2018-05-11T10:37:49Z</time>
      </trkpt>
      <trkpt lat="44.25406" lon="7.00901">
        <ele>2454.2</ele>
        <time>2018-05-11T10:37:53Z</time>
      </trkpt>
      <trkpt lat="44.25403" lon="7.00899">
        <ele>2452.95</ele>
        <time>2018-05-11T10:37:56Z</time>
      </trkpt>
      <trkpt lat="44.25404" lon="7.00899">
        <ele>2452.26</ele>
        <time>2018-05-11T10:38:15Z</time>
      </trkpt>
      <trkpt lat="44.25404" lon="7.00899">
        <ele>2452.34</ele>
        <time>2018-05-11T10:38:22Z</time>
      </trkpt>
      <trkpt lat="44.25402" lon="7.00899">
        <ele>2452.55</ele>
        <time>2018-05-11T10:38:24Z</time>
      </trkpt>
      <trkpt lat="44.25392" lon="7.009">
        <ele>2451.75</ele>
        <time>2018-05-11T10:38:29Z</time>
      </trkpt>
      <trkpt lat="44.25373" lon="7.00912">
        <ele>2447.1</ele>
        <time>2018-05-11T10:38:33Z</time>
      </trkpt>
      <trkpt lat="44.25361" lon="7.0092">
        <ele>2443.12</ele>
        <time>2018-05-11T10:38:35Z</time>
      </trkpt>
      <trkpt lat="44.25349" lon="7.00928">
        <ele>2439.32</ele>
        <time>2018-05-11T10:38:37Z</time>
      </trkpt>
      <trkpt lat="44.25338" lon="7.00934">
        <ele>2435.72</ele>
        <time>2018-05-11T10:38:39Z</time>
      </trkpt>
      <trkpt lat="44.25334" lon="7.00936">
        <ele>2434.31</ele>
        <time>2018-05-11T10:38:40Z</time>
      </trkpt>
      <trkpt lat="44.25323" lon="7.00939">
        <ele>2429.19</ele>
        <time>2018-05-11T10:38:49Z</time>
      </trkpt>
      <trkpt lat="44.25322" lon="7.00938">
        <ele>2429.02</ele>
        <time>2018-05-11T10:39:18Z</time>
      </trkpt>
      <trkpt lat="44.25317" lon="7.00942">
        <ele>2428.76</ele>
        <time>2018-05-11T10:39:21Z</time>
      </trkpt>
      <trkpt lat="44.25297" lon="7.00955">
        <ele>2424.48</ele>
        <time>2018-05-11T10:39:25Z</time>
      </trkpt>
      <trkpt lat="44.25287" lon="7.0097">
        <ele>2419.8</ele>
        <time>2018-05-11T10:39:27Z</time>
      </trkpt>
      <trkpt lat="44.25275" lon="7.00987">
        <ele>2413.09</ele>
        <time>2018-05-11T10:39:29Z</time>
      </trkpt>
      <trkpt lat="44.25262" lon="7.01004">
        <ele>2407.46</ele>
        <time>2018-05-11T10:39:31Z</time>
      </trkpt>
      <trkpt lat="44.25247" lon="7.01009">
        <ele>2402.55</ele>
        <time>2018-05-11T10:39:33Z</time>
      </trkpt>
      <trkpt lat="44.25238" lon="7.01016">
        <ele>2399.84</ele>
        <time>2018-05-11T10:39:35Z</time>
      </trkpt>
      <trkpt lat="44.25223" lon="7.01031">
        <ele>2395.66</ele>
        <time>2018-05-11T10:39:40Z</time>
      </trkpt>
      <trkpt lat="44.25222" lon="7.01033">
        <ele>2395.41</ele>
        <time>2018-05-11T10:39:41Z</time>
      </trkpt>
      <trkpt lat="44.2521" lon="7.01049">
        <ele>2393.5</ele>
        <time>2018-05-11T10:39:50Z</time>
      </trkpt>
      <trkpt lat="44.25192" lon="7.01064">
        <ele>2391.58</ele>
        <time>2018-05-11T10:40:01Z</time>
      </trkpt>
      <trkpt lat="44.2519" lon="7.01067">
        <ele>2391.17</ele>
        <time>2018-05-11T10:40:02Z</time>
      </trkpt>
      <trkpt lat="44.25177" lon="7.01084">
        <ele>2387.36</ele>
        <time>2018-05-11T10:40:06Z</time>
      </trkpt>
      <trkpt lat="44.25159" lon="7.01102">
        <ele>2383.05</ele>
        <time>2018-05-11T10:40:11Z</time>
      </trkpt>
      <trkpt lat="44.25156" lon="7.01106">
        <ele>2382.32</ele>
        <time>2018-05-11T10:40:13Z</time>
      </trkpt>
      <trkpt lat="44.25138" lon="7.01125">
        <ele>2379.91</ele>
        <time>2018-05-11T10:40:22Z</time>
      </trkpt>
      <trkpt lat="44.25136" lon="7.01129">
        <ele>2379.33</ele>
        <time>2018-05-11T10:40:23Z</time>
      </trkpt>
      <trkpt lat="44.25121" lon="7.01146">
        <ele>2376.56</ele>
        <time>2018-05-11T10:40:28Z</time>
      </trkpt>
      <trkpt lat="44.25101" lon="7.01161">
        <ele>2372.82</ele>
        <time>2018-05-11T10:40:36Z</time>
      </trkpt>
      <trkpt lat="44.251" lon="7.01162">
        <ele>2372.16</ele>
        <time>2018-05-11T10:40:51Z</time>
      </trkpt>
      <trkpt lat="44.25096" lon="7.01163">
        <ele>2371.86</ele>
        <time>2018-05-11T10:41:16Z</time>
      </trkpt>
      <trkpt lat="44.25092" lon="7.01163">
        <ele>2371.89</ele>
        <time>2018-05-11T10:41:20Z</time>
      </trkpt>
      <trkpt lat="44.25087" lon="7.01162">
        <ele>2371.63</ele>
        <time>2018-05-11T10:41:23Z</time>
      </trkpt>
      <trkpt lat="44.25077" lon="7.0117">
        <ele>2369.78</ele>
        <time>2018-05-11T10:41:26Z</time>
      </trkpt>
      <trkpt lat="44.25061" lon="7.01188">
        <ele>2365.62</ele>
        <time>2018-05-11T10:41:29Z</time>
      </trkpt>
      <trkpt lat="44.25055" lon="7.01193">
        <ele>2363.01</ele>
        <time>2018-05-11T10:41:30Z</time>
      </trkpt>
      <trkpt lat="44.25028" lon="7.01221">
        <ele>2353.67</ele>
        <time>2018-05-11T10:41:34Z</time>
      </trkpt>
      <trkpt lat="44.25022" lon="7.0123">
        <ele>2351.89</ele>
        <time>2018-05-11T10:41:35Z</time>
      </trkpt>
      <trkpt lat="44.25003" lon="7.01249">
        <ele>2346.31</ele>
        <time>2018-05-11T10:41:39Z</time>
      </trkpt>
      <trkpt lat="44.24986" lon="7.01262">
        <ele>2342.63</ele>
        <time>2018-05-11T10:41:43Z</time>
      </trkpt>
      <trkpt lat="44.24969" lon="7.01274">
        <ele>2339.3</ele>
        <time>2018-05-11T10:41:50Z</time>
      </trkpt>
      <trkpt lat="44.24947" lon="7.01284">
        <ele>2336.18</ele>
        <time>2018-05-11T10:42:00Z</time>
      </trkpt>
      <trkpt lat="44.24939" lon="7.01287">
        <ele>2333.97</ele>
        <time>2018-05-11T10:42:12Z</time>
      </trkpt>
      <trkpt lat="44.24939" lon="7.01287">
        <ele>2333.88</ele>
        <time>2018-05-11T10:42:16Z</time>
      </trkpt>
      <trkpt lat="44.24934" lon="7.01292">
        <ele>2333.34</ele>
        <time>2018-05-11T10:42:19Z</time>
      </trkpt>
      <trkpt lat="44.2492" lon="7.01311">
        <ele>2328.35</ele>
        <time>2018-05-11T10:42:23Z</time>
      </trkpt>
      <trkpt lat="44.24908" lon="7.01322">
        <ele>2324.43</ele>
        <time>2018-05-11T10:42:25Z</time>
      </trkpt>
      <trkpt lat="44.24903" lon="7.01324">
        <ele>2321.41</ele>
        <time>2018-05-11T10:42:26Z</time>
      </trkpt>
      <trkpt lat="44.24891" lon="7.01331">
        <ele>2317</ele>
        <time>2018-05-11T10:42:28Z</time>
      </trkpt>
      <trkpt lat="44.24885" lon="7.01332">
        <ele>2313.72</ele>
        <time>2018-05-11T10:42:29Z</time>
      </trkpt>
      <trkpt lat="44.24873" lon="7.01329">
        <ele>2309.58</ele>
        <time>2018-05-11T10:42:31Z</time>
      </trkpt>
      <trkpt lat="44.24867" lon="7.01328">
        <ele>2308.44</ele>
        <time>2018-05-11T10:42:32Z</time>
      </trkpt>
      <trkpt lat="44.24846" lon="7.01327">
        <ele>2304.85</ele>
        <time>2018-05-11T10:42:35Z</time>
      </trkpt>
      <trkpt lat="44.24818" lon="7.01338">
        <ele>2298.63</ele>
        <time>2018-05-11T10:42:39Z</time>
      </trkpt>
      <trkpt lat="44.24811" lon="7.01342">
        <ele>2296.38</ele>
        <time>2018-05-11T10:42:40Z</time>
      </trkpt>
      <trkpt lat="44.24784" lon="7.01357">
        <ele>2289.97</ele>
        <time>2018-05-11T10:42:45Z</time>
      </trkpt>
      <trkpt lat="44.2478" lon="7.01358">
        <ele>2288.03</ele>
        <time>2018-05-11T10:42:47Z</time>
      </trkpt>
      <trkpt lat="44.24778" lon="7.01358">
        <ele>2286.47</ele>
        <time>2018-05-11T10:43:04Z</time>
      </trkpt>
      <trkpt lat="44.24781" lon="7.01358">
        <ele>2286.85</ele>
        <time>2018-05-11T10:43:27Z</time>
      </trkpt>
      <trkpt lat="44.2478" lon="7.01358">
        <ele>2286.53</ele>
        <time>2018-05-11T10:43:51Z</time>
      </trkpt>
      <trkpt lat="44.24782" lon="7.01356">
        <ele>2286.35</ele>
        <time>2018-05-11T10:44:11Z</time>
      </trkpt>
      <trkpt lat="44.24783" lon="7.01355">
        <ele>2286.91</ele>
        <time>2018-05-11T10:44:30Z</time>
      </trkpt>
      <trkpt lat="44.24781" lon="7.01358">
        <ele>2286.8</ele>
        <time>2018-05-11T10:44:37Z</time>
      </trkpt>
      <trkpt lat="44.2478" lon="7.01388">
        <ele>2282.04</ele>
        <time>2018-05-11T10:44:43Z</time>
      </trkpt>
      <trkpt lat="44.24782" lon="7.01407">
        <ele>2276.25</ele>
        <time>2018-05-11T10:44:45Z</time>
      </trkpt>
      <trkpt lat="44.24781" lon="7.01416">
        <ele>2272.55</ele>
        <time>2018-05-11T10:44:46Z</time>
      </trkpt>
      <trkpt lat="44.2478" lon="7.01426">
        <ele>2268.47</ele>
        <time>2018-05-11T10:44:47Z</time>
      </trkpt>
      <trkpt lat="44.24781" lon="7.01437">
        <ele>2263.66</ele>
        <time>2018-05-11T10:44:48Z</time>
      </trkpt>
      <trkpt lat="44.2478" lon="7.01447">
        <ele>2260</ele>
        <time>2018-05-11T10:44:49Z</time>
      </trkpt>
      <trkpt lat="44.24776" lon="7.01455">
        <ele>2256.21</ele>
        <time>2018-05-11T10:44:50Z</time>
      </trkpt>
      <trkpt lat="44.24771" lon="7.0146">
        <ele>2253.11</ele>
        <time>2018-05-11T10:44:51Z</time>
      </trkpt>
      <trkpt lat="44.24758" lon="7.01474">
        <ele>2246.74</ele>
        <time>2018-05-11T10:44:54Z</time>
      </trkpt>
      <trkpt lat="44.2475" lon="7.01482">
        <ele>2242.97</ele>
        <time>2018-05-11T10:44:57Z</time>
      </trkpt>
      <trkpt lat="44.24742" lon="7.01491">
        <ele>2239.66</ele>
        <time>2018-05-11T10:45:02Z</time>
      </trkpt>
      <trkpt lat="44.2474" lon="7.01491">
        <ele>2238.41</ele>
        <time>2018-05-11T10:45:17Z</time>
      </trkpt>
      <trkpt lat="44.2474" lon="7.01489">
        <ele>2238.36</ele>
        <time>2018-05-11T10:45:56Z</time>
      </trkpt>
      <trkpt lat="44.24739" lon="7.0149">
        <ele>2238.51</ele>
        <time>2018-05-11T10:46:07Z</time>
      </trkpt>
      <trkpt lat="44.24739" lon="7.01508">
        <ele>2233.32</ele>
        <time>2018-05-11T10:46:10Z</time>
      </trkpt>
      <trkpt lat="44.24733" lon="7.01518">
        <ele>2229.18</ele>
        <time>2018-05-11T10:46:12Z</time>
      </trkpt>
      <trkpt lat="44.24726" lon="7.0153">
        <ele>2225.02</ele>
        <time>2018-05-11T10:46:15Z</time>
      </trkpt>
      <trkpt lat="44.2473" lon="7.01549">
        <ele>2218.84</ele>
        <time>2018-05-11T10:46:18Z</time>
      </trkpt>
      <trkpt lat="44.24731" lon="7.01561">
        <ele>2213.32</ele>
        <time>2018-05-11T10:46:20Z</time>
      </trkpt>
      <trkpt lat="44.24733" lon="7.01566">
        <ele>2210.63</ele>
        <time>2018-05-11T10:46:21Z</time>
      </trkpt>
      <trkpt lat="44.24733" lon="7.01585">
        <ele>2199.49</ele>
        <time>2018-05-11T10:46:25Z</time>
      </trkpt>
      <trkpt lat="44.24728" lon="7.01593">
        <ele>2196.31</ele>
        <time>2018-05-11T10:46:27Z</time>
      </trkpt>
      <trkpt lat="44.24725" lon="7.01595">
        <ele>2194.05</ele>
        <time>2018-05-11T10:46:31Z</time>
      </trkpt>
      <trkpt lat="44.24725" lon="7.01595">
        <ele>2193.32</ele>
        <time>2018-05-11T10:46:52Z</time>
      </trkpt>
      <trkpt lat="44.24725" lon="7.01595">
        <ele>2193.16</ele>
        <time>2018-05-11T10:47:00Z</time>
      </trkpt>
      <trkpt lat="44.24739" lon="7.01616">
        <ele>2188.22</ele>
        <time>2018-05-11T10:47:04Z</time>
      </trkpt>
      <trkpt lat="44.24748" lon="7.01632">
        <ele>2181.37</ele>
        <time>2018-05-11T10:47:06Z</time>
      </trkpt>
      <trkpt lat="44.24754" lon="7.01641">
        <ele>2177.18</ele>
        <time>2018-05-11T10:47:07Z</time>
      </trkpt>
      <trkpt lat="44.2476" lon="7.01649">
        <ele>2172.59</ele>
        <time>2018-05-11T10:47:08Z</time>
      </trkpt>
      <trkpt lat="44.24766" lon="7.01659">
        <ele>2166.46</ele>
        <time>2018-05-11T10:47:09Z</time>
      </trkpt>
      <trkpt lat="44.24773" lon="7.01668">
        <ele>2161.54</ele>
        <time>2018-05-11T10:47:10Z</time>
      </trkpt>
      <trkpt lat="44.2478" lon="7.01679">
        <ele>2156.81</ele>
        <time>2018-05-11T10:47:11Z</time>
      </trkpt>
      <trkpt lat="44.24785" lon="7.0169">
        <ele>2152.16</ele>
        <time>2018-05-11T10:47:12Z</time>
      </trkpt>
      <trkpt lat="44.24788" lon="7.01702">
        <ele>2147.95</ele>
        <time>2018-05-11T10:47:13Z</time>
      </trkpt>
      <trkpt lat="44.24796" lon="7.01741">
        <ele>2135.58</ele>
        <time>2018-05-11T10:47:16Z</time>
      </trkpt>
      <trkpt lat="44.24795" lon="7.01753">
        <ele>2131.35</ele>
        <time>2018-05-11T10:47:17Z</time>
      </trkpt>
      <trkpt lat="44.24792" lon="7.01764">
        <ele>2128</ele>
        <time>2018-05-11T10:47:18Z</time>
      </trkpt>
      <trkpt lat="44.2479" lon="7.01782">
        <ele>2123.14</ele>
        <time>2018-05-11T10:47:20Z</time>
      </trkpt>
      <trkpt lat="44.24784" lon="7.01787">
        <ele>2120.72</ele>
        <time>2018-05-11T10:47:27Z</time>
      </trkpt>
      <trkpt lat="44.24783" lon="7.01782">
        <ele>2120.47</ele>
        <time>2018-05-11T10:47:51Z</time>
      </trkpt>
      <trkpt lat="44.2478" lon="7.01783">
        <ele>2120.2</ele>
        <time>2018-05-11T10:48:23Z</time>
      </trkpt>
      <trkpt lat="44.24778" lon="7.01782">
        <ele>2120.8</ele>
        <time>2018-05-11T10:48:49Z</time>
      </trkpt>
      <trkpt lat="44.24777" lon="7.01784">
        <ele>2120.77</ele>
        <time>2018-05-11T10:48:54Z</time>
      </trkpt>
      <trkpt lat="44.24793" lon="7.01803">
        <ele>2116.67</ele>
        <time>2018-05-11T10:48:59Z</time>
      </trkpt>
      <trkpt lat="44.24807" lon="7.01815">
        <ele>2111.65</ele>
        <time>2018-05-11T10:49:01Z</time>
      </trkpt>
      <trkpt lat="44.24815" lon="7.01822">
        <ele>2108.46</ele>
        <time>2018-05-11T10:49:02Z</time>
      </trkpt>
      <trkpt lat="44.24823" lon="7.01832">
        <ele>2105.19</ele>
        <time>2018-05-11T10:49:03Z</time>
      </trkpt>
      <trkpt lat="44.24827" lon="7.01843">
        <ele>2100.95</ele>
        <time>2018-05-11T10:49:04Z</time>
      </trkpt>
      <trkpt lat="44.24828" lon="7.01853">
        <ele>2097.15</ele>
        <time>2018-05-11T10:49:05Z</time>
      </trkpt>
      <trkpt lat="44.24828" lon="7.01859">
        <ele>2094.26</ele>
        <time>2018-05-11T10:49:06Z</time>
      </trkpt>
      <trkpt lat="44.24827" lon="7.01867">
        <ele>2090.73</ele>
        <time>2018-05-11T10:49:08Z</time>
      </trkpt>
      <trkpt lat="44.24833" lon="7.01873">
        <ele>2087.74</ele>
        <time>2018-05-11T10:49:10Z</time>
      </trkpt>
      <trkpt lat="44.24835" lon="7.01881">
        <ele>2081.81</ele>
        <time>2018-05-11T10:49:13Z</time>
      </trkpt>
      <trkpt lat="44.24836" lon="7.01879">
        <ele>2079.75</ele>
        <time>2018-05-11T10:49:26Z</time>
      </trkpt>
      <trkpt lat="44.2484" lon="7.01883">
        <ele>2079.48</ele>
        <time>2018-05-11T10:49:29Z</time>
      </trkpt>
      <trkpt lat="44.2486" lon="7.01898">
        <ele>2074.34</ele>
        <time>2018-05-11T10:49:32Z</time>
      </trkpt>
      <trkpt lat="44.24877" lon="7.01918">
        <ele>2066.55</ele>
        <time>2018-05-11T10:49:34Z</time>
      </trkpt>
      <trkpt lat="44.24881" lon="7.01932">
        <ele>2061.48</ele>
        <time>2018-05-11T10:49:35Z</time>
      </trkpt>
      <trkpt lat="44.2488" lon="7.01946">
        <ele>2056.22</ele>
        <time>2018-05-11T10:49:36Z</time>
      </trkpt>
      <trkpt lat="44.24884" lon="7.0198">
        <ele>2043.85</ele>
        <time>2018-05-11T10:49:40Z</time>
      </trkpt>
      <trkpt lat="44.24881" lon="7.01989">
        <ele>2039.85</ele>
        <time>2018-05-11T10:49:42Z</time>
      </trkpt>
      <trkpt lat="44.24874" lon="7.01995">
        <ele>2036.77</ele>
        <time>2018-05-11T10:49:47Z</time>
      </trkpt>
      <trkpt lat="44.24871" lon="7.01991">
        <ele>2035.91</ele>
        <time>2018-05-11T10:50:08Z</time>
      </trkpt>
      <trkpt lat="44.24867" lon="7.0199">
        <ele>2036.69</ele>
        <time>2018-05-11T10:50:39Z</time>
      </trkpt>
      <trkpt lat="44.24865" lon="7.01989">
        <ele>2036.05</ele>
        <time>2018-05-11T10:51:06Z</time>
      </trkpt>
      <trkpt lat="44.24865" lon="7.01991">
        <ele>2036.27</ele>
        <time>2018-05-11T10:51:29Z</time>
      </trkpt>
      <trkpt lat="44.24861" lon="7.01988">
        <ele>2036.3</ele>
        <time>2018-05-11T10:52:00Z</time>
      </trkpt>
      <trkpt lat="44.2486" lon="7.01989">
        <ele>2036.21</ele>
        <time>2018-05-11T10:52:32Z</time>
      </trkpt>
      <trkpt lat="44.24858" lon="7.01993">
        <ele>2036.37</ele>
        <time>2018-05-11T10:52:55Z</time>
      </trkpt>
      <trkpt lat="44.24854" lon="7.02004">
        <ele>2034.46</ele>
        <time>2018-05-11T10:53:08Z</time>
      </trkpt>
      <trkpt lat="44.24853" lon="7.02004">
        <ele>2034.31</ele>
        <time>2018-05-11T10:53:37Z</time>
      </trkpt>
      <trkpt lat="44.24853" lon="7.02009">
        <ele>2034.13</ele>
        <time>2018-05-11T10:53:42Z</time>
      </trkpt>
      <trkpt lat="44.24855" lon="7.02026">
        <ele>2032.22</ele>
        <time>2018-05-11T10:53:46Z</time>
      </trkpt>
      <trkpt lat="44.24865" lon="7.02044">
        <ele>2027.78</ele>
        <time>2018-05-11T10:53:48Z</time>
      </trkpt>
      <trkpt lat="44.2487" lon="7.02069">
        <ele>2020.31</ele>
        <time>2018-05-11T10:53:50Z</time>
      </trkpt>
      <trkpt lat="44.24869" lon="7.0208">
        <ele>2016.94</ele>
        <time>2018-05-11T10:53:51Z</time>
      </trkpt>
      <trkpt lat="44.24867" lon="7.02091">
        <ele>2014.35</ele>
        <time>2018-05-11T10:53:52Z</time>
      </trkpt>
      <trkpt lat="44.24866" lon="7.02121">
        <ele>2008.25</ele>
        <time>2018-05-11T10:53:55Z</time>
      </trkpt>
      <trkpt lat="44.24874" lon="7.02152">
        <ele>2002.05</ele>
        <time>2018-05-11T10:53:59Z</time>
      </trkpt>
      <trkpt lat="44.24875" lon="7.02159">
        <ele>2000.78</ele>
        <time>2018-05-11T10:54:00Z</time>
      </trkpt>
      <trkpt lat="44.24882" lon="7.02182">
        <ele>1997.38</ele>
        <time>2018-05-11T10:54:04Z</time>
      </trkpt>
      <trkpt lat="44.24891" lon="7.02197">
        <ele>1995.2</ele>
        <time>2018-05-11T10:54:08Z</time>
      </trkpt>
      <trkpt lat="44.24896" lon="7.02204">
        <ele>1994.56</ele>
        <time>2018-05-11T10:54:11Z</time>
      </trkpt>
      <trkpt lat="44.24904" lon="7.02234">
        <ele>1992.64</ele>
        <time>2018-05-11T10:54:20Z</time>
      </trkpt>
      <trkpt lat="44.24909" lon="7.02272">
        <ele>1989.82</ele>
        <time>2018-05-11T10:54:31Z</time>
      </trkpt>
      <trkpt lat="44.24909" lon="7.02278">
        <ele>1989.26</ele>
        <time>2018-05-11T10:54:33Z</time>
      </trkpt>
      <trkpt lat="44.24915" lon="7.02303">
        <ele>1986.08</ele>
        <time>2018-05-11T10:54:37Z</time>
      </trkpt>
      <trkpt lat="44.24922" lon="7.0232">
        <ele>1983.44</ele>
        <time>2018-05-11T10:54:39Z</time>
      </trkpt>
      <trkpt lat="44.24936" lon="7.02344">
        <ele>1978.59</ele>
        <time>2018-05-11T10:54:42Z</time>
      </trkpt>
      <trkpt lat="44.24946" lon="7.02356">
        <ele>1976.24</ele>
        <time>2018-05-11T10:54:44Z</time>
      </trkpt>
      <trkpt lat="44.24963" lon="7.02369">
        <ele>1973.2</ele>
        <time>2018-05-11T10:54:48Z</time>
      </trkpt>
      <trkpt lat="44.24989" lon="7.02394">
        <ele>1969.84</ele>
        <time>2018-05-11T10:54:59Z</time>
      </trkpt>
      <trkpt lat="44.24994" lon="7.02399">
        <ele>1969.1</ele>
        <time>2018-05-11T10:55:01Z</time>
      </trkpt>
      <trkpt lat="44.25022" lon="7.0243">
        <ele>1965.48</ele>
        <time>2018-05-11T10:55:10Z</time>
      </trkpt>
      <trkpt lat="44.25037" lon="7.02451">
        <ele>1962.27</ele>
        <time>2018-05-11T10:55:17Z</time>
      </trkpt>
      <trkpt lat="44.25045" lon="7.02465">
        <ele>1960.89</ele>
        <time>2018-05-11T10:55:24Z</time>
      </trkpt>
      <trkpt lat="44.25054" lon="7.0248">
        <ele>1959.17</ele>
        <time>2018-05-11T10:55:30Z</time>
      </trkpt>
      <trkpt lat="44.25067" lon="7.02513">
        <ele>1955.86</ele>
        <time>2018-05-11T10:55:40Z</time>
      </trkpt>
      <trkpt lat="44.25077" lon="7.02541">
        <ele>1952.44</ele>
        <time>2018-05-11T10:55:47Z</time>
      </trkpt>
      <trkpt lat="44.25086" lon="7.0257">
        <ele>1949.28</ele>
        <time>2018-05-11T10:55:54Z</time>
      </trkpt>
      <trkpt lat="44.25093" lon="7.02596">
        <ele>1946.16</ele>
        <time>2018-05-11T10:56:01Z</time>
      </trkpt>
      <trkpt lat="44.251" lon="7.02625">
        <ele>1942.82</ele>
        <time>2018-05-11T10:56:09Z</time>
      </trkpt>
      <trkpt lat="44.25105" lon="7.02638">
        <ele>1940.66</ele>
        <time>2018-05-11T10:56:19Z</time>
      </trkpt>
      <trkpt lat="44.25106" lon="7.02638">
        <ele>1940.79</ele>
        <time>2018-05-11T10:56:25Z</time>
      </trkpt>
      <trkpt lat="44.25116" lon="7.02651">
        <ele>1938.98</ele>
        <time>2018-05-11T10:56:30Z</time>
      </trkpt>
      <trkpt lat="44.25125" lon="7.0265">
        <ele>1937.28</ele>
        <time>2018-05-11T10:56:32Z</time>
      </trkpt>
      <trkpt lat="44.25146" lon="7.02649">
        <ele>1931.04</ele>
        <time>2018-05-11T10:56:35Z</time>
      </trkpt>
      <trkpt lat="44.25162" lon="7.02655">
        <ele>1925.36</ele>
        <time>2018-05-11T10:56:37Z</time>
      </trkpt>
      <trkpt lat="44.25175" lon="7.02665">
        <ele>1919.42</ele>
        <time>2018-05-11T10:56:39Z</time>
      </trkpt>
      <trkpt lat="44.25188" lon="7.02674">
        <ele>1915.63</ele>
        <time>2018-05-11T10:56:41Z</time>
      </trkpt>
      <trkpt lat="44.25205" lon="7.02692">
        <ele>1910.38</ele>
        <time>2018-05-11T10:56:45Z</time>
      </trkpt>
      <trkpt lat="44.25221" lon="7.02714">
        <ele>1906.08</ele>
        <time>2018-05-11T10:56:49Z</time>
      </trkpt>
      <trkpt lat="44.2523" lon="7.0273">
        <ele>1903.18</ele>
        <time>2018-05-11T10:56:52Z</time>
      </trkpt>
      <trkpt lat="44.25233" lon="7.02735">
        <ele>1901.85</ele>
        <time>2018-05-11T10:56:54Z</time>
      </trkpt>
      <trkpt lat="44.2523" lon="7.02734">
        <ele>1902.35</ele>
        <time>2018-05-11T10:57:26Z</time>
      </trkpt>
      <trkpt lat="44.25233" lon="7.02744">
        <ele>1901.26</ele>
        <time>2018-05-11T10:58:11Z</time>
      </trkpt>
      <trkpt lat="44.25234" lon="7.02752">
        <ele>1901.2</ele>
        <time>2018-05-11T10:58:15Z</time>
      </trkpt>
      <trkpt lat="44.25237" lon="7.02776">
        <ele>1899.57</ele>
        <time>2018-05-11T10:58:27Z</time>
      </trkpt>
      <trkpt lat="44.25243" lon="7.02811">
        <ele>1896.54</ele>
        <time>2018-05-11T10:58:39Z</time>
      </trkpt>
      <trkpt lat="44.25248" lon="7.02832">
        <ele>1893.39</ele>
        <time>2018-05-11T10:58:44Z</time>
      </trkpt>
      <trkpt lat="44.25251" lon="7.02846">
        <ele>1891.45</ele>
        <time>2018-05-11T10:58:47Z</time>
      </trkpt>
      <trkpt lat="44.25254" lon="7.02857">
        <ele>1889.88</ele>
        <time>2018-05-11T10:58:49Z</time>
      </trkpt>
      <trkpt lat="44.25262" lon="7.02886">
        <ele>1885.69</ele>
        <time>2018-05-11T10:58:53Z</time>
      </trkpt>
      <trkpt lat="44.25264" lon="7.02891">
        <ele>1884.93</ele>
        <time>2018-05-11T10:58:54Z</time>
      </trkpt>
      <trkpt lat="44.25271" lon="7.02924">
        <ele>1880.99</ele>
        <time>2018-05-11T10:59:00Z</time>
      </trkpt>
      <trkpt lat="44.25279" lon="7.0295">
        <ele>1877.96</ele>
        <time>2018-05-11T10:59:10Z</time>
      </trkpt>
      <trkpt lat="44.2529" lon="7.02973">
        <ele>1875.5</ele>
        <time>2018-05-11T10:59:22Z</time>
      </trkpt>
      <trkpt lat="44.253" lon="7.02996">
        <ele>1872.41</ele>
        <time>2018-05-11T10:59:26Z</time>
      </trkpt>
      <trkpt lat="44.25307" lon="7.03012">
        <ele>1869.36</ele>
        <time>2018-05-11T10:59:29Z</time>
      </trkpt>
      <trkpt lat="44.25316" lon="7.03029">
        <ele>1866.05</ele>
        <time>2018-05-11T10:59:34Z</time>
      </trkpt>
      <trkpt lat="44.25329" lon="7.03052">
        <ele>1862.76</ele>
        <time>2018-05-11T10:59:44Z</time>
      </trkpt>
      <trkpt lat="44.25344" lon="7.03078">
        <ele>1859.34</ele>
        <time>2018-05-11T10:59:57Z</time>
      </trkpt>
      <trkpt lat="44.25347" lon="7.03083">
        <ele>1858.32</ele>
        <time>2018-05-11T10:59:58Z</time>
      </trkpt>
      <trkpt lat="44.25357" lon="7.03104">
        <ele>1854.19</ele>
        <time>2018-05-11T11:00:04Z</time>
      </trkpt>
      <trkpt lat="44.25367" lon="7.03126">
        <ele>1850.82</ele>
        <time>2018-05-11T11:00:11Z</time>
      </trkpt>
      <trkpt lat="44.25371" lon="7.03133">
        <ele>1849.62</ele>
        <time>2018-05-11T11:00:23Z</time>
      </trkpt>
      <trkpt lat="44.25381" lon="7.03146">
        <ele>1847.11</ele>
        <time>2018-05-11T11:01:02Z</time>
      </trkpt>
      <trkpt lat="44.25394" lon="7.03168">
        <ele>1842.88</ele>
        <time>2018-05-11T11:01:05Z</time>
      </trkpt>
      <trkpt lat="44.25405" lon="7.03199">
        <ele>1838.22</ele>
        <time>2018-05-11T11:01:09Z</time>
      </trkpt>
      <trkpt lat="44.25414" lon="7.03234">
        <ele>1833.58</ele>
        <time>2018-05-11T11:01:15Z</time>
      </trkpt>
      <trkpt lat="44.25415" lon="7.03238">
        <ele>1832.7</ele>
        <time>2018-05-11T11:01:16Z</time>
      </trkpt>
      <trkpt lat="44.25416" lon="7.03244">
        <ele>1832</ele>
        <time>2018-05-11T11:01:18Z</time>
      </trkpt>
      <trkpt lat="44.25415" lon="7.03248">
        <ele>1831.74</ele>
        <time>2018-05-11T11:01:20Z</time>
      </trkpt>
      <trkpt lat="44.25413" lon="7.03253">
        <ele>1831.46</ele>
        <time>2018-05-11T11:01:24Z</time>
      </trkpt>
      <trkpt lat="44.25414" lon="7.03272">
        <ele>1831.19</ele>
        <time>2018-05-11T11:01:39Z</time>
      </trkpt>
      <trkpt lat="44.25417" lon="7.03281">
        <ele>1830.92</ele>
        <time>2018-05-11T11:01:59Z</time>
      </trkpt>
      <trkpt lat="44.25417" lon="7.03283">
        <ele>1830.94</ele>
        <time>2018-05-11T11:02:03Z</time>
      </trkpt>
      <trkpt lat="44.25434" lon="7.03292">
        <ele>1826.12</ele>
        <time>2018-05-11T11:02:09Z</time>
      </trkpt>
      <trkpt lat="44.2544" lon="7.03304">
        <ele>1822.24</ele>
        <time>2018-05-11T11:02:11Z</time>
      </trkpt>
      <trkpt lat="44.25452" lon="7.03326">
        <ele>1817.53</ele>
        <time>2018-05-11T11:02:17Z</time>
      </trkpt>
      <trkpt lat="44.25451" lon="7.03329">
        <ele>1817.44</ele>
        <time>2018-05-11T11:02:29Z</time>
      </trkpt>
      <trkpt lat="44.25454" lon="7.03327">
        <ele>1817.44</ele>
        <time>2018-05-11T11:02:46Z</time>
      </trkpt>
      <trkpt lat="44.25468" lon="7.03321">
        <ele>1813.66</ele>
        <time>2018-05-11T11:02:51Z</time>
      </trkpt>
      <trkpt lat="44.25475" lon="7.03319">
        <ele>1810.51</ele>
        <time>2018-05-11T11:02:53Z</time>
      </trkpt>
      <trkpt lat="44.25483" lon="7.03315">
        <ele>1807.24</ele>
        <time>2018-05-11T11:02:55Z</time>
      </trkpt>
      <trkpt lat="44.2549" lon="7.03322">
        <ele>1804.15</ele>
        <time>2018-05-11T11:02:57Z</time>
      </trkpt>
      <trkpt lat="44.25493" lon="7.03326">
        <ele>1803.03</ele>
        <time>2018-05-11T11:02:58Z</time>
      </trkpt>
      <trkpt lat="44.25502" lon="7.03336">
        <ele>1800.9</ele>
        <time>2018-05-11T11:03:01Z</time>
      </trkpt>
      <trkpt lat="44.25526" lon="7.03353">
        <ele>1796.46</ele>
        <time>2018-05-11T11:03:06Z</time>
      </trkpt>
      <trkpt lat="44.25537" lon="7.03361">
        <ele>1793.61</ele>
        <time>2018-05-11T11:03:08Z</time>
      </trkpt>
      <trkpt lat="44.25552" lon="7.03384">
        <ele>1789.04</ele>
        <time>2018-05-11T11:03:12Z</time>
      </trkpt>
      <trkpt lat="44.25566" lon="7.0341">
        <ele>1785.27</ele>
        <time>2018-05-11T11:03:18Z</time>
      </trkpt>
      <trkpt lat="44.25574" lon="7.03428">
        <ele>1782</ele>
        <time>2018-05-11T11:03:24Z</time>
      </trkpt>
      <trkpt lat="44.25575" lon="7.03437">
        <ele>1781.11</ele>
        <time>2018-05-11T11:03:35Z</time>
      </trkpt>
      <trkpt lat="44.25575" lon="7.03435">
        <ele>1781.09</ele>
        <time>2018-05-11T11:04:10Z</time>
      </trkpt>
      <trkpt lat="44.25576" lon="7.03436">
        <ele>1780.74</ele>
        <time>2018-05-11T11:04:27Z</time>
      </trkpt>
      <trkpt lat="44.25592" lon="7.03426">
        <ele>1775.06</ele>
        <time>2018-05-11T11:04:31Z</time>
      </trkpt>
      <trkpt lat="44.25605" lon="7.03425">
        <ele>1770.81</ele>
        <time>2018-05-11T11:04:33Z</time>
      </trkpt>
      <trkpt lat="44.25617" lon="7.0343">
        <ele>1766.09</ele>
        <time>2018-05-11T11:04:35Z</time>
      </trkpt>
      <trkpt lat="44.25622" lon="7.0344">
        <ele>1761.36</ele>
        <time>2018-05-11T11:04:37Z</time>
      </trkpt>
      <trkpt lat="44.25622" lon="7.0345">
        <ele>1758.8</ele>
        <time>2018-05-11T11:04:45Z</time>
      </trkpt>
      <trkpt lat="44.25619" lon="7.03459">
        <ele>1759.3</ele>
        <time>2018-05-11T11:05:03Z</time>
      </trkpt>
      <trkpt lat="44.25619" lon="7.03464">
        <ele>1760.02</ele>
        <time>2018-05-11T11:05:24Z</time>
      </trkpt>
      <trkpt lat="44.25617" lon="7.03475">
        <ele>1760.4</ele>
        <time>2018-05-11T11:05:42Z</time>
      </trkpt>
      <trkpt lat="44.2562" lon="7.03483">
        <ele>1759.76</ele>
        <time>2018-05-11T11:05:59Z</time>
      </trkpt>
      <trkpt lat="44.25619" lon="7.03491">
        <ele>1760.23</ele>
        <time>2018-05-11T11:06:24Z</time>
      </trkpt>
      <trkpt lat="44.25616" lon="7.03495">
        <ele>1761.2</ele>
        <time>2018-05-11T11:06:42Z</time>
      </trkpt>
      <trkpt lat="44.25613" lon="7.03498">
        <ele>1761.24</ele>
        <time>2018-05-11T11:07:11Z</time>
      </trkpt>
      <trkpt lat="44.25611" lon="7.03498">
        <ele>1761.16</ele>
        <time>2018-05-11T11:07:40Z</time>
      </trkpt>
      <trkpt lat="44.25618" lon="7.03503">
        <ele>1760.1</ele>
        <time>2018-05-11T11:08:07Z</time>
      </trkpt>
      <trkpt lat="44.25624" lon="7.03513">
        <ele>1759.75</ele>
        <time>2018-05-11T11:08:11Z</time>
      </trkpt>
      <trkpt lat="44.25626" lon="7.03522">
        <ele>1758.36</ele>
        <time>2018-05-11T11:08:14Z</time>
      </trkpt>
      <trkpt lat="44.25629" lon="7.03543">
        <ele>1755.67</ele>
        <time>2018-05-11T11:08:23Z</time>
      </trkpt>
      <trkpt lat="44.25631" lon="7.03546">
        <ele>1755.4</ele>
        <time>2018-05-11T11:08:39Z</time>
      </trkpt>
      <trkpt lat="44.25637" lon="7.03567">
        <ele>1753.47</ele>
        <time>2018-05-11T11:08:44Z</time>
      </trkpt>
      <trkpt lat="44.25639" lon="7.03581">
        <ele>1750.73</ele>
        <time>2018-05-11T11:08:52Z</time>
      </trkpt>
      <trkpt lat="44.25634" lon="7.03587">
        <ele>1751.33</ele>
        <time>2018-05-11T11:09:08Z</time>
      </trkpt>
      <trkpt lat="44.25629" lon="7.03594">
        <ele>1752.01</ele>
        <time>2018-05-11T11:09:24Z</time>
      </trkpt>
      <trkpt lat="44.25629" lon="7.03594">
        <ele>1752.38</ele>
        <time>2018-05-11T11:09:54Z</time>
      </trkpt>
      <trkpt lat="44.25632" lon="7.03607">
        <ele>1751.23</ele>
        <time>2018-05-11T11:10:19Z</time>
      </trkpt>
      <trkpt lat="44.25635" lon="7.03611">
        <ele>1750.43</ele>
        <time>2018-05-11T11:10:20Z</time>
      </trkpt>
      <trkpt lat="44.25644" lon="7.03625">
        <ele>1745.3</ele>
        <time>2018-05-11T11:10:23Z</time>
      </trkpt>
      <trkpt lat="44.25647" lon="7.03624">
        <ele>1743.02</ele>
        <time>2018-05-11T11:10:27Z</time>
      </trkpt>
      <trkpt lat="44.25649" lon="7.03626">
        <ele>1742.73</ele>
        <time>2018-05-11T11:10:54Z</time>
      </trkpt>
      <trkpt lat="44.2565" lon="7.03626">
        <ele>1742.7</ele>
        <time>2018-05-11T11:10:55Z</time>
      </trkpt>
      <trkpt lat="44.25656" lon="7.03627">
        <ele>1742.73</ele>
        <time>2018-05-11T11:11:05Z</time>
      </trkpt>
      <trkpt lat="44.25659" lon="7.03634">
        <ele>1742.28</ele>
        <time>2018-05-11T11:11:08Z</time>
      </trkpt>
      <trkpt lat="44.2567" lon="7.03654">
        <ele>1737.37</ele>
        <time>2018-05-11T11:11:12Z</time>
      </trkpt>
      <trkpt lat="44.25671" lon="7.0366">
        <ele>1735.1</ele>
        <time>2018-05-11T11:11:13Z</time>
      </trkpt>
      <trkpt lat="44.25673" lon="7.03693">
        <ele>1730.7</ele>
        <time>2018-05-11T11:11:20Z</time>
      </trkpt>
      <trkpt lat="44.25687" lon="7.03711">
        <ele>1726.51</ele>
        <time>2018-05-11T11:11:25Z</time>
      </trkpt>
      <trkpt lat="44.25688" lon="7.03719">
        <ele>1723.79</ele>
        <time>2018-05-11T11:11:31Z</time>
      </trkpt>
      <trkpt lat="44.25692" lon="7.0372">
        <ele>1724.31</ele>
        <time>2018-05-11T11:11:51Z</time>
      </trkpt>
      <trkpt lat="44.2569" lon="7.03729">
        <ele>1724.71</ele>
        <time>2018-05-11T11:12:13Z</time>
      </trkpt>
      <trkpt lat="44.25696" lon="7.03729">
        <ele>1723.23</ele>
        <time>2018-05-11T11:12:21Z</time>
      </trkpt>
      <trkpt lat="44.2569" lon="7.0373">
        <ele>1722.66</ele>
        <time>2018-05-11T11:12:46Z</time>
      </trkpt>
      <trkpt lat="44.25695" lon="7.03734">
        <ele>1723.11</ele>
        <time>2018-05-11T11:12:54Z</time>
      </trkpt>
      <trkpt lat="44.25699" lon="7.03739">
        <ele>1721.99</ele>
        <time>2018-05-11T11:13:05Z</time>
      </trkpt>
      <trkpt lat="44.25706" lon="7.03748">
        <ele>1720.75</ele>
        <time>2018-05-11T11:13:26Z</time>
      </trkpt>
      <trkpt lat="44.25707" lon="7.03751">
        <ele>1721.16</ele>
        <time>2018-05-11T11:13:51Z</time>
      </trkpt>
      <trkpt lat="44.25711" lon="7.03747">
        <ele>1721.3</ele>
        <time>2018-05-11T11:14:09Z</time>
      </trkpt>
      <trkpt lat="44.25713" lon="7.03742">
        <ele>1721.01</ele>
        <time>2018-05-11T11:14:39Z</time>
      </trkpt>
      <trkpt lat="44.25712" lon="7.03743">
        <ele>1720.93</ele>
        <time>2018-05-11T11:15:00Z</time>
      </trkpt>
      <trkpt lat="44.25709" lon="7.03744">
        <ele>1720.91</ele>
        <time>2018-05-11T11:15:09Z</time>
      </trkpt>
      <trkpt lat="44.25707" lon="7.0375">
        <ele>1721.01</ele>
        <time>2018-05-11T11:15:26Z</time>
      </trkpt>
      <trkpt lat="44.25721" lon="7.03764">
        <ele>1718.48</ele>
        <time>2018-05-11T11:15:31Z</time>
      </trkpt>
      <trkpt lat="44.25728" lon="7.03776">
        <ele>1716.22</ele>
        <time>2018-05-11T11:15:33Z</time>
      </trkpt>
      <trkpt lat="44.25737" lon="7.03798">
        <ele>1713.12</ele>
        <time>2018-05-11T11:15:37Z</time>
      </trkpt>
      <trkpt lat="44.25744" lon="7.03817">
        <ele>1710.74</ele>
        <time>2018-05-11T11:15:40Z</time>
      </trkpt>
      <trkpt lat="44.25756" lon="7.0384">
        <ele>1706.61</ele>
        <time>2018-05-11T11:15:44Z</time>
      </trkpt>
      <trkpt lat="44.2576" lon="7.03853">
        <ele>1703.5</ele>
        <time>2018-05-11T11:15:48Z</time>
      </trkpt>
      <trkpt lat="44.25758" lon="7.03851">
        <ele>1702.2</ele>
        <time>2018-05-11T11:16:01Z</time>
      </trkpt>
      <trkpt lat="44.2576" lon="7.03849">
        <ele>1703.31</ele>
        <time>2018-05-11T11:16:34Z</time>
      </trkpt>
      <trkpt lat="44.25765" lon="7.03847">
        <ele>1703.35</ele>
        <time>2018-05-11T11:17:01Z</time>
      </trkpt>
      <trkpt lat="44.25778" lon="7.03841">
        <ele>1703.38</ele>
        <time>2018-05-11T11:17:11Z</time>
      </trkpt>
      <trkpt lat="44.25779" lon="7.03843">
        <ele>1702.13</ele>
        <time>2018-05-11T11:17:34Z</time>
      </trkpt>
      <trkpt lat="44.25776" lon="7.03858">
        <ele>1700.95</ele>
        <time>2018-05-11T11:17:58Z</time>
      </trkpt>
      <trkpt lat="44.25775" lon="7.03869">
        <ele>1700.15</ele>
        <time>2018-05-11T11:18:07Z</time>
      </trkpt>
      <trkpt lat="44.25777" lon="7.0388">
        <ele>1699.25</ele>
        <time>2018-05-11T11:18:27Z</time>
      </trkpt>
      <trkpt lat="44.25777" lon="7.03896">
        <ele>1697.75</ele>
        <time>2018-05-11T11:18:40Z</time>
      </trkpt>
      <trkpt lat="44.2578" lon="7.03907">
        <ele>1697.96</ele>
        <time>2018-05-11T11:18:55Z</time>
      </trkpt>
      <trkpt lat="44.2578" lon="7.03915">
        <ele>1697.15</ele>
        <time>2018-05-11T11:19:07Z</time>
      </trkpt>
      <trkpt lat="44.25777" lon="7.0392">
        <ele>1696.8</ele>
        <time>2018-05-11T11:19:12Z</time>
      </trkpt>
      <trkpt lat="44.25779" lon="7.03933">
        <ele>1696.22</ele>
        <time>2018-05-11T11:19:32Z</time>
      </trkpt>
      <trkpt lat="44.25777" lon="7.0393">
        <ele>1696.02</ele>
        <time>2018-05-11T11:20:00Z</time>
      </trkpt>
      <trkpt lat="44.25784" lon="7.03953">
        <ele>1694.02</ele>
        <time>2018-05-11T11:20:05Z</time>
      </trkpt>
      <trkpt lat="44.25792" lon="7.03973">
        <ele>1691.23</ele>
        <time>2018-05-11T11:20:09Z</time>
      </trkpt>
      <trkpt lat="44.25797" lon="7.0399">
        <ele>1689.14</ele>
        <time>2018-05-11T11:20:12Z</time>
      </trkpt>
      <trkpt lat="44.2581" lon="7.04019">
        <ele>1684.85</ele>
        <time>2018-05-11T11:20:18Z</time>
      </trkpt>
      <trkpt lat="44.25819" lon="7.04041">
        <ele>1681.59</ele>
        <time>2018-05-11T11:20:23Z</time>
      </trkpt>
      <trkpt lat="44.25822" lon="7.04062">
        <ele>1678.01</ele>
        <time>2018-05-11T11:20:29Z</time>
      </trkpt>
      <trkpt lat="44.25822" lon="7.04063">
        <ele>1677.2</ele>
        <time>2018-05-11T11:20:31Z</time>
      </trkpt>
      <trkpt lat="44.25823" lon="7.0408">
        <ele>1675.89</ele>
        <time>2018-05-11T11:20:45Z</time>
      </trkpt>
      <trkpt lat="44.25825" lon="7.0411">
        <ele>1672.55</ele>
        <time>2018-05-11T11:20:52Z</time>
      </trkpt>
      <trkpt lat="44.25833" lon="7.04136">
        <ele>1669.46</ele>
        <time>2018-05-11T11:20:58Z</time>
      </trkpt>
      <trkpt lat="44.2584" lon="7.04151">
        <ele>1666.57</ele>
        <time>2018-05-11T11:21:03Z</time>
      </trkpt>
      <trkpt lat="44.25841" lon="7.0415">
        <ele>1665.88</ele>
        <time>2018-05-11T11:21:19Z</time>
      </trkpt>
      <trkpt lat="44.25838" lon="7.04152">
        <ele>1665.34</ele>
        <time>2018-05-11T11:21:45Z</time>
      </trkpt>
      <trkpt lat="44.2584" lon="7.04151">
        <ele>1665.61</ele>
        <time>2018-05-11T11:22:06Z</time>
      </trkpt>
      <trkpt lat="44.25839" lon="7.04154">
        <ele>1665.8</ele>
        <time>2018-05-11T11:22:28Z</time>
      </trkpt>
      <trkpt lat="44.2584" lon="7.0415">
        <ele>1665.99</ele>
        <time>2018-05-11T11:22:51Z</time>
      </trkpt>
      <trkpt lat="44.25842" lon="7.04159">
        <ele>1665.53</ele>
        <time>2018-05-11T11:23:12Z</time>
      </trkpt>
      <trkpt lat="44.25849" lon="7.04189">
        <ele>1664.23</ele>
        <time>2018-05-11T11:23:33Z</time>
      </trkpt>
      <trkpt lat="44.25853" lon="7.04208">
        <ele>1665.29</ele>
        <time>2018-05-11T11:23:47Z</time>
      </trkpt>
      <trkpt lat="44.25852" lon="7.0421">
        <ele>1665.25</ele>
        <time>2018-05-11T11:23:48Z</time>
      </trkpt>
      <trkpt lat="44.25854" lon="7.04217">
        <ele>1664.82</ele>
        <time>2018-05-11T11:23:53Z</time>
      </trkpt>
      <trkpt lat="44.25861" lon="7.04228">
        <ele>1663.29</ele>
        <time>2018-05-11T11:24:03Z</time>
      </trkpt>
      <trkpt lat="44.25863" lon="7.04228">
        <ele>1663.52</ele>
        <time>2018-05-11T11:24:06Z</time>
      </trkpt>
      <trkpt lat="44.25889" lon="7.04223">
        <ele>1663.52</ele>
        <time>2018-05-11T11:24:30Z</time>
      </trkpt>
      <trkpt lat="44.25903" lon="7.04246">
        <ele>1664.77</ele>
        <time>2018-05-11T11:24:53Z</time>
      </trkpt>
      <trkpt lat="44.25923" lon="7.04264">
        <ele>1665.23</ele>
        <time>2018-05-11T11:25:16Z</time>
      </trkpt>
      <trkpt lat="44.25934" lon="7.04274">
        <ele>1666.13</ele>
        <time>2018-05-11T11:25:30Z</time>
      </trkpt>
      <trkpt lat="44.25938" lon="7.04278">
        <ele>1666.19</ele>
        <time>2018-05-11T11:25:34Z</time>
      </trkpt>
      <trkpt lat="44.25952" lon="7.04287">
        <ele>1666.44</ele>
        <time>2018-05-11T11:25:48Z</time>
      </trkpt>
      <trkpt lat="44.25952" lon="7.04288">
        <ele>1666.56</ele>
        <time>2018-05-11T11:25:49Z</time>
      </trkpt>
      <trkpt lat="44.25959" lon="7.04298">
        <ele>1667.04</ele>
        <time>2018-05-11T11:26:00Z</time>
      </trkpt>
      <trkpt lat="44.25972" lon="7.04311">
        <ele>1667.37</ele>
        <time>2018-05-11T11:26:16Z</time>
      </trkpt>
      <trkpt lat="44.25985" lon="7.04323">
        <ele>1668.04</ele>
        <time>2018-05-11T11:26:32Z</time>
      </trkpt>
      <trkpt lat="44.25985" lon="7.04324">
        <ele>1668.04</ele>
        <time>2018-05-11T11:26:33Z</time>
      </trkpt>
      <trkpt lat="44.25986" lon="7.04326">
        <ele>1668.07</ele>
        <time>2018-05-11T11:26:35Z</time>
      </trkpt>
      <trkpt lat="44.25999" lon="7.04339">
        <ele>1668.7</ele>
        <time>2018-05-11T11:26:52Z</time>
      </trkpt>
      <trkpt lat="44.26021" lon="7.04354">
        <ele>1669.25</ele>
        <time>2018-05-11T11:27:14Z</time>
      </trkpt>
      <trkpt lat="44.26037" lon="7.04364">
        <ele>1669.85</ele>
        <time>2018-05-11T11:27:30Z</time>
      </trkpt>
      <trkpt lat="44.26044" lon="7.0437">
        <ele>1669.98</ele>
        <time>2018-05-11T11:27:38Z</time>
      </trkpt>
      <trkpt lat="44.26046" lon="7.04373">
        <ele>1669.96</ele>
        <time>2018-05-11T11:27:41Z</time>
      </trkpt>
      <trkpt lat="44.2606" lon="7.04382">
        <ele>1670.29</ele>
        <time>2018-05-11T11:27:57Z</time>
      </trkpt>
      <trkpt lat="44.26078" lon="7.04403">
        <ele>1671.58</ele>
        <time>2018-05-11T11:28:22Z</time>
      </trkpt>
      <trkpt lat="44.26086" lon="7.04433">
        <ele>1672.33</ele>
        <time>2018-05-11T11:28:46Z</time>
      </trkpt>
      <trkpt lat="44.26094" lon="7.04445">
        <ele>1673.86</ele>
        <time>2018-05-11T11:29:06Z</time>
      </trkpt>
      <trkpt lat="44.26097" lon="7.04434">
        <ele>1676.08</ele>
        <time>2018-05-11T11:29:28Z</time>
      </trkpt>
      <trkpt lat="44.26103" lon="7.04431">
        <ele>1677.16</ele>
        <time>2018-05-11T11:29:48Z</time>
      </trkpt>
      <trkpt lat="44.26118" lon="7.04429">
        <ele>1677.23</ele>
        <time>2018-05-11T11:30:13Z</time>
      </trkpt>
      <trkpt lat="44.26106" lon="7.04447">
        <ele>1675.15</ele>
        <time>2018-05-11T11:30:32Z</time>
      </trkpt>
      <trkpt lat="44.26098" lon="7.0445">
        <ele>1672.74</ele>
        <time>2018-05-11T11:30:40Z</time>
      </trkpt>
      <trkpt lat="44.26094" lon="7.04445">
        <ele>1671.99</ele>
        <time>2018-05-11T11:30:43Z</time>
      </trkpt>
    </trkseg>
  </trk>
</gpx>